<?xml version="1.0" encoding="utf-8"?>
<gpx xmlns:xsi="http://www.w3.org/2001/XMLSchema-instance" xmlns:xsd="http://www.w3.org/2001/XMLSchema" version="1.1" creator="Shapelink.com" xmlns="http://www.topografix.com/GPX/1/1" xmlns:gpxtpx="http://www.garmin.com/xmlschemas/TrackPointExtension/v1">
  <metadata>
    <name>Längdskidåkning - Klassisk 7.43 km, 2013-12-09</name>
    <desc></desc>
    <author><name>Alexander Engvall</name></author> 
    <time>2013-12-09T19:44:07Z</time>
  </metadata>
  <trk>
    <name>Längdskidåkning - Klassisk 7.43 km, 2013-12-09</name>
    <trkseg>
      <trkpt lat="59.521859" lon="17.592325">
        <ele>38.4</ele>
        <time>2013-12-09T19:44:07Z</time>
      </trkpt>
      <trkpt lat="59.521884" lon="17.592416">
        <ele>37.9</ele>
        <time>2013-12-09T19:44:10Z</time>
      </trkpt>
      <trkpt lat="59.521916" lon="17.592452">
        <ele>37.6</ele>
        <time>2013-12-09T19:44:12Z</time>
      </trkpt>
      <trkpt lat="59.521918" lon="17.592379">
        <ele>38</ele>
        <time>2013-12-09T19:44:13Z</time>
      </trkpt>
      <trkpt lat="59.52187" lon="17.592438">
        <ele>37.8</ele>
        <time>2013-12-09T19:44:14Z</time>
      </trkpt>
      <trkpt lat="59.521817" lon="17.592324">
        <ele>38.5</ele>
        <time>2013-12-09T19:44:15Z</time>
      </trkpt>
      <trkpt lat="59.52181" lon="17.592436">
        <ele>38</ele>
        <time>2013-12-09T19:44:16Z</time>
      </trkpt>
      <trkpt lat="59.521888" lon="17.592265">
        <ele>38.6</ele>
        <time>2013-12-09T19:44:17Z</time>
      </trkpt>
      <trkpt lat="59.521858" lon="17.592421">
        <ele>37.9</ele>
        <time>2013-12-09T19:44:18Z</time>
      </trkpt>
      <trkpt lat="59.521804" lon="17.592302">
        <ele>38.6</ele>
        <time>2013-12-09T19:44:19Z</time>
      </trkpt>
      <trkpt lat="59.52185" lon="17.592343">
        <ele>38.3</ele>
        <time>2013-12-09T19:44:20Z</time>
      </trkpt>
      <trkpt lat="59.521827" lon="17.592283">
        <ele>38.7</ele>
        <time>2013-12-09T19:44:21Z</time>
      </trkpt>
      <trkpt lat="59.521798" lon="17.592281">
        <ele>38.7</ele>
        <time>2013-12-09T19:44:22Z</time>
      </trkpt>
      <trkpt lat="59.521771" lon="17.592247">
        <ele>39</ele>
        <time>2013-12-09T19:44:23Z</time>
      </trkpt>
      <trkpt lat="59.521742" lon="17.592256">
        <ele>39</ele>
        <time>2013-12-09T19:44:24Z</time>
      </trkpt>
      <trkpt lat="59.521708" lon="17.592265">
        <ele>39</ele>
        <time>2013-12-09T19:44:25Z</time>
      </trkpt>
      <trkpt lat="59.521668" lon="17.592251">
        <ele>39.2</ele>
        <time>2013-12-09T19:44:26Z</time>
      </trkpt>
      <trkpt lat="59.52163" lon="17.592259">
        <ele>39.2</ele>
        <time>2013-12-09T19:44:27Z</time>
      </trkpt>
      <trkpt lat="59.521593" lon="17.592261">
        <ele>39.3</ele>
        <time>2013-12-09T19:44:28Z</time>
      </trkpt>
      <trkpt lat="59.521556" lon="17.59227">
        <ele>39.4</ele>
        <time>2013-12-09T19:44:29Z</time>
      </trkpt>
      <trkpt lat="59.52152" lon="17.592278">
        <ele>39.4</ele>
        <time>2013-12-09T19:44:30Z</time>
      </trkpt>
      <trkpt lat="59.521485" lon="17.592304">
        <ele>39.4</ele>
        <time>2013-12-09T19:44:31Z</time>
      </trkpt>
      <trkpt lat="59.521453" lon="17.592339">
        <ele>39.3</ele>
        <time>2013-12-09T19:44:32Z</time>
      </trkpt>
      <trkpt lat="59.521426" lon="17.592389">
        <ele>39.1</ele>
        <time>2013-12-09T19:44:33Z</time>
      </trkpt>
      <trkpt lat="59.5214" lon="17.592443">
        <ele>38.9</ele>
        <time>2013-12-09T19:44:34Z</time>
      </trkpt>
      <trkpt lat="59.521372" lon="17.592493">
        <ele>38.7</ele>
        <time>2013-12-09T19:44:35Z</time>
      </trkpt>
      <trkpt lat="59.521342" lon="17.592533">
        <ele>38.6</ele>
        <time>2013-12-09T19:44:36Z</time>
      </trkpt>
      <trkpt lat="59.521312" lon="17.59256">
        <ele>38.6</ele>
        <time>2013-12-09T19:44:37Z</time>
      </trkpt>
      <trkpt lat="59.521285" lon="17.592586">
        <ele>38.5</ele>
        <time>2013-12-09T19:44:38Z</time>
      </trkpt>
      <trkpt lat="59.521316" lon="17.592597">
        <ele>38.4</ele>
        <time>2013-12-09T19:44:44Z</time>
      </trkpt>
      <trkpt lat="59.521346" lon="17.59255">
        <ele>38.5</ele>
        <time>2013-12-09T19:44:46Z</time>
      </trkpt>
      <trkpt lat="59.521375" lon="17.592494">
        <ele>38.7</ele>
        <time>2013-12-09T19:44:48Z</time>
      </trkpt>
      <trkpt lat="59.521402" lon="17.592434">
        <ele>39</ele>
        <time>2013-12-09T19:44:50Z</time>
      </trkpt>
      <trkpt lat="59.521434" lon="17.592373">
        <ele>39.2</ele>
        <time>2013-12-09T19:44:52Z</time>
      </trkpt>
      <trkpt lat="59.521467" lon="17.592321">
        <ele>39.3</ele>
        <time>2013-12-09T19:44:54Z</time>
      </trkpt>
      <trkpt lat="59.521411" lon="17.592417">
        <ele>39</ele>
        <time>2013-12-09T19:45:03Z</time>
      </trkpt>
      <trkpt lat="59.521395" lon="17.59245">
        <ele>38.9</ele>
        <time>2013-12-09T19:45:04Z</time>
      </trkpt>
      <trkpt lat="59.521364" lon="17.592511">
        <ele>38.7</ele>
        <time>2013-12-09T19:45:05Z</time>
      </trkpt>
      <trkpt lat="59.521329" lon="17.592568">
        <ele>38.5</ele>
        <time>2013-12-09T19:45:06Z</time>
      </trkpt>
      <trkpt lat="59.521266" lon="17.592619">
        <ele>38.4</ele>
        <time>2013-12-09T19:45:07Z</time>
      </trkpt>
      <trkpt lat="59.521226" lon="17.592623">
        <ele>38.4</ele>
        <time>2013-12-09T19:45:08Z</time>
      </trkpt>
      <trkpt lat="59.521179" lon="17.592638">
        <ele>38.3</ele>
        <time>2013-12-09T19:45:09Z</time>
      </trkpt>
      <trkpt lat="59.521132" lon="17.592637">
        <ele>38.2</ele>
        <time>2013-12-09T19:45:10Z</time>
      </trkpt>
      <trkpt lat="59.521065" lon="17.59265">
        <ele>38.1</ele>
        <time>2013-12-09T19:45:12Z</time>
      </trkpt>
      <trkpt lat="59.521014" lon="17.592667">
        <ele>38</ele>
        <time>2013-12-09T19:45:13Z</time>
      </trkpt>
      <trkpt lat="59.520972" lon="17.592671">
        <ele>37.9</ele>
        <time>2013-12-09T19:45:14Z</time>
      </trkpt>
      <trkpt lat="59.520922" lon="17.592686">
        <ele>37.8</ele>
        <time>2013-12-09T19:45:15Z</time>
      </trkpt>
      <trkpt lat="59.520876" lon="17.592686">
        <ele>37.8</ele>
        <time>2013-12-09T19:45:16Z</time>
      </trkpt>
      <trkpt lat="59.520834" lon="17.592704">
        <ele>37.6</ele>
        <time>2013-12-09T19:45:17Z</time>
      </trkpt>
      <trkpt lat="59.520793" lon="17.592718">
        <ele>37.5</ele>
        <time>2013-12-09T19:45:18Z</time>
      </trkpt>
      <trkpt lat="59.520749" lon="17.592734">
        <ele>37.4</ele>
        <time>2013-12-09T19:45:19Z</time>
      </trkpt>
      <trkpt lat="59.520706" lon="17.592732">
        <ele>37.4</ele>
        <time>2013-12-09T19:45:20Z</time>
      </trkpt>
      <trkpt lat="59.520666" lon="17.592738">
        <ele>37.3</ele>
        <time>2013-12-09T19:45:21Z</time>
      </trkpt>
      <trkpt lat="59.520626" lon="17.592739">
        <ele>37.3</ele>
        <time>2013-12-09T19:45:22Z</time>
      </trkpt>
      <trkpt lat="59.520588" lon="17.59271">
        <ele>37.4</ele>
        <time>2013-12-09T19:45:23Z</time>
      </trkpt>
      <trkpt lat="59.520545" lon="17.592707">
        <ele>37.4</ele>
        <time>2013-12-09T19:45:24Z</time>
      </trkpt>
      <trkpt lat="59.520507" lon="17.592732">
        <ele>37.2</ele>
        <time>2013-12-09T19:45:25Z</time>
      </trkpt>
      <trkpt lat="59.520467" lon="17.592751">
        <ele>37</ele>
        <time>2013-12-09T19:45:26Z</time>
      </trkpt>
      <trkpt lat="59.520426" lon="17.592772">
        <ele>36.9</ele>
        <time>2013-12-09T19:45:27Z</time>
      </trkpt>
      <trkpt lat="59.520386" lon="17.592782">
        <ele>36.8</ele>
        <time>2013-12-09T19:45:28Z</time>
      </trkpt>
      <trkpt lat="59.520347" lon="17.592793">
        <ele>36.7</ele>
        <time>2013-12-09T19:45:29Z</time>
      </trkpt>
      <trkpt lat="59.520307" lon="17.592803">
        <ele>36.6</ele>
        <time>2013-12-09T19:45:30Z</time>
      </trkpt>
      <trkpt lat="59.520267" lon="17.592801">
        <ele>36.6</ele>
        <time>2013-12-09T19:45:31Z</time>
      </trkpt>
      <trkpt lat="59.520229" lon="17.592791">
        <ele>36.6</ele>
        <time>2013-12-09T19:45:32Z</time>
      </trkpt>
      <trkpt lat="59.520199" lon="17.592775">
        <ele>36.6</ele>
        <time>2013-12-09T19:45:33Z</time>
      </trkpt>
      <trkpt lat="59.520235" lon="17.592794">
        <ele>36.6</ele>
        <time>2013-12-09T19:45:44Z</time>
      </trkpt>
      <trkpt lat="59.520273" lon="17.592799">
        <ele>36.6</ele>
        <time>2013-12-09T19:45:46Z</time>
      </trkpt>
      <trkpt lat="59.520301" lon="17.592805">
        <ele>36.6</ele>
        <time>2013-12-09T19:45:48Z</time>
      </trkpt>
      <trkpt lat="59.520265" lon="17.592848">
        <ele>36.3</ele>
        <time>2013-12-09T19:45:54Z</time>
      </trkpt>
      <trkpt lat="59.520238" lon="17.592845">
        <ele>36.3</ele>
        <time>2013-12-09T19:45:55Z</time>
      </trkpt>
      <trkpt lat="59.520211" lon="17.592838">
        <ele>36.4</ele>
        <time>2013-12-09T19:45:56Z</time>
      </trkpt>
      <trkpt lat="59.520182" lon="17.592823">
        <ele>36.4</ele>
        <time>2013-12-09T19:45:57Z</time>
      </trkpt>
      <trkpt lat="59.520153" lon="17.592805">
        <ele>36.5</ele>
        <time>2013-12-09T19:45:58Z</time>
      </trkpt>
      <trkpt lat="59.520126" lon="17.592785">
        <ele>36.5</ele>
        <time>2013-12-09T19:45:59Z</time>
      </trkpt>
      <trkpt lat="59.52008" lon="17.592747">
        <ele>36.6</ele>
        <time>2013-12-09T19:46:01Z</time>
      </trkpt>
      <trkpt lat="59.520046" lon="17.592733">
        <ele>36.6</ele>
        <time>2013-12-09T19:46:03Z</time>
      </trkpt>
      <trkpt lat="59.52001" lon="17.592734">
        <ele>36.6</ele>
        <time>2013-12-09T19:46:05Z</time>
      </trkpt>
      <trkpt lat="59.519975" lon="17.592733">
        <ele>36.5</ele>
        <time>2013-12-09T19:46:07Z</time>
      </trkpt>
      <trkpt lat="59.520024" lon="17.592762">
        <ele>36.5</ele>
        <time>2013-12-09T19:46:15Z</time>
      </trkpt>
      <trkpt lat="59.520065" lon="17.592763">
        <ele>36.5</ele>
        <time>2013-12-09T19:46:16Z</time>
      </trkpt>
      <trkpt lat="59.520109" lon="17.592779">
        <ele>36.5</ele>
        <time>2013-12-09T19:46:17Z</time>
      </trkpt>
      <trkpt lat="59.520163" lon="17.59281">
        <ele>36.4</ele>
        <time>2013-12-09T19:46:18Z</time>
      </trkpt>
      <trkpt lat="59.520233" lon="17.592847">
        <ele>36.3</ele>
        <time>2013-12-09T19:46:19Z</time>
      </trkpt>
      <trkpt lat="59.520286" lon="17.592844">
        <ele>36.4</ele>
        <time>2013-12-09T19:46:20Z</time>
      </trkpt>
      <trkpt lat="59.52034" lon="17.592818">
        <ele>36.5</ele>
        <time>2013-12-09T19:46:21Z</time>
      </trkpt>
      <trkpt lat="59.520395" lon="17.59277">
        <ele>36.9</ele>
        <time>2013-12-09T19:46:22Z</time>
      </trkpt>
      <trkpt lat="59.520446" lon="17.592747">
        <ele>37</ele>
        <time>2013-12-09T19:46:23Z</time>
      </trkpt>
      <trkpt lat="59.520495" lon="17.592736">
        <ele>37.2</ele>
        <time>2013-12-09T19:46:24Z</time>
      </trkpt>
      <trkpt lat="59.520538" lon="17.592755">
        <ele>37.1</ele>
        <time>2013-12-09T19:46:25Z</time>
      </trkpt>
      <trkpt lat="59.520583" lon="17.59276">
        <ele>37.1</ele>
        <time>2013-12-09T19:46:26Z</time>
      </trkpt>
      <trkpt lat="59.520642" lon="17.592756">
        <ele>37.2</ele>
        <time>2013-12-09T19:46:27Z</time>
      </trkpt>
      <trkpt lat="59.520694" lon="17.592742">
        <ele>37.3</ele>
        <time>2013-12-09T19:46:28Z</time>
      </trkpt>
      <trkpt lat="59.520742" lon="17.592731">
        <ele>37.4</ele>
        <time>2013-12-09T19:46:29Z</time>
      </trkpt>
      <trkpt lat="59.520787" lon="17.59272">
        <ele>37.5</ele>
        <time>2013-12-09T19:46:30Z</time>
      </trkpt>
      <trkpt lat="59.520845" lon="17.592722">
        <ele>37.6</ele>
        <time>2013-12-09T19:46:31Z</time>
      </trkpt>
      <trkpt lat="59.520898" lon="17.592724">
        <ele>37.6</ele>
        <time>2013-12-09T19:46:32Z</time>
      </trkpt>
      <trkpt lat="59.520946" lon="17.592706">
        <ele>37.7</ele>
        <time>2013-12-09T19:46:33Z</time>
      </trkpt>
      <trkpt lat="59.520992" lon="17.592695">
        <ele>37.8</ele>
        <time>2013-12-09T19:46:34Z</time>
      </trkpt>
      <trkpt lat="59.521041" lon="17.592692">
        <ele>37.9</ele>
        <time>2013-12-09T19:46:35Z</time>
      </trkpt>
      <trkpt lat="59.521084" lon="17.592685">
        <ele>38</ele>
        <time>2013-12-09T19:46:36Z</time>
      </trkpt>
      <trkpt lat="59.521128" lon="17.592684">
        <ele>38</ele>
        <time>2013-12-09T19:46:37Z</time>
      </trkpt>
      <trkpt lat="59.521168" lon="17.592681">
        <ele>38.1</ele>
        <time>2013-12-09T19:46:38Z</time>
      </trkpt>
      <trkpt lat="59.521207" lon="17.592668">
        <ele>38.2</ele>
        <time>2013-12-09T19:46:39Z</time>
      </trkpt>
      <trkpt lat="59.521246" lon="17.592641">
        <ele>38.3</ele>
        <time>2013-12-09T19:46:40Z</time>
      </trkpt>
      <trkpt lat="59.521288" lon="17.592586">
        <ele>38.5</ele>
        <time>2013-12-09T19:46:41Z</time>
      </trkpt>
      <trkpt lat="59.521328" lon="17.592537">
        <ele>38.6</ele>
        <time>2013-12-09T19:46:42Z</time>
      </trkpt>
      <trkpt lat="59.521354" lon="17.592489">
        <ele>38.8</ele>
        <time>2013-12-09T19:46:43Z</time>
      </trkpt>
      <trkpt lat="59.521379" lon="17.592432">
        <ele>39</ele>
        <time>2013-12-09T19:46:44Z</time>
      </trkpt>
      <trkpt lat="59.521407" lon="17.592387">
        <ele>39.2</ele>
        <time>2013-12-09T19:46:45Z</time>
      </trkpt>
      <trkpt lat="59.521436" lon="17.592353">
        <ele>39.3</ele>
        <time>2013-12-09T19:46:46Z</time>
      </trkpt>
      <trkpt lat="59.521469" lon="17.592325">
        <ele>39.3</ele>
        <time>2013-12-09T19:46:47Z</time>
      </trkpt>
      <trkpt lat="59.521499" lon="17.592301">
        <ele>39.4</ele>
        <time>2013-12-09T19:46:48Z</time>
      </trkpt>
      <trkpt lat="59.521534" lon="17.592278">
        <ele>39.4</ele>
        <time>2013-12-09T19:46:49Z</time>
      </trkpt>
      <trkpt lat="59.521568" lon="17.59226">
        <ele>39.4</ele>
        <time>2013-12-09T19:46:50Z</time>
      </trkpt>
      <trkpt lat="59.521604" lon="17.59225">
        <ele>39.4</ele>
        <time>2013-12-09T19:46:51Z</time>
      </trkpt>
      <trkpt lat="59.521642" lon="17.59225">
        <ele>39.3</ele>
        <time>2013-12-09T19:46:52Z</time>
      </trkpt>
      <trkpt lat="59.52168" lon="17.592257">
        <ele>39.1</ele>
        <time>2013-12-09T19:46:53Z</time>
      </trkpt>
      <trkpt lat="59.521718" lon="17.592262">
        <ele>39</ele>
        <time>2013-12-09T19:46:54Z</time>
      </trkpt>
      <trkpt lat="59.521753" lon="17.592269">
        <ele>38.9</ele>
        <time>2013-12-09T19:46:55Z</time>
      </trkpt>
      <trkpt lat="59.521785" lon="17.59228">
        <ele>38.8</ele>
        <time>2013-12-09T19:46:56Z</time>
      </trkpt>
      <trkpt lat="59.521819" lon="17.592309">
        <ele>38.6</ele>
        <time>2013-12-09T19:46:58Z</time>
      </trkpt>
      <trkpt lat="59.521785" lon="17.59229">
        <ele>38.7</ele>
        <time>2013-12-09T19:47:06Z</time>
      </trkpt>
      <trkpt lat="59.521733" lon="17.592283">
        <ele>38.9</ele>
        <time>2013-12-09T19:47:08Z</time>
      </trkpt>
      <trkpt lat="59.521701" lon="17.592281">
        <ele>39</ele>
        <time>2013-12-09T19:47:09Z</time>
      </trkpt>
      <trkpt lat="59.521668" lon="17.592278">
        <ele>39.1</ele>
        <time>2013-12-09T19:47:10Z</time>
      </trkpt>
      <trkpt lat="59.521634" lon="17.592276">
        <ele>39.2</ele>
        <time>2013-12-09T19:47:11Z</time>
      </trkpt>
      <trkpt lat="59.521596" lon="17.592276">
        <ele>39.2</ele>
        <time>2013-12-09T19:47:12Z</time>
      </trkpt>
      <trkpt lat="59.521559" lon="17.592287">
        <ele>39.3</ele>
        <time>2013-12-09T19:47:13Z</time>
      </trkpt>
      <trkpt lat="59.521522" lon="17.592303">
        <ele>39.3</ele>
        <time>2013-12-09T19:47:14Z</time>
      </trkpt>
      <trkpt lat="59.521486" lon="17.592326">
        <ele>39.3</ele>
        <time>2013-12-09T19:47:15Z</time>
      </trkpt>
      <trkpt lat="59.521453" lon="17.592365">
        <ele>39.2</ele>
        <time>2013-12-09T19:47:16Z</time>
      </trkpt>
      <trkpt lat="59.521422" lon="17.592417">
        <ele>39</ele>
        <time>2013-12-09T19:47:17Z</time>
      </trkpt>
      <trkpt lat="59.521386" lon="17.592487">
        <ele>38.7</ele>
        <time>2013-12-09T19:47:18Z</time>
      </trkpt>
      <trkpt lat="59.521347" lon="17.592589">
        <ele>38.3</ele>
        <time>2013-12-09T19:47:19Z</time>
      </trkpt>
      <trkpt lat="59.521301" lon="17.592626">
        <ele>38.3</ele>
        <time>2013-12-09T19:47:20Z</time>
      </trkpt>
      <trkpt lat="59.521251" lon="17.592655">
        <ele>38.3</ele>
        <time>2013-12-09T19:47:21Z</time>
      </trkpt>
      <trkpt lat="59.521207" lon="17.592655">
        <ele>38.2</ele>
        <time>2013-12-09T19:47:22Z</time>
      </trkpt>
      <trkpt lat="59.521154" lon="17.592677">
        <ele>38.1</ele>
        <time>2013-12-09T19:47:23Z</time>
      </trkpt>
      <trkpt lat="59.5211" lon="17.592701">
        <ele>37.9</ele>
        <time>2013-12-09T19:47:24Z</time>
      </trkpt>
      <trkpt lat="59.521059" lon="17.592699">
        <ele>37.9</ele>
        <time>2013-12-09T19:47:25Z</time>
      </trkpt>
      <trkpt lat="59.521011" lon="17.592693">
        <ele>37.9</ele>
        <time>2013-12-09T19:47:26Z</time>
      </trkpt>
      <trkpt lat="59.520957" lon="17.592703">
        <ele>37.8</ele>
        <time>2013-12-09T19:47:27Z</time>
      </trkpt>
      <trkpt lat="59.520908" lon="17.592703">
        <ele>37.7</ele>
        <time>2013-12-09T19:47:28Z</time>
      </trkpt>
      <trkpt lat="59.520862" lon="17.592705">
        <ele>37.7</ele>
        <time>2013-12-09T19:47:29Z</time>
      </trkpt>
      <trkpt lat="59.520816" lon="17.592711">
        <ele>37.6</ele>
        <time>2013-12-09T19:47:30Z</time>
      </trkpt>
      <trkpt lat="59.520768" lon="17.592732">
        <ele>37.4</ele>
        <time>2013-12-09T19:47:31Z</time>
      </trkpt>
      <trkpt lat="59.520726" lon="17.592742">
        <ele>37.3</ele>
        <time>2013-12-09T19:47:32Z</time>
      </trkpt>
      <trkpt lat="59.520681" lon="17.592752">
        <ele>37.2</ele>
        <time>2013-12-09T19:47:33Z</time>
      </trkpt>
      <trkpt lat="59.52064" lon="17.59274">
        <ele>37.3</ele>
        <time>2013-12-09T19:47:34Z</time>
      </trkpt>
      <trkpt lat="59.520595" lon="17.59274">
        <ele>37.2</ele>
        <time>2013-12-09T19:47:35Z</time>
      </trkpt>
      <trkpt lat="59.520547" lon="17.592723">
        <ele>37.3</ele>
        <time>2013-12-09T19:47:36Z</time>
      </trkpt>
      <trkpt lat="59.520509" lon="17.592715">
        <ele>37.3</ele>
        <time>2013-12-09T19:47:37Z</time>
      </trkpt>
      <trkpt lat="59.520466" lon="17.592749">
        <ele>37.1</ele>
        <time>2013-12-09T19:47:38Z</time>
      </trkpt>
      <trkpt lat="59.520423" lon="17.592777">
        <ele>36.8</ele>
        <time>2013-12-09T19:47:39Z</time>
      </trkpt>
      <trkpt lat="59.520385" lon="17.592803">
        <ele>36.7</ele>
        <time>2013-12-09T19:47:40Z</time>
      </trkpt>
      <trkpt lat="59.520345" lon="17.592831">
        <ele>36.5</ele>
        <time>2013-12-09T19:47:41Z</time>
      </trkpt>
      <trkpt lat="59.520301" lon="17.59284">
        <ele>36.4</ele>
        <time>2013-12-09T19:47:42Z</time>
      </trkpt>
      <trkpt lat="59.520259" lon="17.592829">
        <ele>36.4</ele>
        <time>2013-12-09T19:47:43Z</time>
      </trkpt>
      <trkpt lat="59.520219" lon="17.592801">
        <ele>36.5</ele>
        <time>2013-12-09T19:47:44Z</time>
      </trkpt>
      <trkpt lat="59.520187" lon="17.592775">
        <ele>36.6</ele>
        <time>2013-12-09T19:47:45Z</time>
      </trkpt>
      <trkpt lat="59.520157" lon="17.592756">
        <ele>36.7</ele>
        <time>2013-12-09T19:47:46Z</time>
      </trkpt>
      <trkpt lat="59.52013" lon="17.59275">
        <ele>36.7</ele>
        <time>2013-12-09T19:47:47Z</time>
      </trkpt>
      <trkpt lat="59.520085" lon="17.59274">
        <ele>36.6</ele>
        <time>2013-12-09T19:47:49Z</time>
      </trkpt>
      <trkpt lat="59.520045" lon="17.592737">
        <ele>36.6</ele>
        <time>2013-12-09T19:47:51Z</time>
      </trkpt>
      <trkpt lat="59.520006" lon="17.592736">
        <ele>36.5</ele>
        <time>2013-12-09T19:47:53Z</time>
      </trkpt>
      <trkpt lat="59.519977" lon="17.592732">
        <ele>36.5</ele>
        <time>2013-12-09T19:47:55Z</time>
      </trkpt>
      <trkpt lat="59.520008" lon="17.592764">
        <ele>36.5</ele>
        <time>2013-12-09T19:48:03Z</time>
      </trkpt>
      <trkpt lat="59.520039" lon="17.592762">
        <ele>36.5</ele>
        <time>2013-12-09T19:48:04Z</time>
      </trkpt>
      <trkpt lat="59.520084" lon="17.592766">
        <ele>36.5</ele>
        <time>2013-12-09T19:48:05Z</time>
      </trkpt>
      <trkpt lat="59.520132" lon="17.592784">
        <ele>36.5</ele>
        <time>2013-12-09T19:48:06Z</time>
      </trkpt>
      <trkpt lat="59.520193" lon="17.592814">
        <ele>36.5</ele>
        <time>2013-12-09T19:48:07Z</time>
      </trkpt>
      <trkpt lat="59.52027" lon="17.592836">
        <ele>36.4</ele>
        <time>2013-12-09T19:48:08Z</time>
      </trkpt>
      <trkpt lat="59.520329" lon="17.592811">
        <ele>36.6</ele>
        <time>2013-12-09T19:48:09Z</time>
      </trkpt>
      <trkpt lat="59.520378" lon="17.592793">
        <ele>36.7</ele>
        <time>2013-12-09T19:48:10Z</time>
      </trkpt>
      <trkpt lat="59.520408" lon="17.592757">
        <ele>36.9</ele>
        <time>2013-12-09T19:48:11Z</time>
      </trkpt>
      <trkpt lat="59.520461" lon="17.592737">
        <ele>37.1</ele>
        <time>2013-12-09T19:48:12Z</time>
      </trkpt>
      <trkpt lat="59.520512" lon="17.592731">
        <ele>37.2</ele>
        <time>2013-12-09T19:48:13Z</time>
      </trkpt>
      <trkpt lat="59.520551" lon="17.592736">
        <ele>37.2</ele>
        <time>2013-12-09T19:48:14Z</time>
      </trkpt>
      <trkpt lat="59.520589" lon="17.592721">
        <ele>37.3</ele>
        <time>2013-12-09T19:48:15Z</time>
      </trkpt>
      <trkpt lat="59.520642" lon="17.592715">
        <ele>37.4</ele>
        <time>2013-12-09T19:48:16Z</time>
      </trkpt>
      <trkpt lat="59.520685" lon="17.592722">
        <ele>37.4</ele>
        <time>2013-12-09T19:48:17Z</time>
      </trkpt>
      <trkpt lat="59.520729" lon="17.592714">
        <ele>37.5</ele>
        <time>2013-12-09T19:48:18Z</time>
      </trkpt>
      <trkpt lat="59.520773" lon="17.592703">
        <ele>37.6</ele>
        <time>2013-12-09T19:48:19Z</time>
      </trkpt>
      <trkpt lat="59.520822" lon="17.592697">
        <ele>37.7</ele>
        <time>2013-12-09T19:48:20Z</time>
      </trkpt>
      <trkpt lat="59.520867" lon="17.592694">
        <ele>37.7</ele>
        <time>2013-12-09T19:48:21Z</time>
      </trkpt>
      <trkpt lat="59.520911" lon="17.5927">
        <ele>37.7</ele>
        <time>2013-12-09T19:48:22Z</time>
      </trkpt>
      <trkpt lat="59.520956" lon="17.592704">
        <ele>37.8</ele>
        <time>2013-12-09T19:48:23Z</time>
      </trkpt>
      <trkpt lat="59.520997" lon="17.592699">
        <ele>37.8</ele>
        <time>2013-12-09T19:48:24Z</time>
      </trkpt>
      <trkpt lat="59.521051" lon="17.592692">
        <ele>37.9</ele>
        <time>2013-12-09T19:48:25Z</time>
      </trkpt>
      <trkpt lat="59.521104" lon="17.592684">
        <ele>38</ele>
        <time>2013-12-09T19:48:26Z</time>
      </trkpt>
      <trkpt lat="59.521141" lon="17.592677">
        <ele>38.1</ele>
        <time>2013-12-09T19:48:27Z</time>
      </trkpt>
      <trkpt lat="59.521181" lon="17.592674">
        <ele>38.1</ele>
        <time>2013-12-09T19:48:28Z</time>
      </trkpt>
      <trkpt lat="59.521224" lon="17.592666">
        <ele>38.2</ele>
        <time>2013-12-09T19:48:29Z</time>
      </trkpt>
      <trkpt lat="59.521265" lon="17.592651">
        <ele>38.2</ele>
        <time>2013-12-09T19:48:30Z</time>
      </trkpt>
      <trkpt lat="59.521304" lon="17.592621">
        <ele>38.3</ele>
        <time>2013-12-09T19:48:31Z</time>
      </trkpt>
      <trkpt lat="59.521337" lon="17.592589">
        <ele>38.4</ele>
        <time>2013-12-09T19:48:32Z</time>
      </trkpt>
      <trkpt lat="59.521365" lon="17.592546">
        <ele>38.5</ele>
        <time>2013-12-09T19:48:33Z</time>
      </trkpt>
      <trkpt lat="59.521395" lon="17.592507">
        <ele>38.6</ele>
        <time>2013-12-09T19:48:34Z</time>
      </trkpt>
      <trkpt lat="59.521422" lon="17.592465">
        <ele>38.8</ele>
        <time>2013-12-09T19:48:35Z</time>
      </trkpt>
      <trkpt lat="59.521449" lon="17.592422">
        <ele>38.9</ele>
        <time>2013-12-09T19:48:36Z</time>
      </trkpt>
      <trkpt lat="59.521476" lon="17.592385">
        <ele>39</ele>
        <time>2013-12-09T19:48:37Z</time>
      </trkpt>
      <trkpt lat="59.521503" lon="17.592351">
        <ele>39.1</ele>
        <time>2013-12-09T19:48:38Z</time>
      </trkpt>
      <trkpt lat="59.521533" lon="17.592323">
        <ele>39.2</ele>
        <time>2013-12-09T19:48:39Z</time>
      </trkpt>
      <trkpt lat="59.521564" lon="17.592303">
        <ele>39.2</ele>
        <time>2013-12-09T19:48:40Z</time>
      </trkpt>
      <trkpt lat="59.521597" lon="17.59229">
        <ele>39.2</ele>
        <time>2013-12-09T19:48:41Z</time>
      </trkpt>
      <trkpt lat="59.52163" lon="17.592284">
        <ele>39.1</ele>
        <time>2013-12-09T19:48:42Z</time>
      </trkpt>
      <trkpt lat="59.521662" lon="17.59228">
        <ele>39.1</ele>
        <time>2013-12-09T19:48:43Z</time>
      </trkpt>
      <trkpt lat="59.521692" lon="17.592279">
        <ele>39</ele>
        <time>2013-12-09T19:48:44Z</time>
      </trkpt>
      <trkpt lat="59.521744" lon="17.592286">
        <ele>38.8</ele>
        <time>2013-12-09T19:48:46Z</time>
      </trkpt>
      <trkpt lat="59.521798" lon="17.592294">
        <ele>38.7</ele>
        <time>2013-12-09T19:48:48Z</time>
      </trkpt>
      <trkpt lat="59.521825" lon="17.592308">
        <ele>38.5</ele>
        <time>2013-12-09T19:48:49Z</time>
      </trkpt>
      <trkpt lat="59.521873" lon="17.592336">
        <ele>38.3</ele>
        <time>2013-12-09T19:48:51Z</time>
      </trkpt>
      <trkpt lat="59.52184" lon="17.592303">
        <ele>38.5</ele>
        <time>2013-12-09T19:48:55Z</time>
      </trkpt>
      <trkpt lat="59.521786" lon="17.59231">
        <ele>38.6</ele>
        <time>2013-12-09T19:48:57Z</time>
      </trkpt>
      <trkpt lat="59.521756" lon="17.592306">
        <ele>38.7</ele>
        <time>2013-12-09T19:48:58Z</time>
      </trkpt>
      <trkpt lat="59.521727" lon="17.592304">
        <ele>38.8</ele>
        <time>2013-12-09T19:48:59Z</time>
      </trkpt>
      <trkpt lat="59.521695" lon="17.592303">
        <ele>38.9</ele>
        <time>2013-12-09T19:49:00Z</time>
      </trkpt>
      <trkpt lat="59.521656" lon="17.592304">
        <ele>39</ele>
        <time>2013-12-09T19:49:01Z</time>
      </trkpt>
      <trkpt lat="59.52162" lon="17.592305">
        <ele>39</ele>
        <time>2013-12-09T19:49:02Z</time>
      </trkpt>
      <trkpt lat="59.521584" lon="17.59231">
        <ele>39.1</ele>
        <time>2013-12-09T19:49:03Z</time>
      </trkpt>
      <trkpt lat="59.521548" lon="17.592321">
        <ele>39.1</ele>
        <time>2013-12-09T19:49:04Z</time>
      </trkpt>
      <trkpt lat="59.521515" lon="17.592341">
        <ele>39.1</ele>
        <time>2013-12-09T19:49:05Z</time>
      </trkpt>
      <trkpt lat="59.521484" lon="17.592368">
        <ele>39.1</ele>
        <time>2013-12-09T19:49:06Z</time>
      </trkpt>
      <trkpt lat="59.521454" lon="17.5924">
        <ele>39</ele>
        <time>2013-12-09T19:49:07Z</time>
      </trkpt>
      <trkpt lat="59.521427" lon="17.592441">
        <ele>38.9</ele>
        <time>2013-12-09T19:49:08Z</time>
      </trkpt>
      <trkpt lat="59.521401" lon="17.592488">
        <ele>38.7</ele>
        <time>2013-12-09T19:49:09Z</time>
      </trkpt>
      <trkpt lat="59.521376" lon="17.592539">
        <ele>38.5</ele>
        <time>2013-12-09T19:49:10Z</time>
      </trkpt>
      <trkpt lat="59.521346" lon="17.592599">
        <ele>38.3</ele>
        <time>2013-12-09T19:49:11Z</time>
      </trkpt>
      <trkpt lat="59.521314" lon="17.592653">
        <ele>38.1</ele>
        <time>2013-12-09T19:49:12Z</time>
      </trkpt>
      <trkpt lat="59.521275" lon="17.592696">
        <ele>38</ele>
        <time>2013-12-09T19:49:13Z</time>
      </trkpt>
      <trkpt lat="59.521219" lon="17.592702">
        <ele>38</ele>
        <time>2013-12-09T19:49:14Z</time>
      </trkpt>
      <trkpt lat="59.521173" lon="17.592697">
        <ele>38</ele>
        <time>2013-12-09T19:49:15Z</time>
      </trkpt>
      <trkpt lat="59.521135" lon="17.5927">
        <ele>37.9</ele>
        <time>2013-12-09T19:49:16Z</time>
      </trkpt>
      <trkpt lat="59.521093" lon="17.592694">
        <ele>37.9</ele>
        <time>2013-12-09T19:49:17Z</time>
      </trkpt>
      <trkpt lat="59.52105" lon="17.592696">
        <ele>37.9</ele>
        <time>2013-12-09T19:49:18Z</time>
      </trkpt>
      <trkpt lat="59.521005" lon="17.5927">
        <ele>37.8</ele>
        <time>2013-12-09T19:49:19Z</time>
      </trkpt>
      <trkpt lat="59.520961" lon="17.592696">
        <ele>37.8</ele>
        <time>2013-12-09T19:49:20Z</time>
      </trkpt>
      <trkpt lat="59.52092" lon="17.592698">
        <ele>37.8</ele>
        <time>2013-12-09T19:49:21Z</time>
      </trkpt>
      <trkpt lat="59.520883" lon="17.592699">
        <ele>37.7</ele>
        <time>2013-12-09T19:49:22Z</time>
      </trkpt>
      <trkpt lat="59.520845" lon="17.592706">
        <ele>37.6</ele>
        <time>2013-12-09T19:49:23Z</time>
      </trkpt>
      <trkpt lat="59.520802" lon="17.592707">
        <ele>37.6</ele>
        <time>2013-12-09T19:49:24Z</time>
      </trkpt>
      <trkpt lat="59.520766" lon="17.59271">
        <ele>37.6</ele>
        <time>2013-12-09T19:49:25Z</time>
      </trkpt>
      <trkpt lat="59.520728" lon="17.59272">
        <ele>37.5</ele>
        <time>2013-12-09T19:49:26Z</time>
      </trkpt>
      <trkpt lat="59.52069" lon="17.592727">
        <ele>37.4</ele>
        <time>2013-12-09T19:49:27Z</time>
      </trkpt>
      <trkpt lat="59.520652" lon="17.592736">
        <ele>37.3</ele>
        <time>2013-12-09T19:49:28Z</time>
      </trkpt>
      <trkpt lat="59.520614" lon="17.592743">
        <ele>37.2</ele>
        <time>2013-12-09T19:49:29Z</time>
      </trkpt>
      <trkpt lat="59.520576" lon="17.59275">
        <ele>37.2</ele>
        <time>2013-12-09T19:49:30Z</time>
      </trkpt>
      <trkpt lat="59.520537" lon="17.592758">
        <ele>37.1</ele>
        <time>2013-12-09T19:49:31Z</time>
      </trkpt>
      <trkpt lat="59.5205" lon="17.592767">
        <ele>37</ele>
        <time>2013-12-09T19:49:32Z</time>
      </trkpt>
      <trkpt lat="59.520463" lon="17.592781">
        <ele>36.9</ele>
        <time>2013-12-09T19:49:33Z</time>
      </trkpt>
      <trkpt lat="59.520425" lon="17.592794">
        <ele>36.7</ele>
        <time>2013-12-09T19:49:34Z</time>
      </trkpt>
      <trkpt lat="59.520388" lon="17.592814">
        <ele>36.6</ele>
        <time>2013-12-09T19:49:35Z</time>
      </trkpt>
      <trkpt lat="59.520351" lon="17.592833">
        <ele>36.5</ele>
        <time>2013-12-09T19:49:36Z</time>
      </trkpt>
      <trkpt lat="59.520315" lon="17.592863">
        <ele>36.3</ele>
        <time>2013-12-09T19:49:37Z</time>
      </trkpt>
      <trkpt lat="59.520277" lon="17.592876">
        <ele>36.2</ele>
        <time>2013-12-09T19:49:38Z</time>
      </trkpt>
      <trkpt lat="59.52024" lon="17.592878">
        <ele>36.2</ele>
        <time>2013-12-09T19:49:39Z</time>
      </trkpt>
      <trkpt lat="59.520202" lon="17.592885">
        <ele>36.1</ele>
        <time>2013-12-09T19:49:40Z</time>
      </trkpt>
      <trkpt lat="59.520166" lon="17.59284">
        <ele>36.3</ele>
        <time>2013-12-09T19:49:41Z</time>
      </trkpt>
      <trkpt lat="59.52013" lon="17.592823">
        <ele>36.4</ele>
        <time>2013-12-09T19:49:42Z</time>
      </trkpt>
      <trkpt lat="59.520102" lon="17.592781">
        <ele>36.5</ele>
        <time>2013-12-09T19:49:43Z</time>
      </trkpt>
      <trkpt lat="59.520068" lon="17.592757">
        <ele>36.6</ele>
        <time>2013-12-09T19:49:44Z</time>
      </trkpt>
      <trkpt lat="59.520026" lon="17.592745">
        <ele>36.5</ele>
        <time>2013-12-09T19:49:46Z</time>
      </trkpt>
      <trkpt lat="59.519991" lon="17.592754">
        <ele>36.5</ele>
        <time>2013-12-09T19:49:48Z</time>
      </trkpt>
      <trkpt lat="59.520041" lon="17.592776">
        <ele>36.5</ele>
        <time>2013-12-09T19:49:57Z</time>
      </trkpt>
      <trkpt lat="59.520126" lon="17.592782">
        <ele>36.5</ele>
        <time>2013-12-09T19:49:59Z</time>
      </trkpt>
      <trkpt lat="59.52017" lon="17.59279">
        <ele>36.5</ele>
        <time>2013-12-09T19:50:00Z</time>
      </trkpt>
      <trkpt lat="59.520254" lon="17.592843">
        <ele>36.4</ele>
        <time>2013-12-09T19:50:01Z</time>
      </trkpt>
      <trkpt lat="59.520312" lon="17.592876">
        <ele>36.2</ele>
        <time>2013-12-09T19:50:02Z</time>
      </trkpt>
      <trkpt lat="59.520367" lon="17.59284">
        <ele>36.4</ele>
        <time>2013-12-09T19:50:03Z</time>
      </trkpt>
      <trkpt lat="59.520422" lon="17.592831">
        <ele>36.5</ele>
        <time>2013-12-09T19:50:04Z</time>
      </trkpt>
      <trkpt lat="59.520481" lon="17.592748">
        <ele>37.1</ele>
        <time>2013-12-09T19:50:05Z</time>
      </trkpt>
      <trkpt lat="59.520531" lon="17.592746">
        <ele>37.1</ele>
        <time>2013-12-09T19:50:06Z</time>
      </trkpt>
      <trkpt lat="59.520588" lon="17.592737">
        <ele>37.2</ele>
        <time>2013-12-09T19:50:07Z</time>
      </trkpt>
      <trkpt lat="59.520637" lon="17.592735">
        <ele>37.3</ele>
        <time>2013-12-09T19:50:08Z</time>
      </trkpt>
      <trkpt lat="59.520696" lon="17.592728">
        <ele>37.4</ele>
        <time>2013-12-09T19:50:09Z</time>
      </trkpt>
      <trkpt lat="59.520749" lon="17.592719">
        <ele>37.5</ele>
        <time>2013-12-09T19:50:10Z</time>
      </trkpt>
      <trkpt lat="59.520792" lon="17.592698">
        <ele>37.6</ele>
        <time>2013-12-09T19:50:11Z</time>
      </trkpt>
      <trkpt lat="59.520837" lon="17.592695">
        <ele>37.7</ele>
        <time>2013-12-09T19:50:12Z</time>
      </trkpt>
      <trkpt lat="59.520891" lon="17.592684">
        <ele>37.8</ele>
        <time>2013-12-09T19:50:13Z</time>
      </trkpt>
      <trkpt lat="59.520936" lon="17.592681">
        <ele>37.9</ele>
        <time>2013-12-09T19:50:14Z</time>
      </trkpt>
      <trkpt lat="59.520977" lon="17.592688">
        <ele>37.9</ele>
        <time>2013-12-09T19:50:15Z</time>
      </trkpt>
      <trkpt lat="59.52102" lon="17.592686">
        <ele>37.9</ele>
        <time>2013-12-09T19:50:16Z</time>
      </trkpt>
      <trkpt lat="59.521059" lon="17.592683">
        <ele>38</ele>
        <time>2013-12-09T19:50:17Z</time>
      </trkpt>
      <trkpt lat="59.521101" lon="17.59268">
        <ele>38</ele>
        <time>2013-12-09T19:50:18Z</time>
      </trkpt>
      <trkpt lat="59.521135" lon="17.592683">
        <ele>38</ele>
        <time>2013-12-09T19:50:19Z</time>
      </trkpt>
      <trkpt lat="59.521171" lon="17.59268">
        <ele>38.1</ele>
        <time>2013-12-09T19:50:20Z</time>
      </trkpt>
      <trkpt lat="59.521209" lon="17.592678">
        <ele>38.1</ele>
        <time>2013-12-09T19:50:21Z</time>
      </trkpt>
      <trkpt lat="59.521241" lon="17.592676">
        <ele>38.1</ele>
        <time>2013-12-09T19:50:22Z</time>
      </trkpt>
      <trkpt lat="59.521275" lon="17.592648">
        <ele>38.2</ele>
        <time>2013-12-09T19:50:23Z</time>
      </trkpt>
      <trkpt lat="59.521305" lon="17.592613">
        <ele>38.3</ele>
        <time>2013-12-09T19:50:24Z</time>
      </trkpt>
      <trkpt lat="59.521343" lon="17.592569">
        <ele>38.4</ele>
        <time>2013-12-09T19:50:25Z</time>
      </trkpt>
      <trkpt lat="59.52137" lon="17.592535">
        <ele>38.5</ele>
        <time>2013-12-09T19:50:26Z</time>
      </trkpt>
      <trkpt lat="59.521397" lon="17.592483">
        <ele>38.7</ele>
        <time>2013-12-09T19:50:27Z</time>
      </trkpt>
      <trkpt lat="59.521419" lon="17.592443">
        <ele>38.9</ele>
        <time>2013-12-09T19:50:28Z</time>
      </trkpt>
      <trkpt lat="59.52144" lon="17.592407">
        <ele>39</ele>
        <time>2013-12-09T19:50:29Z</time>
      </trkpt>
      <trkpt lat="59.521461" lon="17.592373">
        <ele>39.1</ele>
        <time>2013-12-09T19:50:30Z</time>
      </trkpt>
      <trkpt lat="59.521488" lon="17.592338">
        <ele>39.2</ele>
        <time>2013-12-09T19:50:31Z</time>
      </trkpt>
      <trkpt lat="59.521511" lon="17.592305">
        <ele>39.3</ele>
        <time>2013-12-09T19:50:32Z</time>
      </trkpt>
      <trkpt lat="59.521546" lon="17.592287">
        <ele>39.3</ele>
        <time>2013-12-09T19:50:33Z</time>
      </trkpt>
      <trkpt lat="59.521574" lon="17.592265">
        <ele>39.4</ele>
        <time>2013-12-09T19:50:34Z</time>
      </trkpt>
      <trkpt lat="59.521614" lon="17.592261">
        <ele>39.3</ele>
        <time>2013-12-09T19:50:35Z</time>
      </trkpt>
      <trkpt lat="59.521645" lon="17.59225">
        <ele>39.3</ele>
        <time>2013-12-09T19:50:36Z</time>
      </trkpt>
      <trkpt lat="59.521686" lon="17.592256">
        <ele>39.1</ele>
        <time>2013-12-09T19:50:37Z</time>
      </trkpt>
      <trkpt lat="59.521722" lon="17.592258">
        <ele>39</ele>
        <time>2013-12-09T19:50:38Z</time>
      </trkpt>
      <trkpt lat="59.521759" lon="17.592259">
        <ele>38.9</ele>
        <time>2013-12-09T19:50:39Z</time>
      </trkpt>
      <trkpt lat="59.521791" lon="17.592261">
        <ele>38.8</ele>
        <time>2013-12-09T19:50:40Z</time>
      </trkpt>
      <trkpt lat="59.521826" lon="17.592284">
        <ele>38.7</ele>
        <time>2013-12-09T19:50:41Z</time>
      </trkpt>
      <trkpt lat="59.521857" lon="17.592295">
        <ele>38.5</ele>
        <time>2013-12-09T19:50:42Z</time>
      </trkpt>
      <trkpt lat="59.521803" lon="17.59227">
        <ele>38.8</ele>
        <time>2013-12-09T19:50:49Z</time>
      </trkpt>
      <trkpt lat="59.521742" lon="17.592261">
        <ele>39</ele>
        <time>2013-12-09T19:50:51Z</time>
      </trkpt>
      <trkpt lat="59.521709" lon="17.592259">
        <ele>39.1</ele>
        <time>2013-12-09T19:50:52Z</time>
      </trkpt>
      <trkpt lat="59.521673" lon="17.592259">
        <ele>39.1</ele>
        <time>2013-12-09T19:50:53Z</time>
      </trkpt>
      <trkpt lat="59.521642" lon="17.592257">
        <ele>39.2</ele>
        <time>2013-12-09T19:50:54Z</time>
      </trkpt>
      <trkpt lat="59.521593" lon="17.592268">
        <ele>39.3</ele>
        <time>2013-12-09T19:50:55Z</time>
      </trkpt>
      <trkpt lat="59.521554" lon="17.592281">
        <ele>39.3</ele>
        <time>2013-12-09T19:50:56Z</time>
      </trkpt>
      <trkpt lat="59.521514" lon="17.5923">
        <ele>39.3</ele>
        <time>2013-12-09T19:50:57Z</time>
      </trkpt>
      <trkpt lat="59.521476" lon="17.592313">
        <ele>39.4</ele>
        <time>2013-12-09T19:50:58Z</time>
      </trkpt>
      <trkpt lat="59.521441" lon="17.592369">
        <ele>39.2</ele>
        <time>2013-12-09T19:50:59Z</time>
      </trkpt>
      <trkpt lat="59.521406" lon="17.592399">
        <ele>39.1</ele>
        <time>2013-12-09T19:51:00Z</time>
      </trkpt>
      <trkpt lat="59.521383" lon="17.592479">
        <ele>38.8</ele>
        <time>2013-12-09T19:51:01Z</time>
      </trkpt>
      <trkpt lat="59.521354" lon="17.592528">
        <ele>38.6</ele>
        <time>2013-12-09T19:51:02Z</time>
      </trkpt>
      <trkpt lat="59.521329" lon="17.592599">
        <ele>38.3</ele>
        <time>2013-12-09T19:51:03Z</time>
      </trkpt>
      <trkpt lat="59.5213" lon="17.592651">
        <ele>38.2</ele>
        <time>2013-12-09T19:51:04Z</time>
      </trkpt>
      <trkpt lat="59.521257" lon="17.592678">
        <ele>38.1</ele>
        <time>2013-12-09T19:51:05Z</time>
      </trkpt>
      <trkpt lat="59.521221" lon="17.59271">
        <ele>38</ele>
        <time>2013-12-09T19:51:06Z</time>
      </trkpt>
      <trkpt lat="59.521173" lon="17.592695">
        <ele>38</ele>
        <time>2013-12-09T19:51:07Z</time>
      </trkpt>
      <trkpt lat="59.521133" lon="17.592704">
        <ele>37.9</ele>
        <time>2013-12-09T19:51:08Z</time>
      </trkpt>
      <trkpt lat="59.521088" lon="17.592704">
        <ele>37.9</ele>
        <time>2013-12-09T19:51:09Z</time>
      </trkpt>
      <trkpt lat="59.521047" lon="17.592711">
        <ele>37.8</ele>
        <time>2013-12-09T19:51:10Z</time>
      </trkpt>
      <trkpt lat="59.521006" lon="17.592716">
        <ele>37.7</ele>
        <time>2013-12-09T19:51:11Z</time>
      </trkpt>
      <trkpt lat="59.520966" lon="17.592721">
        <ele>37.7</ele>
        <time>2013-12-09T19:51:12Z</time>
      </trkpt>
      <trkpt lat="59.520924" lon="17.592727">
        <ele>37.6</ele>
        <time>2013-12-09T19:51:13Z</time>
      </trkpt>
      <trkpt lat="59.520884" lon="17.592733">
        <ele>37.5</ele>
        <time>2013-12-09T19:51:14Z</time>
      </trkpt>
      <trkpt lat="59.520845" lon="17.592736">
        <ele>37.5</ele>
        <time>2013-12-09T19:51:15Z</time>
      </trkpt>
      <trkpt lat="59.520806" lon="17.592742">
        <ele>37.4</ele>
        <time>2013-12-09T19:51:16Z</time>
      </trkpt>
      <trkpt lat="59.520769" lon="17.592751">
        <ele>37.3</ele>
        <time>2013-12-09T19:51:17Z</time>
      </trkpt>
      <trkpt lat="59.52073" lon="17.59276">
        <ele>37.2</ele>
        <time>2013-12-09T19:51:18Z</time>
      </trkpt>
      <trkpt lat="59.520695" lon="17.592767">
        <ele>37.2</ele>
        <time>2013-12-09T19:51:19Z</time>
      </trkpt>
      <trkpt lat="59.520657" lon="17.592774">
        <ele>37.1</ele>
        <time>2013-12-09T19:51:20Z</time>
      </trkpt>
      <trkpt lat="59.520622" lon="17.592779">
        <ele>37</ele>
        <time>2013-12-09T19:51:21Z</time>
      </trkpt>
      <trkpt lat="59.520584" lon="17.592786">
        <ele>37</ele>
        <time>2013-12-09T19:51:22Z</time>
      </trkpt>
      <trkpt lat="59.520552" lon="17.592784">
        <ele>36.9</ele>
        <time>2013-12-09T19:51:23Z</time>
      </trkpt>
      <trkpt lat="59.520519" lon="17.592783">
        <ele>36.9</ele>
        <time>2013-12-09T19:51:24Z</time>
      </trkpt>
      <trkpt lat="59.520486" lon="17.592785">
        <ele>36.9</ele>
        <time>2013-12-09T19:51:25Z</time>
      </trkpt>
      <trkpt lat="59.520451" lon="17.592789">
        <ele>36.8</ele>
        <time>2013-12-09T19:51:26Z</time>
      </trkpt>
      <trkpt lat="59.520416" lon="17.592812">
        <ele>36.6</ele>
        <time>2013-12-09T19:51:27Z</time>
      </trkpt>
      <trkpt lat="59.520379" lon="17.592833">
        <ele>36.5</ele>
        <time>2013-12-09T19:51:28Z</time>
      </trkpt>
      <trkpt lat="59.520342" lon="17.592858">
        <ele>36.3</ele>
        <time>2013-12-09T19:51:29Z</time>
      </trkpt>
      <trkpt lat="59.520307" lon="17.592881">
        <ele>36.2</ele>
        <time>2013-12-09T19:51:30Z</time>
      </trkpt>
      <trkpt lat="59.520268" lon="17.59289">
        <ele>36.1</ele>
        <time>2013-12-09T19:51:31Z</time>
      </trkpt>
      <trkpt lat="59.520231" lon="17.592905">
        <ele>36.1</ele>
        <time>2013-12-09T19:51:32Z</time>
      </trkpt>
      <trkpt lat="59.520194" lon="17.592871">
        <ele>36.2</ele>
        <time>2013-12-09T19:51:33Z</time>
      </trkpt>
      <trkpt lat="59.520157" lon="17.592862">
        <ele>36.2</ele>
        <time>2013-12-09T19:51:34Z</time>
      </trkpt>
      <trkpt lat="59.520131" lon="17.592834">
        <ele>36.3</ele>
        <time>2013-12-09T19:51:35Z</time>
      </trkpt>
      <trkpt lat="59.520102" lon="17.59282">
        <ele>36.4</ele>
        <time>2013-12-09T19:51:36Z</time>
      </trkpt>
      <trkpt lat="59.52006" lon="17.592797">
        <ele>36.4</ele>
        <time>2013-12-09T19:51:38Z</time>
      </trkpt>
      <trkpt lat="59.520018" lon="17.592785">
        <ele>36.4</ele>
        <time>2013-12-09T19:51:40Z</time>
      </trkpt>
      <trkpt lat="59.519986" lon="17.592782">
        <ele>36.4</ele>
        <time>2013-12-09T19:51:43Z</time>
      </trkpt>
      <trkpt lat="59.520033" lon="17.592805">
        <ele>36.4</ele>
        <time>2013-12-09T19:51:49Z</time>
      </trkpt>
      <trkpt lat="59.520071" lon="17.592805">
        <ele>36.4</ele>
        <time>2013-12-09T19:51:50Z</time>
      </trkpt>
      <trkpt lat="59.520115" lon="17.592817">
        <ele>36.4</ele>
        <time>2013-12-09T19:51:51Z</time>
      </trkpt>
      <trkpt lat="59.520167" lon="17.592837">
        <ele>36.3</ele>
        <time>2013-12-09T19:51:52Z</time>
      </trkpt>
      <trkpt lat="59.520253" lon="17.592856">
        <ele>36.3</ele>
        <time>2013-12-09T19:51:53Z</time>
      </trkpt>
      <trkpt lat="59.520309" lon="17.592854">
        <ele>36.3</ele>
        <time>2013-12-09T19:51:54Z</time>
      </trkpt>
      <trkpt lat="59.520368" lon="17.592817">
        <ele>36.6</ele>
        <time>2013-12-09T19:51:55Z</time>
      </trkpt>
      <trkpt lat="59.520414" lon="17.592782">
        <ele>36.8</ele>
        <time>2013-12-09T19:51:56Z</time>
      </trkpt>
      <trkpt lat="59.520466" lon="17.592736">
        <ele>37.1</ele>
        <time>2013-12-09T19:51:57Z</time>
      </trkpt>
      <trkpt lat="59.52052" lon="17.592733">
        <ele>37.2</ele>
        <time>2013-12-09T19:51:58Z</time>
      </trkpt>
      <trkpt lat="59.520573" lon="17.592724">
        <ele>37.3</ele>
        <time>2013-12-09T19:51:59Z</time>
      </trkpt>
      <trkpt lat="59.52062" lon="17.592727">
        <ele>37.3</ele>
        <time>2013-12-09T19:52:00Z</time>
      </trkpt>
      <trkpt lat="59.520666" lon="17.592724">
        <ele>37.4</ele>
        <time>2013-12-09T19:52:01Z</time>
      </trkpt>
      <trkpt lat="59.520721" lon="17.592705">
        <ele>37.5</ele>
        <time>2013-12-09T19:52:02Z</time>
      </trkpt>
      <trkpt lat="59.520769" lon="17.5927">
        <ele>37.6</ele>
        <time>2013-12-09T19:52:03Z</time>
      </trkpt>
      <trkpt lat="59.520819" lon="17.592687">
        <ele>37.7</ele>
        <time>2013-12-09T19:52:04Z</time>
      </trkpt>
      <trkpt lat="59.520868" lon="17.592679">
        <ele>37.8</ele>
        <time>2013-12-09T19:52:05Z</time>
      </trkpt>
      <trkpt lat="59.520917" lon="17.592673">
        <ele>37.9</ele>
        <time>2013-12-09T19:52:06Z</time>
      </trkpt>
      <trkpt lat="59.520956" lon="17.59268">
        <ele>37.9</ele>
        <time>2013-12-09T19:52:07Z</time>
      </trkpt>
      <trkpt lat="59.520999" lon="17.592684">
        <ele>37.9</ele>
        <time>2013-12-09T19:52:08Z</time>
      </trkpt>
      <trkpt lat="59.52105" lon="17.592677">
        <ele>38</ele>
        <time>2013-12-09T19:52:09Z</time>
      </trkpt>
      <trkpt lat="59.521094" lon="17.592675">
        <ele>38</ele>
        <time>2013-12-09T19:52:10Z</time>
      </trkpt>
      <trkpt lat="59.521137" lon="17.592671">
        <ele>38.1</ele>
        <time>2013-12-09T19:52:11Z</time>
      </trkpt>
      <trkpt lat="59.521168" lon="17.592659">
        <ele>38.2</ele>
        <time>2013-12-09T19:52:12Z</time>
      </trkpt>
      <trkpt lat="59.52121" lon="17.592652">
        <ele>38.2</ele>
        <time>2013-12-09T19:52:13Z</time>
      </trkpt>
      <trkpt lat="59.521237" lon="17.592643">
        <ele>38.3</ele>
        <time>2013-12-09T19:52:14Z</time>
      </trkpt>
      <trkpt lat="59.521269" lon="17.592637">
        <ele>38.3</ele>
        <time>2013-12-09T19:52:15Z</time>
      </trkpt>
      <trkpt lat="59.521313" lon="17.592617">
        <ele>38.3</ele>
        <time>2013-12-09T19:52:16Z</time>
      </trkpt>
      <trkpt lat="59.521351" lon="17.592577">
        <ele>38.4</ele>
        <time>2013-12-09T19:52:17Z</time>
      </trkpt>
      <trkpt lat="59.521368" lon="17.592531">
        <ele>38.6</ele>
        <time>2013-12-09T19:52:18Z</time>
      </trkpt>
      <trkpt lat="59.52139" lon="17.592476">
        <ele>38.8</ele>
        <time>2013-12-09T19:52:19Z</time>
      </trkpt>
      <trkpt lat="59.521419" lon="17.592434">
        <ele>38.9</ele>
        <time>2013-12-09T19:52:20Z</time>
      </trkpt>
      <trkpt lat="59.521443" lon="17.592391">
        <ele>39.1</ele>
        <time>2013-12-09T19:52:21Z</time>
      </trkpt>
      <trkpt lat="59.521465" lon="17.592354">
        <ele>39.2</ele>
        <time>2013-12-09T19:52:22Z</time>
      </trkpt>
      <trkpt lat="59.521488" lon="17.592325">
        <ele>39.3</ele>
        <time>2013-12-09T19:52:23Z</time>
      </trkpt>
      <trkpt lat="59.521513" lon="17.592289">
        <ele>39.4</ele>
        <time>2013-12-09T19:52:24Z</time>
      </trkpt>
      <trkpt lat="59.521542" lon="17.592274">
        <ele>39.4</ele>
        <time>2013-12-09T19:52:25Z</time>
      </trkpt>
      <trkpt lat="59.521569" lon="17.592248">
        <ele>39.4</ele>
        <time>2013-12-09T19:52:26Z</time>
      </trkpt>
      <trkpt lat="59.521602" lon="17.592248">
        <ele>39.4</ele>
        <time>2013-12-09T19:52:27Z</time>
      </trkpt>
      <trkpt lat="59.521632" lon="17.592248">
        <ele>39.3</ele>
        <time>2013-12-09T19:52:28Z</time>
      </trkpt>
      <trkpt lat="59.521662" lon="17.592242">
        <ele>39.2</ele>
        <time>2013-12-09T19:52:29Z</time>
      </trkpt>
      <trkpt lat="59.521691" lon="17.592245">
        <ele>39.2</ele>
        <time>2013-12-09T19:52:30Z</time>
      </trkpt>
      <trkpt lat="59.521721" lon="17.592249">
        <ele>39.1</ele>
        <time>2013-12-09T19:52:31Z</time>
      </trkpt>
      <trkpt lat="59.521749" lon="17.592257">
        <ele>39</ele>
        <time>2013-12-09T19:52:32Z</time>
      </trkpt>
      <trkpt lat="59.521778" lon="17.592257">
        <ele>38.9</ele>
        <time>2013-12-09T19:52:33Z</time>
      </trkpt>
      <trkpt lat="59.521805" lon="17.592265">
        <ele>38.8</ele>
        <time>2013-12-09T19:52:34Z</time>
      </trkpt>
      <trkpt lat="59.521836" lon="17.592305">
        <ele>38.5</ele>
        <time>2013-12-09T19:52:36Z</time>
      </trkpt>
      <trkpt lat="59.521809" lon="17.592279">
        <ele>38.7</ele>
        <time>2013-12-09T19:52:43Z</time>
      </trkpt>
      <trkpt lat="59.521757" lon="17.59227">
        <ele>38.9</ele>
        <time>2013-12-09T19:52:45Z</time>
      </trkpt>
      <trkpt lat="59.521726" lon="17.592276">
        <ele>38.9</ele>
        <time>2013-12-09T19:52:46Z</time>
      </trkpt>
      <trkpt lat="59.521671" lon="17.592272">
        <ele>39.1</ele>
        <time>2013-12-09T19:52:48Z</time>
      </trkpt>
      <trkpt lat="59.52163" lon="17.592274">
        <ele>39.2</ele>
        <time>2013-12-09T19:52:49Z</time>
      </trkpt>
      <trkpt lat="59.521593" lon="17.592286">
        <ele>39.2</ele>
        <time>2013-12-09T19:52:50Z</time>
      </trkpt>
      <trkpt lat="59.521561" lon="17.592289">
        <ele>39.3</ele>
        <time>2013-12-09T19:52:51Z</time>
      </trkpt>
      <trkpt lat="59.521526" lon="17.592307">
        <ele>39.3</ele>
        <time>2013-12-09T19:52:52Z</time>
      </trkpt>
      <trkpt lat="59.521491" lon="17.592339">
        <ele>39.2</ele>
        <time>2013-12-09T19:52:53Z</time>
      </trkpt>
      <trkpt lat="59.521458" lon="17.592385">
        <ele>39.1</ele>
        <time>2013-12-09T19:52:54Z</time>
      </trkpt>
      <trkpt lat="59.521422" lon="17.592444">
        <ele>38.9</ele>
        <time>2013-12-09T19:52:55Z</time>
      </trkpt>
      <trkpt lat="59.52139" lon="17.592478">
        <ele>38.8</ele>
        <time>2013-12-09T19:52:56Z</time>
      </trkpt>
      <trkpt lat="59.521361" lon="17.592552">
        <ele>38.5</ele>
        <time>2013-12-09T19:52:57Z</time>
      </trkpt>
      <trkpt lat="59.521331" lon="17.592599">
        <ele>38.3</ele>
        <time>2013-12-09T19:52:58Z</time>
      </trkpt>
      <trkpt lat="59.521286" lon="17.592708">
        <ele>37.9</ele>
        <time>2013-12-09T19:52:59Z</time>
      </trkpt>
      <trkpt lat="59.521242" lon="17.592726">
        <ele>37.9</ele>
        <time>2013-12-09T19:53:00Z</time>
      </trkpt>
      <trkpt lat="59.521199" lon="17.592751">
        <ele>37.7</ele>
        <time>2013-12-09T19:53:01Z</time>
      </trkpt>
      <trkpt lat="59.521156" lon="17.592735">
        <ele>37.8</ele>
        <time>2013-12-09T19:53:02Z</time>
      </trkpt>
      <trkpt lat="59.521116" lon="17.592738">
        <ele>37.7</ele>
        <time>2013-12-09T19:53:03Z</time>
      </trkpt>
      <trkpt lat="59.521075" lon="17.59275">
        <ele>37.6</ele>
        <time>2013-12-09T19:53:04Z</time>
      </trkpt>
      <trkpt lat="59.521036" lon="17.592758">
        <ele>37.6</ele>
        <time>2013-12-09T19:53:05Z</time>
      </trkpt>
      <trkpt lat="59.520995" lon="17.59275">
        <ele>37.6</ele>
        <time>2013-12-09T19:53:06Z</time>
      </trkpt>
      <trkpt lat="59.520957" lon="17.592762">
        <ele>37.5</ele>
        <time>2013-12-09T19:53:07Z</time>
      </trkpt>
      <trkpt lat="59.52092" lon="17.592768">
        <ele>37.4</ele>
        <time>2013-12-09T19:53:08Z</time>
      </trkpt>
      <trkpt lat="59.52088" lon="17.592769">
        <ele>37.3</ele>
        <time>2013-12-09T19:53:09Z</time>
      </trkpt>
      <trkpt lat="59.520841" lon="17.592769">
        <ele>37.3</ele>
        <time>2013-12-09T19:53:10Z</time>
      </trkpt>
      <trkpt lat="59.52081" lon="17.592775">
        <ele>37.2</ele>
        <time>2013-12-09T19:53:11Z</time>
      </trkpt>
      <trkpt lat="59.520774" lon="17.592784">
        <ele>37.2</ele>
        <time>2013-12-09T19:53:12Z</time>
      </trkpt>
      <trkpt lat="59.520739" lon="17.592789">
        <ele>37.1</ele>
        <time>2013-12-09T19:53:13Z</time>
      </trkpt>
      <trkpt lat="59.520704" lon="17.592797">
        <ele>37</ele>
        <time>2013-12-09T19:53:14Z</time>
      </trkpt>
      <trkpt lat="59.52067" lon="17.592797">
        <ele>37</ele>
        <time>2013-12-09T19:53:15Z</time>
      </trkpt>
      <trkpt lat="59.520636" lon="17.592801">
        <ele>36.9</ele>
        <time>2013-12-09T19:53:16Z</time>
      </trkpt>
      <trkpt lat="59.520603" lon="17.592805">
        <ele>36.9</ele>
        <time>2013-12-09T19:53:17Z</time>
      </trkpt>
      <trkpt lat="59.520569" lon="17.59281">
        <ele>36.8</ele>
        <time>2013-12-09T19:53:18Z</time>
      </trkpt>
      <trkpt lat="59.520536" lon="17.592813">
        <ele>36.7</ele>
        <time>2013-12-09T19:53:19Z</time>
      </trkpt>
      <trkpt lat="59.520502" lon="17.592818">
        <ele>36.7</ele>
        <time>2013-12-09T19:53:20Z</time>
      </trkpt>
      <trkpt lat="59.520472" lon="17.59282">
        <ele>36.6</ele>
        <time>2013-12-09T19:53:21Z</time>
      </trkpt>
      <trkpt lat="59.520439" lon="17.592827">
        <ele>36.6</ele>
        <time>2013-12-09T19:53:22Z</time>
      </trkpt>
      <trkpt lat="59.520409" lon="17.592844">
        <ele>36.4</ele>
        <time>2013-12-09T19:53:23Z</time>
      </trkpt>
      <trkpt lat="59.520377" lon="17.592858">
        <ele>36.3</ele>
        <time>2013-12-09T19:53:24Z</time>
      </trkpt>
      <trkpt lat="59.520349" lon="17.592886">
        <ele>36.2</ele>
        <time>2013-12-09T19:53:25Z</time>
      </trkpt>
      <trkpt lat="59.520317" lon="17.592907">
        <ele>36.1</ele>
        <time>2013-12-09T19:53:26Z</time>
      </trkpt>
      <trkpt lat="59.520287" lon="17.592921">
        <ele>36</ele>
        <time>2013-12-09T19:53:27Z</time>
      </trkpt>
      <trkpt lat="59.520255" lon="17.592937">
        <ele>35.9</ele>
        <time>2013-12-09T19:53:28Z</time>
      </trkpt>
      <trkpt lat="59.520225" lon="17.592921">
        <ele>36</ele>
        <time>2013-12-09T19:53:29Z</time>
      </trkpt>
      <trkpt lat="59.520192" lon="17.59292">
        <ele>36</ele>
        <time>2013-12-09T19:53:30Z</time>
      </trkpt>
      <trkpt lat="59.520165" lon="17.592888">
        <ele>36.1</ele>
        <time>2013-12-09T19:53:31Z</time>
      </trkpt>
      <trkpt lat="59.520138" lon="17.592866">
        <ele>36.2</ele>
        <time>2013-12-09T19:53:32Z</time>
      </trkpt>
      <trkpt lat="59.520107" lon="17.592851">
        <ele>36.2</ele>
        <time>2013-12-09T19:53:33Z</time>
      </trkpt>
      <trkpt lat="59.520087" lon="17.592804">
        <ele>36.4</ele>
        <time>2013-12-09T19:53:35Z</time>
      </trkpt>
      <trkpt lat="59.520058" lon="17.592788">
        <ele>36.4</ele>
        <time>2013-12-09T19:53:37Z</time>
      </trkpt>
      <trkpt lat="59.520025" lon="17.592788">
        <ele>36.4</ele>
        <time>2013-12-09T19:53:39Z</time>
      </trkpt>
      <trkpt lat="59.519993" lon="17.592787">
        <ele>36.4</ele>
        <time>2013-12-09T19:53:41Z</time>
      </trkpt>
      <trkpt lat="59.51996" lon="17.592785">
        <ele>36.4</ele>
        <time>2013-12-09T19:53:43Z</time>
      </trkpt>
      <trkpt lat="59.520027" lon="17.592779">
        <ele>36.4</ele>
        <time>2013-12-09T19:53:54Z</time>
      </trkpt>
      <trkpt lat="59.520065" lon="17.592778">
        <ele>36.5</ele>
        <time>2013-12-09T19:53:55Z</time>
      </trkpt>
      <trkpt lat="59.520099" lon="17.592779">
        <ele>36.5</ele>
        <time>2013-12-09T19:53:56Z</time>
      </trkpt>
      <trkpt lat="59.52016" lon="17.592804">
        <ele>36.5</ele>
        <time>2013-12-09T19:53:57Z</time>
      </trkpt>
      <trkpt lat="59.52021" lon="17.592823">
        <ele>36.4</ele>
        <time>2013-12-09T19:53:58Z</time>
      </trkpt>
      <trkpt lat="59.520272" lon="17.592846">
        <ele>36.4</ele>
        <time>2013-12-09T19:53:59Z</time>
      </trkpt>
      <trkpt lat="59.520325" lon="17.592857">
        <ele>36.3</ele>
        <time>2013-12-09T19:54:00Z</time>
      </trkpt>
      <trkpt lat="59.520375" lon="17.592809">
        <ele>36.6</ele>
        <time>2013-12-09T19:54:01Z</time>
      </trkpt>
      <trkpt lat="59.520422" lon="17.592786">
        <ele>36.8</ele>
        <time>2013-12-09T19:54:02Z</time>
      </trkpt>
      <trkpt lat="59.520482" lon="17.592747">
        <ele>37.1</ele>
        <time>2013-12-09T19:54:03Z</time>
      </trkpt>
      <trkpt lat="59.520525" lon="17.592754">
        <ele>37.1</ele>
        <time>2013-12-09T19:54:04Z</time>
      </trkpt>
      <trkpt lat="59.520573" lon="17.592748">
        <ele>37.2</ele>
        <time>2013-12-09T19:54:05Z</time>
      </trkpt>
      <trkpt lat="59.52062" lon="17.592757">
        <ele>37.2</ele>
        <time>2013-12-09T19:54:06Z</time>
      </trkpt>
      <trkpt lat="59.520673" lon="17.592734">
        <ele>37.3</ele>
        <time>2013-12-09T19:54:07Z</time>
      </trkpt>
      <trkpt lat="59.520723" lon="17.59272">
        <ele>37.5</ele>
        <time>2013-12-09T19:54:08Z</time>
      </trkpt>
      <trkpt lat="59.520771" lon="17.592712">
        <ele>37.5</ele>
        <time>2013-12-09T19:54:09Z</time>
      </trkpt>
      <trkpt lat="59.520806" lon="17.592733">
        <ele>37.5</ele>
        <time>2013-12-09T19:54:10Z</time>
      </trkpt>
      <trkpt lat="59.520848" lon="17.592731">
        <ele>37.5</ele>
        <time>2013-12-09T19:54:11Z</time>
      </trkpt>
      <trkpt lat="59.520897" lon="17.592727">
        <ele>37.6</ele>
        <time>2013-12-09T19:54:12Z</time>
      </trkpt>
      <trkpt lat="59.520939" lon="17.592728">
        <ele>37.6</ele>
        <time>2013-12-09T19:54:13Z</time>
      </trkpt>
      <trkpt lat="59.520982" lon="17.592725">
        <ele>37.7</ele>
        <time>2013-12-09T19:54:14Z</time>
      </trkpt>
      <trkpt lat="59.521014" lon="17.59273">
        <ele>37.7</ele>
        <time>2013-12-09T19:54:15Z</time>
      </trkpt>
      <trkpt lat="59.521074" lon="17.59271">
        <ele>37.8</ele>
        <time>2013-12-09T19:54:16Z</time>
      </trkpt>
      <trkpt lat="59.521115" lon="17.592705">
        <ele>37.9</ele>
        <time>2013-12-09T19:54:17Z</time>
      </trkpt>
      <trkpt lat="59.521154" lon="17.592702">
        <ele>37.9</ele>
        <time>2013-12-09T19:54:18Z</time>
      </trkpt>
      <trkpt lat="59.521193" lon="17.592692">
        <ele>38</ele>
        <time>2013-12-09T19:54:19Z</time>
      </trkpt>
      <trkpt lat="59.52123" lon="17.592689">
        <ele>38.1</ele>
        <time>2013-12-09T19:54:20Z</time>
      </trkpt>
      <trkpt lat="59.521253" lon="17.592648">
        <ele>38.3</ele>
        <time>2013-12-09T19:54:21Z</time>
      </trkpt>
      <trkpt lat="59.521284" lon="17.59262">
        <ele>38.3</ele>
        <time>2013-12-09T19:54:22Z</time>
      </trkpt>
      <trkpt lat="59.521311" lon="17.592597">
        <ele>38.4</ele>
        <time>2013-12-09T19:54:23Z</time>
      </trkpt>
      <trkpt lat="59.521343" lon="17.592558">
        <ele>38.5</ele>
        <time>2013-12-09T19:54:24Z</time>
      </trkpt>
      <trkpt lat="59.521367" lon="17.592508">
        <ele>38.7</ele>
        <time>2013-12-09T19:54:25Z</time>
      </trkpt>
      <trkpt lat="59.521394" lon="17.592461">
        <ele>38.8</ele>
        <time>2013-12-09T19:54:26Z</time>
      </trkpt>
      <trkpt lat="59.521417" lon="17.59242">
        <ele>39</ele>
        <time>2013-12-09T19:54:27Z</time>
      </trkpt>
      <trkpt lat="59.521438" lon="17.592376">
        <ele>39.1</ele>
        <time>2013-12-09T19:54:28Z</time>
      </trkpt>
      <trkpt lat="59.521461" lon="17.592336">
        <ele>39.3</ele>
        <time>2013-12-09T19:54:29Z</time>
      </trkpt>
      <trkpt lat="59.521486" lon="17.592304">
        <ele>39.4</ele>
        <time>2013-12-09T19:54:30Z</time>
      </trkpt>
      <trkpt lat="59.521515" lon="17.592278">
        <ele>39.4</ele>
        <time>2013-12-09T19:54:31Z</time>
      </trkpt>
      <trkpt lat="59.521541" lon="17.592248">
        <ele>39.5</ele>
        <time>2013-12-09T19:54:32Z</time>
      </trkpt>
      <trkpt lat="59.521572" lon="17.59223">
        <ele>39.5</ele>
        <time>2013-12-09T19:54:33Z</time>
      </trkpt>
      <trkpt lat="59.521604" lon="17.592225">
        <ele>39.5</ele>
        <time>2013-12-09T19:54:34Z</time>
      </trkpt>
      <trkpt lat="59.52164" lon="17.592229">
        <ele>39.4</ele>
        <time>2013-12-09T19:54:35Z</time>
      </trkpt>
      <trkpt lat="59.521671" lon="17.59223">
        <ele>39.3</ele>
        <time>2013-12-09T19:54:36Z</time>
      </trkpt>
      <trkpt lat="59.521701" lon="17.592228">
        <ele>39.2</ele>
        <time>2013-12-09T19:54:37Z</time>
      </trkpt>
      <trkpt lat="59.52173" lon="17.592233">
        <ele>39.1</ele>
        <time>2013-12-09T19:54:38Z</time>
      </trkpt>
      <trkpt lat="59.521758" lon="17.592238">
        <ele>39</ele>
        <time>2013-12-09T19:54:39Z</time>
      </trkpt>
      <trkpt lat="59.521794" lon="17.592249">
        <ele>38.9</ele>
        <time>2013-12-09T19:54:41Z</time>
      </trkpt>
      <trkpt lat="59.521827" lon="17.592273">
        <ele>38.7</ele>
        <time>2013-12-09T19:54:43Z</time>
      </trkpt>
      <trkpt lat="59.521799" lon="17.592281">
        <ele>38.7</ele>
        <time>2013-12-09T19:54:47Z</time>
      </trkpt>
      <trkpt lat="59.521756" lon="17.592278">
        <ele>38.9</ele>
        <time>2013-12-09T19:54:49Z</time>
      </trkpt>
      <trkpt lat="59.521724" lon="17.592275">
        <ele>38.9</ele>
        <time>2013-12-09T19:54:50Z</time>
      </trkpt>
      <trkpt lat="59.521693" lon="17.592278">
        <ele>39</ele>
        <time>2013-12-09T19:54:51Z</time>
      </trkpt>
      <trkpt lat="59.521664" lon="17.592286">
        <ele>39</ele>
        <time>2013-12-09T19:54:52Z</time>
      </trkpt>
      <trkpt lat="59.521636" lon="17.59229">
        <ele>39.1</ele>
        <time>2013-12-09T19:54:53Z</time>
      </trkpt>
      <trkpt lat="59.521592" lon="17.592321">
        <ele>39</ele>
        <time>2013-12-09T19:54:55Z</time>
      </trkpt>
      <trkpt lat="59.521554" lon="17.592277">
        <ele>39.3</ele>
        <time>2013-12-09T19:55:02Z</time>
      </trkpt>
      <trkpt lat="59.521508" lon="17.592295">
        <ele>39.4</ele>
        <time>2013-12-09T19:55:04Z</time>
      </trkpt>
      <trkpt lat="59.521464" lon="17.592351">
        <ele>39.2</ele>
        <time>2013-12-09T19:55:06Z</time>
      </trkpt>
      <trkpt lat="59.521409" lon="17.592452">
        <ele>38.8</ele>
        <time>2013-12-09T19:55:08Z</time>
      </trkpt>
      <trkpt lat="59.521382" lon="17.592495">
        <ele>38.7</ele>
        <time>2013-12-09T19:55:09Z</time>
      </trkpt>
      <trkpt lat="59.521351" lon="17.592575">
        <ele>38.4</ele>
        <time>2013-12-09T19:55:10Z</time>
      </trkpt>
      <trkpt lat="59.521322" lon="17.592629">
        <ele>38.2</ele>
        <time>2013-12-09T19:55:11Z</time>
      </trkpt>
      <trkpt lat="59.52126" lon="17.592678">
        <ele>38.1</ele>
        <time>2013-12-09T19:55:12Z</time>
      </trkpt>
      <trkpt lat="59.521218" lon="17.592706">
        <ele>38</ele>
        <time>2013-12-09T19:55:13Z</time>
      </trkpt>
      <trkpt lat="59.521179" lon="17.59271">
        <ele>37.9</ele>
        <time>2013-12-09T19:55:14Z</time>
      </trkpt>
      <trkpt lat="59.521137" lon="17.592717">
        <ele>37.9</ele>
        <time>2013-12-09T19:55:15Z</time>
      </trkpt>
      <trkpt lat="59.521094" lon="17.592717">
        <ele>37.8</ele>
        <time>2013-12-09T19:55:16Z</time>
      </trkpt>
      <trkpt lat="59.521056" lon="17.592725">
        <ele>37.7</ele>
        <time>2013-12-09T19:55:17Z</time>
      </trkpt>
      <trkpt lat="59.521014" lon="17.592729">
        <ele>37.7</ele>
        <time>2013-12-09T19:55:18Z</time>
      </trkpt>
      <trkpt lat="59.520972" lon="17.592732">
        <ele>37.6</ele>
        <time>2013-12-09T19:55:19Z</time>
      </trkpt>
      <trkpt lat="59.520939" lon="17.592728">
        <ele>37.6</ele>
        <time>2013-12-09T19:55:20Z</time>
      </trkpt>
      <trkpt lat="59.520902" lon="17.592731">
        <ele>37.6</ele>
        <time>2013-12-09T19:55:21Z</time>
      </trkpt>
      <trkpt lat="59.520865" lon="17.592731">
        <ele>37.5</ele>
        <time>2013-12-09T19:55:22Z</time>
      </trkpt>
      <trkpt lat="59.520826" lon="17.592729">
        <ele>37.5</ele>
        <time>2013-12-09T19:55:23Z</time>
      </trkpt>
      <trkpt lat="59.520788" lon="17.592742">
        <ele>37.4</ele>
        <time>2013-12-09T19:55:24Z</time>
      </trkpt>
      <trkpt lat="59.520752" lon="17.592755">
        <ele>37.3</ele>
        <time>2013-12-09T19:55:25Z</time>
      </trkpt>
      <trkpt lat="59.520715" lon="17.592765">
        <ele>37.2</ele>
        <time>2013-12-09T19:55:26Z</time>
      </trkpt>
      <trkpt lat="59.520678" lon="17.592771">
        <ele>37.1</ele>
        <time>2013-12-09T19:55:27Z</time>
      </trkpt>
      <trkpt lat="59.52064" lon="17.592776">
        <ele>37.1</ele>
        <time>2013-12-09T19:55:28Z</time>
      </trkpt>
      <trkpt lat="59.520604" lon="17.592781">
        <ele>37</ele>
        <time>2013-12-09T19:55:29Z</time>
      </trkpt>
      <trkpt lat="59.520564" lon="17.592789">
        <ele>36.9</ele>
        <time>2013-12-09T19:55:30Z</time>
      </trkpt>
      <trkpt lat="59.520527" lon="17.592796">
        <ele>36.8</ele>
        <time>2013-12-09T19:55:31Z</time>
      </trkpt>
      <trkpt lat="59.520487" lon="17.592804">
        <ele>36.7</ele>
        <time>2013-12-09T19:55:32Z</time>
      </trkpt>
      <trkpt lat="59.52045" lon="17.592811">
        <ele>36.7</ele>
        <time>2013-12-09T19:55:33Z</time>
      </trkpt>
      <trkpt lat="59.520412" lon="17.592832">
        <ele>36.5</ele>
        <time>2013-12-09T19:55:34Z</time>
      </trkpt>
      <trkpt lat="59.520374" lon="17.592854">
        <ele>36.4</ele>
        <time>2013-12-09T19:55:35Z</time>
      </trkpt>
      <trkpt lat="59.520338" lon="17.592874">
        <ele>36.2</ele>
        <time>2013-12-09T19:55:36Z</time>
      </trkpt>
      <trkpt lat="59.5203" lon="17.592895">
        <ele>36.1</ele>
        <time>2013-12-09T19:55:37Z</time>
      </trkpt>
      <trkpt lat="59.520261" lon="17.592912">
        <ele>36</ele>
        <time>2013-12-09T19:55:38Z</time>
      </trkpt>
      <trkpt lat="59.52022" lon="17.592911">
        <ele>36</ele>
        <time>2013-12-09T19:55:39Z</time>
      </trkpt>
      <trkpt lat="59.520179" lon="17.592874">
        <ele>36.2</ele>
        <time>2013-12-09T19:55:40Z</time>
      </trkpt>
      <trkpt lat="59.520142" lon="17.592862">
        <ele>36.2</ele>
        <time>2013-12-09T19:55:41Z</time>
      </trkpt>
      <trkpt lat="59.520106" lon="17.592832">
        <ele>36.3</ele>
        <time>2013-12-09T19:55:42Z</time>
      </trkpt>
      <trkpt lat="59.520074" lon="17.5928">
        <ele>36.4</ele>
        <time>2013-12-09T19:55:43Z</time>
      </trkpt>
      <trkpt lat="59.520046" lon="17.592791">
        <ele>36.4</ele>
        <time>2013-12-09T19:55:45Z</time>
      </trkpt>
      <trkpt lat="59.520007" lon="17.592786">
        <ele>36.4</ele>
        <time>2013-12-09T19:55:47Z</time>
      </trkpt>
      <trkpt lat="59.519976" lon="17.592784">
        <ele>36.4</ele>
        <time>2013-12-09T19:55:50Z</time>
      </trkpt>
      <trkpt lat="59.520004" lon="17.592802">
        <ele>36.3</ele>
        <time>2013-12-09T19:55:54Z</time>
      </trkpt>
      <trkpt lat="59.520037" lon="17.592802">
        <ele>36.4</ele>
        <time>2013-12-09T19:55:56Z</time>
      </trkpt>
      <trkpt lat="59.520083" lon="17.5928">
        <ele>36.4</ele>
        <time>2013-12-09T19:55:58Z</time>
      </trkpt>
      <trkpt lat="59.520112" lon="17.592811">
        <ele>36.4</ele>
        <time>2013-12-09T19:55:59Z</time>
      </trkpt>
      <trkpt lat="59.520152" lon="17.592844">
        <ele>36.3</ele>
        <time>2013-12-09T19:56:00Z</time>
      </trkpt>
      <trkpt lat="59.520198" lon="17.592886">
        <ele>36.1</ele>
        <time>2013-12-09T19:56:01Z</time>
      </trkpt>
      <trkpt lat="59.52028" lon="17.592892">
        <ele>36.1</ele>
        <time>2013-12-09T19:56:02Z</time>
      </trkpt>
      <trkpt lat="59.520337" lon="17.592861">
        <ele>36.3</ele>
        <time>2013-12-09T19:56:03Z</time>
      </trkpt>
      <trkpt lat="59.520391" lon="17.592829">
        <ele>36.5</ele>
        <time>2013-12-09T19:56:04Z</time>
      </trkpt>
      <trkpt lat="59.520441" lon="17.592792">
        <ele>36.8</ele>
        <time>2013-12-09T19:56:05Z</time>
      </trkpt>
      <trkpt lat="59.520489" lon="17.592802">
        <ele>36.8</ele>
        <time>2013-12-09T19:56:06Z</time>
      </trkpt>
      <trkpt lat="59.520547" lon="17.592793">
        <ele>36.9</ele>
        <time>2013-12-09T19:56:07Z</time>
      </trkpt>
      <trkpt lat="59.520602" lon="17.592789">
        <ele>37</ele>
        <time>2013-12-09T19:56:08Z</time>
      </trkpt>
      <trkpt lat="59.520678" lon="17.592773">
        <ele>37.1</ele>
        <time>2013-12-09T19:56:09Z</time>
      </trkpt>
      <trkpt lat="59.520747" lon="17.592737">
        <ele>37.4</ele>
        <time>2013-12-09T19:56:10Z</time>
      </trkpt>
      <trkpt lat="59.520801" lon="17.592729">
        <ele>37.5</ele>
        <time>2013-12-09T19:56:11Z</time>
      </trkpt>
      <trkpt lat="59.520857" lon="17.592716">
        <ele>37.6</ele>
        <time>2013-12-09T19:56:12Z</time>
      </trkpt>
      <trkpt lat="59.520911" lon="17.592718">
        <ele>37.6</ele>
        <time>2013-12-09T19:56:13Z</time>
      </trkpt>
      <trkpt lat="59.52097" lon="17.5927">
        <ele>37.8</ele>
        <time>2013-12-09T19:56:14Z</time>
      </trkpt>
      <trkpt lat="59.521027" lon="17.592693">
        <ele>37.9</ele>
        <time>2013-12-09T19:56:15Z</time>
      </trkpt>
      <trkpt lat="59.521091" lon="17.592686">
        <ele>38</ele>
        <time>2013-12-09T19:56:16Z</time>
      </trkpt>
      <trkpt lat="59.521147" lon="17.592683">
        <ele>38</ele>
        <time>2013-12-09T19:56:17Z</time>
      </trkpt>
      <trkpt lat="59.521185" lon="17.592693">
        <ele>38</ele>
        <time>2013-12-09T19:56:18Z</time>
      </trkpt>
      <trkpt lat="59.521216" lon="17.592675">
        <ele>38.1</ele>
        <time>2013-12-09T19:56:19Z</time>
      </trkpt>
      <trkpt lat="59.521262" lon="17.592661">
        <ele>38.2</ele>
        <time>2013-12-09T19:56:20Z</time>
      </trkpt>
      <trkpt lat="59.521313" lon="17.592618">
        <ele>38.3</ele>
        <time>2013-12-09T19:56:21Z</time>
      </trkpt>
      <trkpt lat="59.521349" lon="17.59258">
        <ele>38.4</ele>
        <time>2013-12-09T19:56:22Z</time>
      </trkpt>
      <trkpt lat="59.521376" lon="17.592534">
        <ele>38.5</ele>
        <time>2013-12-09T19:56:23Z</time>
      </trkpt>
      <trkpt lat="59.5214" lon="17.592489">
        <ele>38.7</ele>
        <time>2013-12-09T19:56:24Z</time>
      </trkpt>
      <trkpt lat="59.521427" lon="17.592444">
        <ele>38.8</ele>
        <time>2013-12-09T19:56:25Z</time>
      </trkpt>
      <trkpt lat="59.521472" lon="17.592382">
        <ele>39</ele>
        <time>2013-12-09T19:56:27Z</time>
      </trkpt>
      <trkpt lat="59.521521" lon="17.592323">
        <ele>39.2</ele>
        <time>2013-12-09T19:56:29Z</time>
      </trkpt>
      <trkpt lat="59.521548" lon="17.592302">
        <ele>39.2</ele>
        <time>2013-12-09T19:56:30Z</time>
      </trkpt>
      <trkpt lat="59.521573" lon="17.592281">
        <ele>39.3</ele>
        <time>2013-12-09T19:56:31Z</time>
      </trkpt>
      <trkpt lat="59.521603" lon="17.592266">
        <ele>39.3</ele>
        <time>2013-12-09T19:56:32Z</time>
      </trkpt>
      <trkpt lat="59.521631" lon="17.59225">
        <ele>39.3</ele>
        <time>2013-12-09T19:56:33Z</time>
      </trkpt>
      <trkpt lat="59.521662" lon="17.592256">
        <ele>39.2</ele>
        <time>2013-12-09T19:56:34Z</time>
      </trkpt>
      <trkpt lat="59.521691" lon="17.592251">
        <ele>39.1</ele>
        <time>2013-12-09T19:56:35Z</time>
      </trkpt>
      <trkpt lat="59.521722" lon="17.592263">
        <ele>39</ele>
        <time>2013-12-09T19:56:36Z</time>
      </trkpt>
      <trkpt lat="59.521751" lon="17.592264">
        <ele>38.9</ele>
        <time>2013-12-09T19:56:37Z</time>
      </trkpt>
      <trkpt lat="59.521779" lon="17.592271">
        <ele>38.8</ele>
        <time>2013-12-09T19:56:38Z</time>
      </trkpt>
      <trkpt lat="59.521807" lon="17.592283">
        <ele>38.7</ele>
        <time>2013-12-09T19:56:39Z</time>
      </trkpt>
      <trkpt lat="59.521904" lon="17.592271">
        <ele>38.5</ele>
        <time>2013-12-09T19:56:41Z</time>
      </trkpt>
      <trkpt lat="59.521885" lon="17.592308">
        <ele>38.4</ele>
        <time>2013-12-09T19:56:42Z</time>
      </trkpt>
      <trkpt lat="59.521861" lon="17.592264">
        <ele>38.7</ele>
        <time>2013-12-09T19:56:45Z</time>
      </trkpt>
      <trkpt lat="59.521833" lon="17.592267">
        <ele>38.7</ele>
        <time>2013-12-09T19:56:47Z</time>
      </trkpt>
      <trkpt lat="59.521787" lon="17.592271">
        <ele>38.8</ele>
        <time>2013-12-09T19:56:49Z</time>
      </trkpt>
      <trkpt lat="59.52174" lon="17.592264">
        <ele>39</ele>
        <time>2013-12-09T19:56:51Z</time>
      </trkpt>
      <trkpt lat="59.520598" lon="17.592936">
        <ele>36.1</ele>
        <time>2013-12-09T19:57:22Z</time>
      </trkpt>
      <trkpt lat="59.520563" lon="17.592873">
        <ele>36.4</ele>
        <time>2013-12-09T19:57:23Z</time>
      </trkpt>
      <trkpt lat="59.520537" lon="17.592795">
        <ele>36.9</ele>
        <time>2013-12-09T19:57:24Z</time>
      </trkpt>
      <trkpt lat="59.520501" lon="17.592783">
        <ele>36.9</ele>
        <time>2013-12-09T19:57:25Z</time>
      </trkpt>
      <trkpt lat="59.520464" lon="17.592815">
        <ele>36.7</ele>
        <time>2013-12-09T19:57:26Z</time>
      </trkpt>
      <trkpt lat="59.520429" lon="17.592829">
        <ele>36.5</ele>
        <time>2013-12-09T19:57:27Z</time>
      </trkpt>
      <trkpt lat="59.520402" lon="17.592857">
        <ele>36.4</ele>
        <time>2013-12-09T19:57:28Z</time>
      </trkpt>
      <trkpt lat="59.520364" lon="17.592874">
        <ele>36.2</ele>
        <time>2013-12-09T19:57:29Z</time>
      </trkpt>
      <trkpt lat="59.520325" lon="17.592877">
        <ele>36.2</ele>
        <time>2013-12-09T19:57:30Z</time>
      </trkpt>
      <trkpt lat="59.520287" lon="17.592878">
        <ele>36.2</ele>
        <time>2013-12-09T19:57:31Z</time>
      </trkpt>
      <trkpt lat="59.520251" lon="17.592859">
        <ele>36.3</ele>
        <time>2013-12-09T19:57:32Z</time>
      </trkpt>
      <trkpt lat="59.520218" lon="17.592836">
        <ele>36.4</ele>
        <time>2013-12-09T19:57:33Z</time>
      </trkpt>
      <trkpt lat="59.520187" lon="17.592816">
        <ele>36.4</ele>
        <time>2013-12-09T19:57:34Z</time>
      </trkpt>
      <trkpt lat="59.520157" lon="17.592797">
        <ele>36.5</ele>
        <time>2013-12-09T19:57:35Z</time>
      </trkpt>
      <trkpt lat="59.520129" lon="17.592784">
        <ele>36.5</ele>
        <time>2013-12-09T19:57:36Z</time>
      </trkpt>
      <trkpt lat="59.520088" lon="17.592763">
        <ele>36.6</ele>
        <time>2013-12-09T19:57:38Z</time>
      </trkpt>
      <trkpt lat="59.520046" lon="17.592755">
        <ele>36.5</ele>
        <time>2013-12-09T19:57:40Z</time>
      </trkpt>
      <trkpt lat="59.520005" lon="17.592759">
        <ele>36.5</ele>
        <time>2013-12-09T19:57:42Z</time>
      </trkpt>
      <trkpt lat="59.520067" lon="17.592776">
        <ele>36.5</ele>
        <time>2013-12-09T19:57:51Z</time>
      </trkpt>
      <trkpt lat="59.520089" lon="17.592784">
        <ele>36.5</ele>
        <time>2013-12-09T19:57:52Z</time>
      </trkpt>
      <trkpt lat="59.520136" lon="17.592806">
        <ele>36.4</ele>
        <time>2013-12-09T19:57:53Z</time>
      </trkpt>
      <trkpt lat="59.520179" lon="17.592825">
        <ele>36.4</ele>
        <time>2013-12-09T19:57:54Z</time>
      </trkpt>
      <trkpt lat="59.520265" lon="17.592831">
        <ele>36.4</ele>
        <time>2013-12-09T19:57:55Z</time>
      </trkpt>
      <trkpt lat="59.520322" lon="17.59284">
        <ele>36.4</ele>
        <time>2013-12-09T19:57:56Z</time>
      </trkpt>
      <trkpt lat="59.520376" lon="17.592779">
        <ele>36.8</ele>
        <time>2013-12-09T19:57:57Z</time>
      </trkpt>
      <trkpt lat="59.520432" lon="17.592755">
        <ele>37</ele>
        <time>2013-12-09T19:57:58Z</time>
      </trkpt>
      <trkpt lat="59.520475" lon="17.592705">
        <ele>37.3</ele>
        <time>2013-12-09T19:57:59Z</time>
      </trkpt>
      <trkpt lat="59.520533" lon="17.592705">
        <ele>37.4</ele>
        <time>2013-12-09T19:58:00Z</time>
      </trkpt>
      <trkpt lat="59.520578" lon="17.592724">
        <ele>37.3</ele>
        <time>2013-12-09T19:58:01Z</time>
      </trkpt>
      <trkpt lat="59.520625" lon="17.592722">
        <ele>37.4</ele>
        <time>2013-12-09T19:58:02Z</time>
      </trkpt>
      <trkpt lat="59.52067" lon="17.592721">
        <ele>37.4</ele>
        <time>2013-12-09T19:58:03Z</time>
      </trkpt>
      <trkpt lat="59.520716" lon="17.592714">
        <ele>37.5</ele>
        <time>2013-12-09T19:58:04Z</time>
      </trkpt>
      <trkpt lat="59.520779" lon="17.59269">
        <ele>37.7</ele>
        <time>2013-12-09T19:58:05Z</time>
      </trkpt>
      <trkpt lat="59.52083" lon="17.592686">
        <ele>37.7</ele>
        <time>2013-12-09T19:58:06Z</time>
      </trkpt>
      <trkpt lat="59.520876" lon="17.592682">
        <ele>37.8</ele>
        <time>2013-12-09T19:58:07Z</time>
      </trkpt>
      <trkpt lat="59.520926" lon="17.592676">
        <ele>37.9</ele>
        <time>2013-12-09T19:58:08Z</time>
      </trkpt>
      <trkpt lat="59.520975" lon="17.592686">
        <ele>37.9</ele>
        <time>2013-12-09T19:58:09Z</time>
      </trkpt>
      <trkpt lat="59.521032" lon="17.59268">
        <ele>37.9</ele>
        <time>2013-12-09T19:58:10Z</time>
      </trkpt>
      <trkpt lat="59.52107" lon="17.592685">
        <ele>38</ele>
        <time>2013-12-09T19:58:11Z</time>
      </trkpt>
      <trkpt lat="59.521113" lon="17.592674">
        <ele>38</ele>
        <time>2013-12-09T19:58:12Z</time>
      </trkpt>
      <trkpt lat="59.52116" lon="17.592663">
        <ele>38.1</ele>
        <time>2013-12-09T19:58:13Z</time>
      </trkpt>
      <trkpt lat="59.521204" lon="17.592655">
        <ele>38.2</ele>
        <time>2013-12-09T19:58:14Z</time>
      </trkpt>
      <trkpt lat="59.521244" lon="17.592641">
        <ele>38.3</ele>
        <time>2013-12-09T19:58:15Z</time>
      </trkpt>
      <trkpt lat="59.521285" lon="17.592634">
        <ele>38.3</ele>
        <time>2013-12-09T19:58:16Z</time>
      </trkpt>
      <trkpt lat="59.521321" lon="17.592583">
        <ele>38.4</ele>
        <time>2013-12-09T19:58:17Z</time>
      </trkpt>
      <trkpt lat="59.521356" lon="17.592559">
        <ele>38.5</ele>
        <time>2013-12-09T19:58:18Z</time>
      </trkpt>
      <trkpt lat="59.521378" lon="17.59249">
        <ele>38.7</ele>
        <time>2013-12-09T19:58:19Z</time>
      </trkpt>
      <trkpt lat="59.521396" lon="17.59243">
        <ele>39</ele>
        <time>2013-12-09T19:58:20Z</time>
      </trkpt>
      <trkpt lat="59.52142" lon="17.592387">
        <ele>39.1</ele>
        <time>2013-12-09T19:58:21Z</time>
      </trkpt>
      <trkpt lat="59.521438" lon="17.592334">
        <ele>39.3</ele>
        <time>2013-12-09T19:58:22Z</time>
      </trkpt>
      <trkpt lat="59.521461" lon="17.592304">
        <ele>39.4</ele>
        <time>2013-12-09T19:58:23Z</time>
      </trkpt>
      <trkpt lat="59.521487" lon="17.59227">
        <ele>39.5</ele>
        <time>2013-12-09T19:58:24Z</time>
      </trkpt>
      <trkpt lat="59.521512" lon="17.592234">
        <ele>39.6</ele>
        <time>2013-12-09T19:58:25Z</time>
      </trkpt>
      <trkpt lat="59.521543" lon="17.592214">
        <ele>39.7</ele>
        <time>2013-12-09T19:58:26Z</time>
      </trkpt>
      <trkpt lat="59.521578" lon="17.592202">
        <ele>39.6</ele>
        <time>2013-12-09T19:58:27Z</time>
      </trkpt>
      <trkpt lat="59.521614" lon="17.592199">
        <ele>39.6</ele>
        <time>2013-12-09T19:58:28Z</time>
      </trkpt>
      <trkpt lat="59.521652" lon="17.592209">
        <ele>39.4</ele>
        <time>2013-12-09T19:58:29Z</time>
      </trkpt>
      <trkpt lat="59.52174" lon="17.592244">
        <ele>39.1</ele>
        <time>2013-12-09T19:58:31Z</time>
      </trkpt>
      <trkpt lat="59.521778" lon="17.592255">
        <ele>38.9</ele>
        <time>2013-12-09T19:58:32Z</time>
      </trkpt>
      <trkpt lat="59.521815" lon="17.592264">
        <ele>38.8</ele>
        <time>2013-12-09T19:58:33Z</time>
      </trkpt>
      <trkpt lat="59.520358" lon="17.592923">
        <ele>36</ele>
        <time>2013-12-09T19:59:22Z</time>
      </trkpt>
      <trkpt lat="59.520325" lon="17.592901">
        <ele>36.1</ele>
        <time>2013-12-09T19:59:23Z</time>
      </trkpt>
      <trkpt lat="59.520282" lon="17.592908">
        <ele>36</ele>
        <time>2013-12-09T19:59:24Z</time>
      </trkpt>
      <trkpt lat="59.520241" lon="17.592886">
        <ele>36.1</ele>
        <time>2013-12-09T19:59:25Z</time>
      </trkpt>
      <trkpt lat="59.520204" lon="17.592863">
        <ele>36.2</ele>
        <time>2013-12-09T19:59:26Z</time>
      </trkpt>
      <trkpt lat="59.520165" lon="17.592832">
        <ele>36.4</ele>
        <time>2013-12-09T19:59:27Z</time>
      </trkpt>
      <trkpt lat="59.520135" lon="17.59282">
        <ele>36.4</ele>
        <time>2013-12-09T19:59:28Z</time>
      </trkpt>
      <trkpt lat="59.520081" lon="17.5928">
        <ele>36.4</ele>
        <time>2013-12-09T19:59:30Z</time>
      </trkpt>
      <trkpt lat="59.520054" lon="17.592798">
        <ele>36.4</ele>
        <time>2013-12-09T19:59:31Z</time>
      </trkpt>
      <trkpt lat="59.520018" lon="17.592798">
        <ele>36.4</ele>
        <time>2013-12-09T19:59:33Z</time>
      </trkpt>
      <trkpt lat="59.519988" lon="17.592798">
        <ele>36.3</ele>
        <time>2013-12-09T19:59:35Z</time>
      </trkpt>
      <trkpt lat="59.520017" lon="17.59282">
        <ele>36.3</ele>
        <time>2013-12-09T19:59:42Z</time>
      </trkpt>
      <trkpt lat="59.520048" lon="17.592814">
        <ele>36.3</ele>
        <time>2013-12-09T19:59:43Z</time>
      </trkpt>
      <trkpt lat="59.520084" lon="17.592812">
        <ele>36.4</ele>
        <time>2013-12-09T19:59:44Z</time>
      </trkpt>
      <trkpt lat="59.520125" lon="17.592821">
        <ele>36.4</ele>
        <time>2013-12-09T19:59:45Z</time>
      </trkpt>
      <trkpt lat="59.520179" lon="17.592848">
        <ele>36.3</ele>
        <time>2013-12-09T19:59:46Z</time>
      </trkpt>
      <trkpt lat="59.520256" lon="17.592876">
        <ele>36.2</ele>
        <time>2013-12-09T19:59:47Z</time>
      </trkpt>
      <trkpt lat="59.520309" lon="17.592881">
        <ele>36.2</ele>
        <time>2013-12-09T19:59:48Z</time>
      </trkpt>
      <trkpt lat="59.52036" lon="17.592853">
        <ele>36.4</ele>
        <time>2013-12-09T19:59:49Z</time>
      </trkpt>
      <trkpt lat="59.520417" lon="17.592809">
        <ele>36.6</ele>
        <time>2013-12-09T19:59:50Z</time>
      </trkpt>
      <trkpt lat="59.52046" lon="17.592785">
        <ele>36.8</ele>
        <time>2013-12-09T19:59:51Z</time>
      </trkpt>
      <trkpt lat="59.520502" lon="17.592773">
        <ele>36.9</ele>
        <time>2013-12-09T19:59:52Z</time>
      </trkpt>
      <trkpt lat="59.520546" lon="17.592775">
        <ele>37</ele>
        <time>2013-12-09T19:59:53Z</time>
      </trkpt>
      <trkpt lat="59.520602" lon="17.592765">
        <ele>37.1</ele>
        <time>2013-12-09T19:59:54Z</time>
      </trkpt>
      <trkpt lat="59.520645" lon="17.592764">
        <ele>37.1</ele>
        <time>2013-12-09T19:59:55Z</time>
      </trkpt>
      <trkpt lat="59.520702" lon="17.592751">
        <ele>37.3</ele>
        <time>2013-12-09T19:59:56Z</time>
      </trkpt>
      <trkpt lat="59.520753" lon="17.592732">
        <ele>37.4</ele>
        <time>2013-12-09T19:59:57Z</time>
      </trkpt>
      <trkpt lat="59.520809" lon="17.592728">
        <ele>37.5</ele>
        <time>2013-12-09T19:59:58Z</time>
      </trkpt>
      <trkpt lat="59.520863" lon="17.592712">
        <ele>37.6</ele>
        <time>2013-12-09T19:59:59Z</time>
      </trkpt>
      <trkpt lat="59.520903" lon="17.592708">
        <ele>37.7</ele>
        <time>2013-12-09T20:00:00Z</time>
      </trkpt>
      <trkpt lat="59.520945" lon="17.59272">
        <ele>37.7</ele>
        <time>2013-12-09T20:00:01Z</time>
      </trkpt>
      <trkpt lat="59.520985" lon="17.592714">
        <ele>37.7</ele>
        <time>2013-12-09T20:00:02Z</time>
      </trkpt>
      <trkpt lat="59.521033" lon="17.592712">
        <ele>37.8</ele>
        <time>2013-12-09T20:00:03Z</time>
      </trkpt>
      <trkpt lat="59.52108" lon="17.59271">
        <ele>37.8</ele>
        <time>2013-12-09T20:00:04Z</time>
      </trkpt>
      <trkpt lat="59.521115" lon="17.592702">
        <ele>37.9</ele>
        <time>2013-12-09T20:00:05Z</time>
      </trkpt>
      <trkpt lat="59.521159" lon="17.592701">
        <ele>38</ele>
        <time>2013-12-09T20:00:06Z</time>
      </trkpt>
      <trkpt lat="59.521208" lon="17.592684">
        <ele>38.1</ele>
        <time>2013-12-09T20:00:07Z</time>
      </trkpt>
      <trkpt lat="59.521253" lon="17.59268">
        <ele>38.1</ele>
        <time>2013-12-09T20:00:08Z</time>
      </trkpt>
      <trkpt lat="59.521286" lon="17.592653">
        <ele>38.2</ele>
        <time>2013-12-09T20:00:09Z</time>
      </trkpt>
      <trkpt lat="59.521325" lon="17.592574">
        <ele>38.5</ele>
        <time>2013-12-09T20:00:11Z</time>
      </trkpt>
      <trkpt lat="59.521387" lon="17.592516">
        <ele>38.6</ele>
        <time>2013-12-09T20:00:12Z</time>
      </trkpt>
      <trkpt lat="59.52103" lon="17.592681">
        <ele>37.9</ele>
        <time>2013-12-09T20:01:54Z</time>
      </trkpt>
      <trkpt lat="59.521075" lon="17.592659">
        <ele>38.1</ele>
        <time>2013-12-09T20:01:55Z</time>
      </trkpt>
      <trkpt lat="59.521083" lon="17.592595">
        <ele>38.4</ele>
        <time>2013-12-09T20:01:56Z</time>
      </trkpt>
      <trkpt lat="59.521158" lon="17.592595">
        <ele>38.5</ele>
        <time>2013-12-09T20:01:57Z</time>
      </trkpt>
      <trkpt lat="59.521229" lon="17.592623">
        <ele>38.4</ele>
        <time>2013-12-09T20:01:59Z</time>
      </trkpt>
      <trkpt lat="59.521266" lon="17.592625">
        <ele>38.4</ele>
        <time>2013-12-09T20:02:00Z</time>
      </trkpt>
      <trkpt lat="59.521293" lon="17.592626">
        <ele>38.3</ele>
        <time>2013-12-09T20:02:01Z</time>
      </trkpt>
      <trkpt lat="59.521332" lon="17.5926">
        <ele>38.3</ele>
        <time>2013-12-09T20:02:02Z</time>
      </trkpt>
      <trkpt lat="59.521359" lon="17.592554">
        <ele>38.5</ele>
        <time>2013-12-09T20:02:03Z</time>
      </trkpt>
      <trkpt lat="59.521383" lon="17.592481">
        <ele>38.8</ele>
        <time>2013-12-09T20:02:04Z</time>
      </trkpt>
      <trkpt lat="59.521404" lon="17.592429">
        <ele>39</ele>
        <time>2013-12-09T20:02:05Z</time>
      </trkpt>
      <trkpt lat="59.521428" lon="17.592395">
        <ele>39.1</ele>
        <time>2013-12-09T20:02:06Z</time>
      </trkpt>
      <trkpt lat="59.521433" lon="17.592317">
        <ele>39.4</ele>
        <time>2013-12-09T20:02:08Z</time>
      </trkpt>
      <trkpt lat="59.521489" lon="17.592251">
        <ele>39.6</ele>
        <time>2013-12-09T20:02:09Z</time>
      </trkpt>
      <trkpt lat="59.52155" lon="17.592309">
        <ele>39.2</ele>
        <time>2013-12-09T20:02:10Z</time>
      </trkpt>
      <trkpt lat="59.521606" lon="17.592289">
        <ele>39.2</ele>
        <time>2013-12-09T20:02:12Z</time>
      </trkpt>
      <trkpt lat="59.521646" lon="17.592302">
        <ele>39</ele>
        <time>2013-12-09T20:02:13Z</time>
      </trkpt>
      <trkpt lat="59.521682" lon="17.592298">
        <ele>38.9</ele>
        <time>2013-12-09T20:02:14Z</time>
      </trkpt>
      <trkpt lat="59.52174" lon="17.592283">
        <ele>38.9</ele>
        <time>2013-12-09T20:02:16Z</time>
      </trkpt>
      <trkpt lat="59.521002" lon="17.592617">
        <ele>38.2</ele>
        <time>2013-12-09T20:02:52Z</time>
      </trkpt>
      <trkpt lat="59.520867" lon="17.592887">
        <ele>36.7</ele>
        <time>2013-12-09T20:03:52Z</time>
      </trkpt>
      <trkpt lat="59.520808" lon="17.59284">
        <ele>36.9</ele>
        <time>2013-12-09T20:03:54Z</time>
      </trkpt>
      <trkpt lat="59.520769" lon="17.592798">
        <ele>37.1</ele>
        <time>2013-12-09T20:03:55Z</time>
      </trkpt>
      <trkpt lat="59.520733" lon="17.592807">
        <ele>37</ele>
        <time>2013-12-09T20:03:56Z</time>
      </trkpt>
      <trkpt lat="59.520688" lon="17.592809">
        <ele>36.9</ele>
        <time>2013-12-09T20:03:58Z</time>
      </trkpt>
      <trkpt lat="59.520671" lon="17.592783">
        <ele>37.1</ele>
        <time>2013-12-09T20:04:00Z</time>
      </trkpt>
      <trkpt lat="59.520684" lon="17.592774">
        <ele>37.1</ele>
        <time>2013-12-09T20:04:09Z</time>
      </trkpt>
      <trkpt lat="59.520696" lon="17.592765">
        <ele>37.2</ele>
        <time>2013-12-09T20:04:18Z</time>
      </trkpt>
      <trkpt lat="59.520709" lon="17.592757">
        <ele>37.2</ele>
        <time>2013-12-09T20:04:22Z</time>
      </trkpt>
      <trkpt lat="59.520723" lon="17.592747">
        <ele>37.3</ele>
        <time>2013-12-09T20:04:23Z</time>
      </trkpt>
      <trkpt lat="59.520751" lon="17.592739">
        <ele>37.4</ele>
        <time>2013-12-09T20:04:24Z</time>
      </trkpt>
      <trkpt lat="59.520782" lon="17.592723">
        <ele>37.5</ele>
        <time>2013-12-09T20:04:25Z</time>
      </trkpt>
      <trkpt lat="59.520834" lon="17.592708">
        <ele>37.6</ele>
        <time>2013-12-09T20:04:27Z</time>
      </trkpt>
      <trkpt lat="59.520879" lon="17.592707">
        <ele>37.7</ele>
        <time>2013-12-09T20:04:28Z</time>
      </trkpt>
      <trkpt lat="59.520914" lon="17.592703">
        <ele>37.7</ele>
        <time>2013-12-09T20:04:29Z</time>
      </trkpt>
      <trkpt lat="59.520957" lon="17.592699">
        <ele>37.8</ele>
        <time>2013-12-09T20:04:30Z</time>
      </trkpt>
      <trkpt lat="59.520991" lon="17.592697">
        <ele>37.8</ele>
        <time>2013-12-09T20:04:31Z</time>
      </trkpt>
      <trkpt lat="59.521027" lon="17.592688">
        <ele>37.9</ele>
        <time>2013-12-09T20:04:32Z</time>
      </trkpt>
      <trkpt lat="59.52106" lon="17.592683">
        <ele>38</ele>
        <time>2013-12-09T20:04:33Z</time>
      </trkpt>
      <trkpt lat="59.521096" lon="17.592668">
        <ele>38.1</ele>
        <time>2013-12-09T20:04:34Z</time>
      </trkpt>
      <trkpt lat="59.521129" lon="17.592659">
        <ele>38.1</ele>
        <time>2013-12-09T20:04:35Z</time>
      </trkpt>
      <trkpt lat="59.521173" lon="17.592642">
        <ele>38.3</ele>
        <time>2013-12-09T20:04:36Z</time>
      </trkpt>
      <trkpt lat="59.521212" lon="17.592631">
        <ele>38.3</ele>
        <time>2013-12-09T20:04:37Z</time>
      </trkpt>
      <trkpt lat="59.521256" lon="17.592621">
        <ele>38.4</ele>
        <time>2013-12-09T20:04:38Z</time>
      </trkpt>
      <trkpt lat="59.521297" lon="17.592595">
        <ele>38.4</ele>
        <time>2013-12-09T20:04:39Z</time>
      </trkpt>
      <trkpt lat="59.521335" lon="17.592574">
        <ele>38.4</ele>
        <time>2013-12-09T20:04:40Z</time>
      </trkpt>
      <trkpt lat="59.521369" lon="17.592513">
        <ele>38.7</ele>
        <time>2013-12-09T20:04:41Z</time>
      </trkpt>
      <trkpt lat="59.521397" lon="17.59243">
        <ele>39</ele>
        <time>2013-12-09T20:04:42Z</time>
      </trkpt>
      <trkpt lat="59.521427" lon="17.59238">
        <ele>39.2</ele>
        <time>2013-12-09T20:04:43Z</time>
      </trkpt>
      <trkpt lat="59.521464" lon="17.592328">
        <ele>39.3</ele>
        <time>2013-12-09T20:04:44Z</time>
      </trkpt>
      <trkpt lat="59.521496" lon="17.592285">
        <ele>39.4</ele>
        <time>2013-12-09T20:04:45Z</time>
      </trkpt>
      <trkpt lat="59.521541" lon="17.592259">
        <ele>39.5</ele>
        <time>2013-12-09T20:04:46Z</time>
      </trkpt>
      <trkpt lat="59.521577" lon="17.59223">
        <ele>39.5</ele>
        <time>2013-12-09T20:04:47Z</time>
      </trkpt>
      <trkpt lat="59.521624" lon="17.592231">
        <ele>39.4</ele>
        <time>2013-12-09T20:04:48Z</time>
      </trkpt>
      <trkpt lat="59.521663" lon="17.592218">
        <ele>39.4</ele>
        <time>2013-12-09T20:04:49Z</time>
      </trkpt>
      <trkpt lat="59.521708" lon="17.592231">
        <ele>39.2</ele>
        <time>2013-12-09T20:04:50Z</time>
      </trkpt>
      <trkpt lat="59.521748" lon="17.592228">
        <ele>39.1</ele>
        <time>2013-12-09T20:04:51Z</time>
      </trkpt>
      <trkpt lat="59.521787" lon="17.592258">
        <ele>38.9</ele>
        <time>2013-12-09T20:04:52Z</time>
      </trkpt>
      <trkpt lat="59.521823" lon="17.592273">
        <ele>38.7</ele>
        <time>2013-12-09T20:04:53Z</time>
      </trkpt>
      <trkpt lat="59.521861" lon="17.592282">
        <ele>38.6</ele>
        <time>2013-12-09T20:04:54Z</time>
      </trkpt>
      <trkpt lat="59.52184" lon="17.592219">
        <ele>38.9</ele>
        <time>2013-12-09T20:04:57Z</time>
      </trkpt>
      <trkpt lat="59.521802" lon="17.592259">
        <ele>38.8</ele>
        <time>2013-12-09T20:05:00Z</time>
      </trkpt>
      <trkpt lat="59.521761" lon="17.592297">
        <ele>38.7</ele>
        <time>2013-12-09T20:05:02Z</time>
      </trkpt>
      <trkpt lat="59.521715" lon="17.592292">
        <ele>38.9</ele>
        <time>2013-12-09T20:05:04Z</time>
      </trkpt>
      <trkpt lat="59.521653" lon="17.592295">
        <ele>39</ele>
        <time>2013-12-09T20:05:06Z</time>
      </trkpt>
      <trkpt lat="59.521624" lon="17.592297">
        <ele>39.1</ele>
        <time>2013-12-09T20:05:07Z</time>
      </trkpt>
      <trkpt lat="59.521591" lon="17.592307">
        <ele>39.1</ele>
        <time>2013-12-09T20:05:08Z</time>
      </trkpt>
      <trkpt lat="59.521562" lon="17.592312">
        <ele>39.2</ele>
        <time>2013-12-09T20:05:09Z</time>
      </trkpt>
      <trkpt lat="59.521528" lon="17.592339">
        <ele>39.1</ele>
        <time>2013-12-09T20:05:10Z</time>
      </trkpt>
      <trkpt lat="59.521497" lon="17.592363">
        <ele>39.1</ele>
        <time>2013-12-09T20:05:11Z</time>
      </trkpt>
      <trkpt lat="59.521467" lon="17.592393">
        <ele>39</ele>
        <time>2013-12-09T20:05:12Z</time>
      </trkpt>
      <trkpt lat="59.521439" lon="17.592418">
        <ele>38.9</ele>
        <time>2013-12-09T20:05:13Z</time>
      </trkpt>
      <trkpt lat="59.521414" lon="17.592481">
        <ele>38.7</ele>
        <time>2013-12-09T20:05:14Z</time>
      </trkpt>
      <trkpt lat="59.521389" lon="17.592521">
        <ele>38.6</ele>
        <time>2013-12-09T20:05:15Z</time>
      </trkpt>
      <trkpt lat="59.521351" lon="17.592614">
        <ele>38.2</ele>
        <time>2013-12-09T20:05:16Z</time>
      </trkpt>
      <trkpt lat="59.521321" lon="17.592673">
        <ele>38</ele>
        <time>2013-12-09T20:05:17Z</time>
      </trkpt>
      <trkpt lat="59.52128" lon="17.592711">
        <ele>37.9</ele>
        <time>2013-12-09T20:05:18Z</time>
      </trkpt>
      <trkpt lat="59.521244" lon="17.592752">
        <ele>37.8</ele>
        <time>2013-12-09T20:05:19Z</time>
      </trkpt>
      <trkpt lat="59.521195" lon="17.592739">
        <ele>37.8</ele>
        <time>2013-12-09T20:05:20Z</time>
      </trkpt>
      <trkpt lat="59.521153" lon="17.592751">
        <ele>37.7</ele>
        <time>2013-12-09T20:05:21Z</time>
      </trkpt>
      <trkpt lat="59.52111" lon="17.592743">
        <ele>37.7</ele>
        <time>2013-12-09T20:05:22Z</time>
      </trkpt>
      <trkpt lat="59.521068" lon="17.592749">
        <ele>37.6</ele>
        <time>2013-12-09T20:05:23Z</time>
      </trkpt>
      <trkpt lat="59.521026" lon="17.592752">
        <ele>37.6</ele>
        <time>2013-12-09T20:05:24Z</time>
      </trkpt>
      <trkpt lat="59.520985" lon="17.592756">
        <ele>37.5</ele>
        <time>2013-12-09T20:05:25Z</time>
      </trkpt>
      <trkpt lat="59.520944" lon="17.592762">
        <ele>37.4</ele>
        <time>2013-12-09T20:05:26Z</time>
      </trkpt>
      <trkpt lat="59.520903" lon="17.592769">
        <ele>37.4</ele>
        <time>2013-12-09T20:05:27Z</time>
      </trkpt>
      <trkpt lat="59.520864" lon="17.592773">
        <ele>37.3</ele>
        <time>2013-12-09T20:05:28Z</time>
      </trkpt>
      <trkpt lat="59.520825" lon="17.592776">
        <ele>37.3</ele>
        <time>2013-12-09T20:05:29Z</time>
      </trkpt>
      <trkpt lat="59.520786" lon="17.592779">
        <ele>37.2</ele>
        <time>2013-12-09T20:05:30Z</time>
      </trkpt>
      <trkpt lat="59.520747" lon="17.592784">
        <ele>37.1</ele>
        <time>2013-12-09T20:05:31Z</time>
      </trkpt>
      <trkpt lat="59.520713" lon="17.59279">
        <ele>37.1</ele>
        <time>2013-12-09T20:05:32Z</time>
      </trkpt>
      <trkpt lat="59.520677" lon="17.592797">
        <ele>37</ele>
        <time>2013-12-09T20:05:33Z</time>
      </trkpt>
      <trkpt lat="59.520641" lon="17.592802">
        <ele>36.9</ele>
        <time>2013-12-09T20:05:34Z</time>
      </trkpt>
      <trkpt lat="59.520604" lon="17.592807">
        <ele>36.9</ele>
        <time>2013-12-09T20:05:35Z</time>
      </trkpt>
      <trkpt lat="59.520565" lon="17.592802">
        <ele>36.8</ele>
        <time>2013-12-09T20:05:36Z</time>
      </trkpt>
      <trkpt lat="59.520527" lon="17.592803">
        <ele>36.8</ele>
        <time>2013-12-09T20:05:37Z</time>
      </trkpt>
      <trkpt lat="59.520489" lon="17.592805">
        <ele>36.7</ele>
        <time>2013-12-09T20:05:38Z</time>
      </trkpt>
      <trkpt lat="59.520451" lon="17.592811">
        <ele>36.7</ele>
        <time>2013-12-09T20:05:39Z</time>
      </trkpt>
      <trkpt lat="59.520414" lon="17.592838">
        <ele>36.5</ele>
        <time>2013-12-09T20:05:40Z</time>
      </trkpt>
      <trkpt lat="59.520378" lon="17.592856">
        <ele>36.3</ele>
        <time>2013-12-09T20:05:41Z</time>
      </trkpt>
      <trkpt lat="59.520341" lon="17.592883">
        <ele>36.2</ele>
        <time>2013-12-09T20:05:42Z</time>
      </trkpt>
      <trkpt lat="59.520304" lon="17.592899">
        <ele>36.1</ele>
        <time>2013-12-09T20:05:43Z</time>
      </trkpt>
      <trkpt lat="59.520268" lon="17.592914">
        <ele>36</ele>
        <time>2013-12-09T20:05:44Z</time>
      </trkpt>
      <trkpt lat="59.52023" lon="17.592889">
        <ele>36.1</ele>
        <time>2013-12-09T20:05:45Z</time>
      </trkpt>
      <trkpt lat="59.520193" lon="17.592884">
        <ele>36.1</ele>
        <time>2013-12-09T20:05:46Z</time>
      </trkpt>
      <trkpt lat="59.520159" lon="17.592857">
        <ele>36.2</ele>
        <time>2013-12-09T20:05:47Z</time>
      </trkpt>
      <trkpt lat="59.520129" lon="17.592821">
        <ele>36.4</ele>
        <time>2013-12-09T20:05:48Z</time>
      </trkpt>
      <trkpt lat="59.520095" lon="17.5928">
        <ele>36.4</ele>
        <time>2013-12-09T20:05:49Z</time>
      </trkpt>
      <trkpt lat="59.520069" lon="17.592775">
        <ele>36.5</ele>
        <time>2013-12-09T20:05:51Z</time>
      </trkpt>
      <trkpt lat="59.520032" lon="17.592772">
        <ele>36.5</ele>
        <time>2013-12-09T20:05:53Z</time>
      </trkpt>
      <trkpt lat="59.520024" lon="17.592787">
        <ele>36.4</ele>
        <time>2013-12-09T20:05:55Z</time>
      </trkpt>
      <trkpt lat="59.520049" lon="17.592791">
        <ele>36.4</ele>
        <time>2013-12-09T20:06:05Z</time>
      </trkpt>
      <trkpt lat="59.520075" lon="17.592796">
        <ele>36.4</ele>
        <time>2013-12-09T20:06:06Z</time>
      </trkpt>
      <trkpt lat="59.520145" lon="17.592805">
        <ele>36.5</ele>
        <time>2013-12-09T20:06:08Z</time>
      </trkpt>
      <trkpt lat="59.520192" lon="17.592825">
        <ele>36.4</ele>
        <time>2013-12-09T20:06:09Z</time>
      </trkpt>
      <trkpt lat="59.520281" lon="17.592856">
        <ele>36.3</ele>
        <time>2013-12-09T20:06:10Z</time>
      </trkpt>
      <trkpt lat="59.520336" lon="17.592869">
        <ele>36.3</ele>
        <time>2013-12-09T20:06:11Z</time>
      </trkpt>
      <trkpt lat="59.520383" lon="17.592818">
        <ele>36.6</ele>
        <time>2013-12-09T20:06:12Z</time>
      </trkpt>
      <trkpt lat="59.520432" lon="17.592796">
        <ele>36.7</ele>
        <time>2013-12-09T20:06:13Z</time>
      </trkpt>
      <trkpt lat="59.520477" lon="17.592739">
        <ele>37.1</ele>
        <time>2013-12-09T20:06:14Z</time>
      </trkpt>
      <trkpt lat="59.520523" lon="17.592744">
        <ele>37.1</ele>
        <time>2013-12-09T20:06:15Z</time>
      </trkpt>
      <trkpt lat="59.520568" lon="17.592732">
        <ele>37.2</ele>
        <time>2013-12-09T20:06:16Z</time>
      </trkpt>
      <trkpt lat="59.52061" lon="17.592733">
        <ele>37.3</ele>
        <time>2013-12-09T20:06:17Z</time>
      </trkpt>
      <trkpt lat="59.520653" lon="17.592743">
        <ele>37.3</ele>
        <time>2013-12-09T20:06:18Z</time>
      </trkpt>
      <trkpt lat="59.520693" lon="17.592735">
        <ele>37.3</ele>
        <time>2013-12-09T20:06:19Z</time>
      </trkpt>
      <trkpt lat="59.520731" lon="17.592735">
        <ele>37.4</ele>
        <time>2013-12-09T20:06:20Z</time>
      </trkpt>
      <trkpt lat="59.520771" lon="17.592729">
        <ele>37.5</ele>
        <time>2013-12-09T20:06:21Z</time>
      </trkpt>
      <trkpt lat="59.520821" lon="17.592719">
        <ele>37.6</ele>
        <time>2013-12-09T20:06:22Z</time>
      </trkpt>
      <trkpt lat="59.520859" lon="17.592726">
        <ele>37.6</ele>
        <time>2013-12-09T20:06:23Z</time>
      </trkpt>
      <trkpt lat="59.520903" lon="17.592711">
        <ele>37.7</ele>
        <time>2013-12-09T20:06:24Z</time>
      </trkpt>
      <trkpt lat="59.520946" lon="17.592703">
        <ele>37.8</ele>
        <time>2013-12-09T20:06:25Z</time>
      </trkpt>
      <trkpt lat="59.520984" lon="17.5927">
        <ele>37.8</ele>
        <time>2013-12-09T20:06:26Z</time>
      </trkpt>
      <trkpt lat="59.521024" lon="17.592707">
        <ele>37.8</ele>
        <time>2013-12-09T20:06:27Z</time>
      </trkpt>
      <trkpt lat="59.521075" lon="17.592697">
        <ele>37.9</ele>
        <time>2013-12-09T20:06:28Z</time>
      </trkpt>
      <trkpt lat="59.521109" lon="17.59269">
        <ele>38</ele>
        <time>2013-12-09T20:06:29Z</time>
      </trkpt>
      <trkpt lat="59.521144" lon="17.592687">
        <ele>38</ele>
        <time>2013-12-09T20:06:30Z</time>
      </trkpt>
      <trkpt lat="59.52118" lon="17.592672">
        <ele>38.1</ele>
        <time>2013-12-09T20:06:31Z</time>
      </trkpt>
      <trkpt lat="59.521224" lon="17.592664">
        <ele>38.2</ele>
        <time>2013-12-09T20:06:32Z</time>
      </trkpt>
      <trkpt lat="59.521257" lon="17.592648">
        <ele>38.3</ele>
        <time>2013-12-09T20:06:33Z</time>
      </trkpt>
      <trkpt lat="59.521293" lon="17.592635">
        <ele>38.2</ele>
        <time>2013-12-09T20:06:34Z</time>
      </trkpt>
      <trkpt lat="59.521324" lon="17.592602">
        <ele>38.3</ele>
        <time>2013-12-09T20:06:35Z</time>
      </trkpt>
      <trkpt lat="59.521349" lon="17.59256">
        <ele>38.5</ele>
        <time>2013-12-09T20:06:36Z</time>
      </trkpt>
      <trkpt lat="59.521375" lon="17.592532">
        <ele>38.5</ele>
        <time>2013-12-09T20:06:37Z</time>
      </trkpt>
      <trkpt lat="59.521395" lon="17.592476">
        <ele>38.8</ele>
        <time>2013-12-09T20:06:38Z</time>
      </trkpt>
      <trkpt lat="59.521419" lon="17.592434">
        <ele>38.9</ele>
        <time>2013-12-09T20:06:39Z</time>
      </trkpt>
      <trkpt lat="59.521441" lon="17.592387">
        <ele>39.1</ele>
        <time>2013-12-09T20:06:40Z</time>
      </trkpt>
      <trkpt lat="59.521465" lon="17.592348">
        <ele>39.2</ele>
        <time>2013-12-09T20:06:41Z</time>
      </trkpt>
      <trkpt lat="59.521493" lon="17.59232">
        <ele>39.3</ele>
        <time>2013-12-09T20:06:42Z</time>
      </trkpt>
      <trkpt lat="59.521519" lon="17.592286">
        <ele>39.4</ele>
        <time>2013-12-09T20:06:43Z</time>
      </trkpt>
      <trkpt lat="59.521549" lon="17.592265">
        <ele>39.4</ele>
        <time>2013-12-09T20:06:44Z</time>
      </trkpt>
      <trkpt lat="59.52158" lon="17.592253">
        <ele>39.4</ele>
        <time>2013-12-09T20:06:45Z</time>
      </trkpt>
      <trkpt lat="59.521612" lon="17.592246">
        <ele>39.4</ele>
        <time>2013-12-09T20:06:46Z</time>
      </trkpt>
      <trkpt lat="59.521662" lon="17.592252">
        <ele>39.2</ele>
        <time>2013-12-09T20:06:48Z</time>
      </trkpt>
      <trkpt lat="59.521709" lon="17.592266">
        <ele>39</ele>
        <time>2013-12-09T20:06:50Z</time>
      </trkpt>
      <trkpt lat="59.521762" lon="17.592281">
        <ele>38.8</ele>
        <time>2013-12-09T20:06:52Z</time>
      </trkpt>
      <trkpt lat="59.521811" lon="17.592295">
        <ele>38.6</ele>
        <time>2013-12-09T20:06:54Z</time>
      </trkpt>
      <trkpt lat="59.52184" lon="17.592313">
        <ele>38.5</ele>
        <time>2013-12-09T20:06:57Z</time>
      </trkpt>
      <trkpt lat="59.521872" lon="17.592288">
        <ele>38.5</ele>
        <time>2013-12-09T20:07:27Z</time>
      </trkpt>
      <trkpt lat="59.521822" lon="17.59226">
        <ele>38.8</ele>
        <time>2013-12-09T20:07:50Z</time>
      </trkpt>
      <trkpt lat="59.521794" lon="17.592255">
        <ele>38.9</ele>
        <time>2013-12-09T20:07:51Z</time>
      </trkpt>
      <trkpt lat="59.521763" lon="17.59225">
        <ele>39</ele>
        <time>2013-12-09T20:07:52Z</time>
      </trkpt>
      <trkpt lat="59.52173" lon="17.592249">
        <ele>39.1</ele>
        <time>2013-12-09T20:07:53Z</time>
      </trkpt>
      <trkpt lat="59.521696" lon="17.592249">
        <ele>39.1</ele>
        <time>2013-12-09T20:07:54Z</time>
      </trkpt>
      <trkpt lat="59.521664" lon="17.592251">
        <ele>39.2</ele>
        <time>2013-12-09T20:07:55Z</time>
      </trkpt>
      <trkpt lat="59.521631" lon="17.592255">
        <ele>39.3</ele>
        <time>2013-12-09T20:07:56Z</time>
      </trkpt>
      <trkpt lat="59.521598" lon="17.592262">
        <ele>39.3</ele>
        <time>2013-12-09T20:07:57Z</time>
      </trkpt>
      <trkpt lat="59.521564" lon="17.592275">
        <ele>39.3</ele>
        <time>2013-12-09T20:07:58Z</time>
      </trkpt>
      <trkpt lat="59.521527" lon="17.5923">
        <ele>39.3</ele>
        <time>2013-12-09T20:07:59Z</time>
      </trkpt>
      <trkpt lat="59.521496" lon="17.592329">
        <ele>39.2</ele>
        <time>2013-12-09T20:08:00Z</time>
      </trkpt>
      <trkpt lat="59.521465" lon="17.592361">
        <ele>39.2</ele>
        <time>2013-12-09T20:08:01Z</time>
      </trkpt>
      <trkpt lat="59.521436" lon="17.592399">
        <ele>39</ele>
        <time>2013-12-09T20:08:02Z</time>
      </trkpt>
      <trkpt lat="59.52141" lon="17.592446">
        <ele>38.9</ele>
        <time>2013-12-09T20:08:03Z</time>
      </trkpt>
      <trkpt lat="59.521384" lon="17.592498">
        <ele>38.7</ele>
        <time>2013-12-09T20:08:04Z</time>
      </trkpt>
      <trkpt lat="59.521351" lon="17.59256">
        <ele>38.5</ele>
        <time>2013-12-09T20:08:05Z</time>
      </trkpt>
      <trkpt lat="59.521315" lon="17.59261">
        <ele>38.3</ele>
        <time>2013-12-09T20:08:06Z</time>
      </trkpt>
      <trkpt lat="59.521276" lon="17.592647">
        <ele>38.2</ele>
        <time>2013-12-09T20:08:07Z</time>
      </trkpt>
      <trkpt lat="59.521234" lon="17.592666">
        <ele>38.2</ele>
        <time>2013-12-09T20:08:08Z</time>
      </trkpt>
      <trkpt lat="59.521191" lon="17.592672">
        <ele>38.1</ele>
        <time>2013-12-09T20:08:09Z</time>
      </trkpt>
      <trkpt lat="59.521149" lon="17.592674">
        <ele>38.1</ele>
        <time>2013-12-09T20:08:10Z</time>
      </trkpt>
      <trkpt lat="59.521108" lon="17.592677">
        <ele>38</ele>
        <time>2013-12-09T20:08:11Z</time>
      </trkpt>
      <trkpt lat="59.521067" lon="17.592678">
        <ele>38</ele>
        <time>2013-12-09T20:08:12Z</time>
      </trkpt>
      <trkpt lat="59.521027" lon="17.592679">
        <ele>37.9</ele>
        <time>2013-12-09T20:08:13Z</time>
      </trkpt>
      <trkpt lat="59.520988" lon="17.592682">
        <ele>37.9</ele>
        <time>2013-12-09T20:08:14Z</time>
      </trkpt>
      <trkpt lat="59.520949" lon="17.592684">
        <ele>37.9</ele>
        <time>2013-12-09T20:08:15Z</time>
      </trkpt>
      <trkpt lat="59.520913" lon="17.592679">
        <ele>37.9</ele>
        <time>2013-12-09T20:08:16Z</time>
      </trkpt>
      <trkpt lat="59.520877" lon="17.59267">
        <ele>37.9</ele>
        <time>2013-12-09T20:08:17Z</time>
      </trkpt>
      <trkpt lat="59.52084" lon="17.592675">
        <ele>37.8</ele>
        <time>2013-12-09T20:08:18Z</time>
      </trkpt>
      <trkpt lat="59.520803" lon="17.592686">
        <ele>37.7</ele>
        <time>2013-12-09T20:08:19Z</time>
      </trkpt>
      <trkpt lat="59.520768" lon="17.5927">
        <ele>37.6</ele>
        <time>2013-12-09T20:08:20Z</time>
      </trkpt>
      <trkpt lat="59.520734" lon="17.592703">
        <ele>37.6</ele>
        <time>2013-12-09T20:08:21Z</time>
      </trkpt>
      <trkpt lat="59.520707" lon="17.592701">
        <ele>37.6</ele>
        <time>2013-12-09T20:08:22Z</time>
      </trkpt>
      <trkpt lat="59.520674" lon="17.592701">
        <ele>37.5</ele>
        <time>2013-12-09T20:08:23Z</time>
      </trkpt>
      <trkpt lat="59.520641" lon="17.592707">
        <ele>37.5</ele>
        <time>2013-12-09T20:08:24Z</time>
      </trkpt>
      <trkpt lat="59.520607" lon="17.592713">
        <ele>37.4</ele>
        <time>2013-12-09T20:08:25Z</time>
      </trkpt>
      <trkpt lat="59.520572" lon="17.592718">
        <ele>37.3</ele>
        <time>2013-12-09T20:08:26Z</time>
      </trkpt>
      <trkpt lat="59.520537" lon="17.592721">
        <ele>37.3</ele>
        <time>2013-12-09T20:08:27Z</time>
      </trkpt>
      <trkpt lat="59.520502" lon="17.592732">
        <ele>37.2</ele>
        <time>2013-12-09T20:08:28Z</time>
      </trkpt>
      <trkpt lat="59.520467" lon="17.592748">
        <ele>37.1</ele>
        <time>2013-12-09T20:08:29Z</time>
      </trkpt>
      <trkpt lat="59.520431" lon="17.592772">
        <ele>36.9</ele>
        <time>2013-12-09T20:08:30Z</time>
      </trkpt>
      <trkpt lat="59.520395" lon="17.592797">
        <ele>36.7</ele>
        <time>2013-12-09T20:08:31Z</time>
      </trkpt>
      <trkpt lat="59.520359" lon="17.59282">
        <ele>36.5</ele>
        <time>2013-12-09T20:08:32Z</time>
      </trkpt>
      <trkpt lat="59.520321" lon="17.592834">
        <ele>36.4</ele>
        <time>2013-12-09T20:08:33Z</time>
      </trkpt>
      <trkpt lat="59.520283" lon="17.592838">
        <ele>36.4</ele>
        <time>2013-12-09T20:08:34Z</time>
      </trkpt>
      <trkpt lat="59.520244" lon="17.592832">
        <ele>36.4</ele>
        <time>2013-12-09T20:08:35Z</time>
      </trkpt>
      <trkpt lat="59.520206" lon="17.592816">
        <ele>36.5</ele>
        <time>2013-12-09T20:08:36Z</time>
      </trkpt>
      <trkpt lat="59.520171" lon="17.592793">
        <ele>36.5</ele>
        <time>2013-12-09T20:08:37Z</time>
      </trkpt>
      <trkpt lat="59.520139" lon="17.59277">
        <ele>36.6</ele>
        <time>2013-12-09T20:08:38Z</time>
      </trkpt>
      <trkpt lat="59.520098" lon="17.592742">
        <ele>36.6</ele>
        <time>2013-12-09T20:08:40Z</time>
      </trkpt>
      <trkpt lat="59.520054" lon="17.592737">
        <ele>36.6</ele>
        <time>2013-12-09T20:08:42Z</time>
      </trkpt>
      <trkpt lat="59.520012" lon="17.592731">
        <ele>36.6</ele>
        <time>2013-12-09T20:08:44Z</time>
      </trkpt>
      <trkpt lat="59.520059" lon="17.59276">
        <ele>36.5</ele>
        <time>2013-12-09T20:08:52Z</time>
      </trkpt>
      <trkpt lat="59.520095" lon="17.59276">
        <ele>36.6</ele>
        <time>2013-12-09T20:08:53Z</time>
      </trkpt>
      <trkpt lat="59.520139" lon="17.592771">
        <ele>36.6</ele>
        <time>2013-12-09T20:08:54Z</time>
      </trkpt>
      <trkpt lat="59.520191" lon="17.592796">
        <ele>36.5</ele>
        <time>2013-12-09T20:08:55Z</time>
      </trkpt>
      <trkpt lat="59.520251" lon="17.592839">
        <ele>36.4</ele>
        <time>2013-12-09T20:08:56Z</time>
      </trkpt>
      <trkpt lat="59.520308" lon="17.592842">
        <ele>36.4</ele>
        <time>2013-12-09T20:08:57Z</time>
      </trkpt>
      <trkpt lat="59.52036" lon="17.592841">
        <ele>36.4</ele>
        <time>2013-12-09T20:08:58Z</time>
      </trkpt>
      <trkpt lat="59.520411" lon="17.5928">
        <ele>36.7</ele>
        <time>2013-12-09T20:08:59Z</time>
      </trkpt>
      <trkpt lat="59.520461" lon="17.592771">
        <ele>36.9</ele>
        <time>2013-12-09T20:09:00Z</time>
      </trkpt>
      <trkpt lat="59.520498" lon="17.592764">
        <ele>37</ele>
        <time>2013-12-09T20:09:01Z</time>
      </trkpt>
      <trkpt lat="59.520546" lon="17.592759">
        <ele>37.1</ele>
        <time>2013-12-09T20:09:02Z</time>
      </trkpt>
      <trkpt lat="59.520584" lon="17.592753">
        <ele>37.1</ele>
        <time>2013-12-09T20:09:03Z</time>
      </trkpt>
      <trkpt lat="59.520631" lon="17.592759">
        <ele>37.2</ele>
        <time>2013-12-09T20:09:04Z</time>
      </trkpt>
      <trkpt lat="59.520665" lon="17.592755">
        <ele>37.2</ele>
        <time>2013-12-09T20:09:05Z</time>
      </trkpt>
      <trkpt lat="59.520707" lon="17.592757">
        <ele>37.2</ele>
        <time>2013-12-09T20:09:06Z</time>
      </trkpt>
      <trkpt lat="59.520756" lon="17.592754">
        <ele>37.3</ele>
        <time>2013-12-09T20:09:07Z</time>
      </trkpt>
      <trkpt lat="59.520794" lon="17.592754">
        <ele>37.3</ele>
        <time>2013-12-09T20:09:08Z</time>
      </trkpt>
      <trkpt lat="59.520841" lon="17.592746">
        <ele>37.4</ele>
        <time>2013-12-09T20:09:09Z</time>
      </trkpt>
      <trkpt lat="59.520885" lon="17.592749">
        <ele>37.5</ele>
        <time>2013-12-09T20:09:10Z</time>
      </trkpt>
      <trkpt lat="59.520923" lon="17.59275">
        <ele>37.5</ele>
        <time>2013-12-09T20:09:11Z</time>
      </trkpt>
      <trkpt lat="59.520962" lon="17.592754">
        <ele>37.5</ele>
        <time>2013-12-09T20:09:12Z</time>
      </trkpt>
      <trkpt lat="59.521005" lon="17.59275">
        <ele>37.6</ele>
        <time>2013-12-09T20:09:13Z</time>
      </trkpt>
      <trkpt lat="59.521051" lon="17.592748">
        <ele>37.6</ele>
        <time>2013-12-09T20:09:14Z</time>
      </trkpt>
      <trkpt lat="59.521089" lon="17.592746">
        <ele>37.7</ele>
        <time>2013-12-09T20:09:15Z</time>
      </trkpt>
      <trkpt lat="59.521121" lon="17.592743">
        <ele>37.7</ele>
        <time>2013-12-09T20:09:16Z</time>
      </trkpt>
      <trkpt lat="59.521158" lon="17.592731">
        <ele>37.8</ele>
        <time>2013-12-09T20:09:17Z</time>
      </trkpt>
      <trkpt lat="59.5212" lon="17.592726">
        <ele>37.9</ele>
        <time>2013-12-09T20:09:18Z</time>
      </trkpt>
      <trkpt lat="59.52124" lon="17.592711">
        <ele>38</ele>
        <time>2013-12-09T20:09:19Z</time>
      </trkpt>
      <trkpt lat="59.52128" lon="17.592697">
        <ele>38</ele>
        <time>2013-12-09T20:09:20Z</time>
      </trkpt>
      <trkpt lat="59.521315" lon="17.592675">
        <ele>38</ele>
        <time>2013-12-09T20:09:21Z</time>
      </trkpt>
      <trkpt lat="59.521346" lon="17.592644">
        <ele>38.1</ele>
        <time>2013-12-09T20:09:22Z</time>
      </trkpt>
      <trkpt lat="59.521376" lon="17.592604">
        <ele>38.2</ele>
        <time>2013-12-09T20:09:23Z</time>
      </trkpt>
      <trkpt lat="59.5214" lon="17.592559">
        <ele>38.4</ele>
        <time>2013-12-09T20:09:24Z</time>
      </trkpt>
      <trkpt lat="59.521421" lon="17.592511">
        <ele>38.5</ele>
        <time>2013-12-09T20:09:25Z</time>
      </trkpt>
      <trkpt lat="59.521442" lon="17.592466">
        <ele>38.7</ele>
        <time>2013-12-09T20:09:26Z</time>
      </trkpt>
      <trkpt lat="59.521464" lon="17.592425">
        <ele>38.8</ele>
        <time>2013-12-09T20:09:27Z</time>
      </trkpt>
      <trkpt lat="59.521488" lon="17.592388">
        <ele>39</ele>
        <time>2013-12-09T20:09:28Z</time>
      </trkpt>
      <trkpt lat="59.521516" lon="17.592359">
        <ele>39</ele>
        <time>2013-12-09T20:09:29Z</time>
      </trkpt>
      <trkpt lat="59.521545" lon="17.592337">
        <ele>39.1</ele>
        <time>2013-12-09T20:09:30Z</time>
      </trkpt>
      <trkpt lat="59.521575" lon="17.592321">
        <ele>39.1</ele>
        <time>2013-12-09T20:09:31Z</time>
      </trkpt>
      <trkpt lat="59.521606" lon="17.592315">
        <ele>39</ele>
        <time>2013-12-09T20:09:32Z</time>
      </trkpt>
      <trkpt lat="59.521639" lon="17.592316">
        <ele>38.9</ele>
        <time>2013-12-09T20:09:33Z</time>
      </trkpt>
      <trkpt lat="59.521675" lon="17.592322">
        <ele>38.8</ele>
        <time>2013-12-09T20:09:34Z</time>
      </trkpt>
      <trkpt lat="59.521712" lon="17.592327">
        <ele>38.7</ele>
        <time>2013-12-09T20:09:35Z</time>
      </trkpt>
      <trkpt lat="59.521747" lon="17.592331">
        <ele>38.6</ele>
        <time>2013-12-09T20:09:36Z</time>
      </trkpt>
      <trkpt lat="59.521781" lon="17.592343">
        <ele>38.5</ele>
        <time>2013-12-09T20:09:37Z</time>
      </trkpt>
      <trkpt lat="59.521812" lon="17.59236">
        <ele>38.3</ele>
        <time>2013-12-09T20:09:38Z</time>
      </trkpt>
      <trkpt lat="59.521841" lon="17.592372">
        <ele>38.2</ele>
        <time>2013-12-09T20:09:40Z</time>
      </trkpt>
      <trkpt lat="59.521808" lon="17.592334">
        <ele>38.5</ele>
        <time>2013-12-09T20:09:44Z</time>
      </trkpt>
      <trkpt lat="59.521753" lon="17.592323">
        <ele>38.6</ele>
        <time>2013-12-09T20:09:46Z</time>
      </trkpt>
      <trkpt lat="59.521722" lon="17.592314">
        <ele>38.8</ele>
        <time>2013-12-09T20:09:47Z</time>
      </trkpt>
      <trkpt lat="59.521689" lon="17.592308">
        <ele>38.9</ele>
        <time>2013-12-09T20:09:48Z</time>
      </trkpt>
      <trkpt lat="59.521656" lon="17.592303">
        <ele>39</ele>
        <time>2013-12-09T20:09:49Z</time>
      </trkpt>
      <trkpt lat="59.521625" lon="17.592303">
        <ele>39</ele>
        <time>2013-12-09T20:09:50Z</time>
      </trkpt>
      <trkpt lat="59.521593" lon="17.592307">
        <ele>39.1</ele>
        <time>2013-12-09T20:09:51Z</time>
      </trkpt>
      <trkpt lat="59.521562" lon="17.592316">
        <ele>39.1</ele>
        <time>2013-12-09T20:09:52Z</time>
      </trkpt>
      <trkpt lat="59.521531" lon="17.592332">
        <ele>39.1</ele>
        <time>2013-12-09T20:09:53Z</time>
      </trkpt>
      <trkpt lat="59.521501" lon="17.592355">
        <ele>39.1</ele>
        <time>2013-12-09T20:09:54Z</time>
      </trkpt>
      <trkpt lat="59.521472" lon="17.592387">
        <ele>39</ele>
        <time>2013-12-09T20:09:55Z</time>
      </trkpt>
      <trkpt lat="59.521445" lon="17.592424">
        <ele>38.9</ele>
        <time>2013-12-09T20:09:56Z</time>
      </trkpt>
      <trkpt lat="59.521419" lon="17.592467">
        <ele>38.8</ele>
        <time>2013-12-09T20:09:57Z</time>
      </trkpt>
      <trkpt lat="59.521395" lon="17.592515">
        <ele>38.6</ele>
        <time>2013-12-09T20:09:58Z</time>
      </trkpt>
      <trkpt lat="59.521363" lon="17.592575">
        <ele>38.4</ele>
        <time>2013-12-09T20:09:59Z</time>
      </trkpt>
      <trkpt lat="59.521331" lon="17.59263">
        <ele>38.2</ele>
        <time>2013-12-09T20:10:00Z</time>
      </trkpt>
      <trkpt lat="59.521296" lon="17.592674">
        <ele>38.1</ele>
        <time>2013-12-09T20:10:01Z</time>
      </trkpt>
      <trkpt lat="59.521255" lon="17.592704">
        <ele>38</ele>
        <time>2013-12-09T20:10:02Z</time>
      </trkpt>
      <trkpt lat="59.521205" lon="17.592694">
        <ele>38</ele>
        <time>2013-12-09T20:10:03Z</time>
      </trkpt>
      <trkpt lat="59.521167" lon="17.592697">
        <ele>38</ele>
        <time>2013-12-09T20:10:04Z</time>
      </trkpt>
      <trkpt lat="59.521128" lon="17.592702">
        <ele>37.9</ele>
        <time>2013-12-09T20:10:05Z</time>
      </trkpt>
      <trkpt lat="59.521091" lon="17.592694">
        <ele>37.9</ele>
        <time>2013-12-09T20:10:06Z</time>
      </trkpt>
      <trkpt lat="59.521052" lon="17.592702">
        <ele>37.9</ele>
        <time>2013-12-09T20:10:07Z</time>
      </trkpt>
      <trkpt lat="59.521011" lon="17.59271">
        <ele>37.8</ele>
        <time>2013-12-09T20:10:08Z</time>
      </trkpt>
      <trkpt lat="59.520972" lon="17.592713">
        <ele>37.7</ele>
        <time>2013-12-09T20:10:09Z</time>
      </trkpt>
      <trkpt lat="59.520936" lon="17.592712">
        <ele>37.7</ele>
        <time>2013-12-09T20:10:10Z</time>
      </trkpt>
      <trkpt lat="59.520899" lon="17.592711">
        <ele>37.7</ele>
        <time>2013-12-09T20:10:11Z</time>
      </trkpt>
      <trkpt lat="59.520864" lon="17.592724">
        <ele>37.6</ele>
        <time>2013-12-09T20:10:12Z</time>
      </trkpt>
      <trkpt lat="59.520828" lon="17.592729">
        <ele>37.5</ele>
        <time>2013-12-09T20:10:13Z</time>
      </trkpt>
      <trkpt lat="59.520791" lon="17.592733">
        <ele>37.5</ele>
        <time>2013-12-09T20:10:14Z</time>
      </trkpt>
      <trkpt lat="59.520754" lon="17.592738">
        <ele>37.4</ele>
        <time>2013-12-09T20:10:15Z</time>
      </trkpt>
      <trkpt lat="59.520717" lon="17.592742">
        <ele>37.3</ele>
        <time>2013-12-09T20:10:16Z</time>
      </trkpt>
      <trkpt lat="59.52068" lon="17.592747">
        <ele>37.3</ele>
        <time>2013-12-09T20:10:17Z</time>
      </trkpt>
      <trkpt lat="59.520643" lon="17.59275">
        <ele>37.2</ele>
        <time>2013-12-09T20:10:18Z</time>
      </trkpt>
      <trkpt lat="59.520607" lon="17.592752">
        <ele>37.2</ele>
        <time>2013-12-09T20:10:19Z</time>
      </trkpt>
      <trkpt lat="59.520572" lon="17.59275">
        <ele>37.1</ele>
        <time>2013-12-09T20:10:20Z</time>
      </trkpt>
      <trkpt lat="59.520537" lon="17.592748">
        <ele>37.1</ele>
        <time>2013-12-09T20:10:21Z</time>
      </trkpt>
      <trkpt lat="59.520502" lon="17.592752">
        <ele>37.1</ele>
        <time>2013-12-09T20:10:22Z</time>
      </trkpt>
      <trkpt lat="59.520468" lon="17.592762">
        <ele>37</ele>
        <time>2013-12-09T20:10:23Z</time>
      </trkpt>
      <trkpt lat="59.520435" lon="17.592778">
        <ele>36.9</ele>
        <time>2013-12-09T20:10:24Z</time>
      </trkpt>
      <trkpt lat="59.520402" lon="17.592796">
        <ele>36.7</ele>
        <time>2013-12-09T20:10:25Z</time>
      </trkpt>
      <trkpt lat="59.520369" lon="17.592814">
        <ele>36.6</ele>
        <time>2013-12-09T20:10:26Z</time>
      </trkpt>
      <trkpt lat="59.520335" lon="17.592829">
        <ele>36.5</ele>
        <time>2013-12-09T20:10:27Z</time>
      </trkpt>
      <trkpt lat="59.520301" lon="17.592837">
        <ele>36.4</ele>
        <time>2013-12-09T20:10:28Z</time>
      </trkpt>
      <trkpt lat="59.520267" lon="17.592837">
        <ele>36.4</ele>
        <time>2013-12-09T20:10:29Z</time>
      </trkpt>
      <trkpt lat="59.520234" lon="17.592824">
        <ele>36.4</ele>
        <time>2013-12-09T20:10:30Z</time>
      </trkpt>
      <trkpt lat="59.520203" lon="17.592804">
        <ele>36.5</ele>
        <time>2013-12-09T20:10:31Z</time>
      </trkpt>
      <trkpt lat="59.520174" lon="17.59278">
        <ele>36.6</ele>
        <time>2013-12-09T20:10:32Z</time>
      </trkpt>
      <trkpt lat="59.520139" lon="17.592754">
        <ele>36.7</ele>
        <time>2013-12-09T20:10:34Z</time>
      </trkpt>
      <trkpt lat="59.520109" lon="17.592739">
        <ele>36.7</ele>
        <time>2013-12-09T20:10:37Z</time>
      </trkpt>
      <trkpt lat="59.520078" lon="17.592736">
        <ele>36.6</ele>
        <time>2013-12-09T20:10:39Z</time>
      </trkpt>
      <trkpt lat="59.520043" lon="17.592731">
        <ele>36.6</ele>
        <time>2013-12-09T20:10:41Z</time>
      </trkpt>
      <trkpt lat="59.520011" lon="17.592729">
        <ele>36.6</ele>
        <time>2013-12-09T20:10:43Z</time>
      </trkpt>
      <trkpt lat="59.520052" lon="17.592754">
        <ele>36.5</ele>
        <time>2013-12-09T20:10:50Z</time>
      </trkpt>
      <trkpt lat="59.520086" lon="17.592755">
        <ele>36.6</ele>
        <time>2013-12-09T20:10:51Z</time>
      </trkpt>
      <trkpt lat="59.520126" lon="17.592764">
        <ele>36.6</ele>
        <time>2013-12-09T20:10:52Z</time>
      </trkpt>
      <trkpt lat="59.520164" lon="17.592788">
        <ele>36.5</ele>
        <time>2013-12-09T20:10:53Z</time>
      </trkpt>
      <trkpt lat="59.520201" lon="17.592829">
        <ele>36.4</ele>
        <time>2013-12-09T20:10:54Z</time>
      </trkpt>
      <trkpt lat="59.520245" lon="17.592865">
        <ele>36.2</ele>
        <time>2013-12-09T20:10:55Z</time>
      </trkpt>
      <trkpt lat="59.52033" lon="17.592847">
        <ele>36.4</ele>
        <time>2013-12-09T20:10:56Z</time>
      </trkpt>
      <trkpt lat="59.520385" lon="17.592828">
        <ele>36.5</ele>
        <time>2013-12-09T20:10:57Z</time>
      </trkpt>
      <trkpt lat="59.520435" lon="17.592785">
        <ele>36.8</ele>
        <time>2013-12-09T20:10:58Z</time>
      </trkpt>
      <trkpt lat="59.520485" lon="17.592768">
        <ele>37</ele>
        <time>2013-12-09T20:10:59Z</time>
      </trkpt>
      <trkpt lat="59.520524" lon="17.592768">
        <ele>37</ele>
        <time>2013-12-09T20:11:00Z</time>
      </trkpt>
      <trkpt lat="59.520571" lon="17.592764">
        <ele>37.1</ele>
        <time>2013-12-09T20:11:01Z</time>
      </trkpt>
      <trkpt lat="59.520614" lon="17.592759">
        <ele>37.1</ele>
        <time>2013-12-09T20:11:02Z</time>
      </trkpt>
      <trkpt lat="59.520669" lon="17.592764">
        <ele>37.2</ele>
        <time>2013-12-09T20:11:03Z</time>
      </trkpt>
      <trkpt lat="59.520704" lon="17.592752">
        <ele>37.3</ele>
        <time>2013-12-09T20:11:04Z</time>
      </trkpt>
      <trkpt lat="59.520753" lon="17.592769">
        <ele>37.2</ele>
        <time>2013-12-09T20:11:05Z</time>
      </trkpt>
      <trkpt lat="59.520792" lon="17.592771">
        <ele>37.2</ele>
        <time>2013-12-09T20:11:06Z</time>
      </trkpt>
      <trkpt lat="59.520838" lon="17.592762">
        <ele>37.3</ele>
        <time>2013-12-09T20:11:07Z</time>
      </trkpt>
      <trkpt lat="59.520883" lon="17.592762">
        <ele>37.4</ele>
        <time>2013-12-09T20:11:08Z</time>
      </trkpt>
      <trkpt lat="59.52093" lon="17.592756">
        <ele>37.5</ele>
        <time>2013-12-09T20:11:09Z</time>
      </trkpt>
      <trkpt lat="59.520965" lon="17.592761">
        <ele>37.5</ele>
        <time>2013-12-09T20:11:10Z</time>
      </trkpt>
      <trkpt lat="59.521015" lon="17.592751">
        <ele>37.6</ele>
        <time>2013-12-09T20:11:11Z</time>
      </trkpt>
      <trkpt lat="59.521063" lon="17.59275">
        <ele>37.6</ele>
        <time>2013-12-09T20:11:12Z</time>
      </trkpt>
      <trkpt lat="59.521094" lon="17.592748">
        <ele>37.7</ele>
        <time>2013-12-09T20:11:13Z</time>
      </trkpt>
      <trkpt lat="59.521125" lon="17.592748">
        <ele>37.7</ele>
        <time>2013-12-09T20:11:14Z</time>
      </trkpt>
      <trkpt lat="59.521164" lon="17.592744">
        <ele>37.7</ele>
        <time>2013-12-09T20:11:15Z</time>
      </trkpt>
      <trkpt lat="59.521204" lon="17.592734">
        <ele>37.8</ele>
        <time>2013-12-09T20:11:16Z</time>
      </trkpt>
      <trkpt lat="59.521244" lon="17.592722">
        <ele>37.9</ele>
        <time>2013-12-09T20:11:17Z</time>
      </trkpt>
      <trkpt lat="59.521283" lon="17.592701">
        <ele>38</ele>
        <time>2013-12-09T20:11:18Z</time>
      </trkpt>
      <trkpt lat="59.521317" lon="17.592669">
        <ele>38</ele>
        <time>2013-12-09T20:11:19Z</time>
      </trkpt>
      <trkpt lat="59.52135" lon="17.592625">
        <ele>38.2</ele>
        <time>2013-12-09T20:11:20Z</time>
      </trkpt>
      <trkpt lat="59.521379" lon="17.592579">
        <ele>38.3</ele>
        <time>2013-12-09T20:11:21Z</time>
      </trkpt>
      <trkpt lat="59.521405" lon="17.592532">
        <ele>38.5</ele>
        <time>2013-12-09T20:11:22Z</time>
      </trkpt>
      <trkpt lat="59.521428" lon="17.592491">
        <ele>38.6</ele>
        <time>2013-12-09T20:11:23Z</time>
      </trkpt>
      <trkpt lat="59.521451" lon="17.592451">
        <ele>38.8</ele>
        <time>2013-12-09T20:11:24Z</time>
      </trkpt>
      <trkpt lat="59.521475" lon="17.592417">
        <ele>38.9</ele>
        <time>2013-12-09T20:11:25Z</time>
      </trkpt>
      <trkpt lat="59.521501" lon="17.59239">
        <ele>38.9</ele>
        <time>2013-12-09T20:11:26Z</time>
      </trkpt>
      <trkpt lat="59.521529" lon="17.592366">
        <ele>39</ele>
        <time>2013-12-09T20:11:27Z</time>
      </trkpt>
      <trkpt lat="59.521559" lon="17.592351">
        <ele>39</ele>
        <time>2013-12-09T20:11:28Z</time>
      </trkpt>
      <trkpt lat="59.52159" lon="17.592343">
        <ele>38.9</ele>
        <time>2013-12-09T20:11:29Z</time>
      </trkpt>
      <trkpt lat="59.521621" lon="17.59234">
        <ele>38.9</ele>
        <time>2013-12-09T20:11:30Z</time>
      </trkpt>
      <trkpt lat="59.521653" lon="17.592341">
        <ele>38.8</ele>
        <time>2013-12-09T20:11:31Z</time>
      </trkpt>
      <trkpt lat="59.521686" lon="17.592344">
        <ele>38.7</ele>
        <time>2013-12-09T20:11:32Z</time>
      </trkpt>
      <trkpt lat="59.521719" lon="17.592348">
        <ele>38.6</ele>
        <time>2013-12-09T20:11:33Z</time>
      </trkpt>
      <trkpt lat="59.521749" lon="17.592353">
        <ele>38.5</ele>
        <time>2013-12-09T20:11:34Z</time>
      </trkpt>
      <trkpt lat="59.521779" lon="17.592365">
        <ele>38.4</ele>
        <time>2013-12-09T20:11:35Z</time>
      </trkpt>
      <trkpt lat="59.521805" lon="17.592382">
        <ele>38.2</ele>
        <time>2013-12-09T20:11:36Z</time>
      </trkpt>
      <trkpt lat="59.521832" lon="17.59239">
        <ele>38.1</ele>
        <time>2013-12-09T20:11:38Z</time>
      </trkpt>
      <trkpt lat="59.52182" lon="17.59234">
        <ele>38.4</ele>
        <time>2013-12-09T20:11:41Z</time>
      </trkpt>
      <trkpt lat="59.521783" lon="17.592334">
        <ele>38.5</ele>
        <time>2013-12-09T20:11:43Z</time>
      </trkpt>
      <trkpt lat="59.521749" lon="17.592322">
        <ele>38.7</ele>
        <time>2013-12-09T20:11:44Z</time>
      </trkpt>
      <trkpt lat="59.521712" lon="17.592311">
        <ele>38.8</ele>
        <time>2013-12-09T20:11:45Z</time>
      </trkpt>
      <trkpt lat="59.521669" lon="17.592302">
        <ele>38.9</ele>
        <time>2013-12-09T20:11:46Z</time>
      </trkpt>
      <trkpt lat="59.521621" lon="17.592299">
        <ele>39.1</ele>
        <time>2013-12-09T20:11:47Z</time>
      </trkpt>
      <trkpt lat="59.521579" lon="17.592303">
        <ele>39.2</ele>
        <time>2013-12-09T20:11:48Z</time>
      </trkpt>
      <trkpt lat="59.521541" lon="17.592315">
        <ele>39.2</ele>
        <time>2013-12-09T20:11:49Z</time>
      </trkpt>
      <trkpt lat="59.521505" lon="17.592339">
        <ele>39.2</ele>
        <time>2013-12-09T20:11:50Z</time>
      </trkpt>
      <trkpt lat="59.521472" lon="17.59237">
        <ele>39.1</ele>
        <time>2013-12-09T20:11:51Z</time>
      </trkpt>
      <trkpt lat="59.52144" lon="17.592413">
        <ele>39</ele>
        <time>2013-12-09T20:11:52Z</time>
      </trkpt>
      <trkpt lat="59.521411" lon="17.592462">
        <ele>38.8</ele>
        <time>2013-12-09T20:11:53Z</time>
      </trkpt>
      <trkpt lat="59.521383" lon="17.592519">
        <ele>38.6</ele>
        <time>2013-12-09T20:11:54Z</time>
      </trkpt>
      <trkpt lat="59.521354" lon="17.592577">
        <ele>38.4</ele>
        <time>2013-12-09T20:11:55Z</time>
      </trkpt>
      <trkpt lat="59.521322" lon="17.592632">
        <ele>38.2</ele>
        <time>2013-12-09T20:11:56Z</time>
      </trkpt>
      <trkpt lat="59.521287" lon="17.59268">
        <ele>38</ele>
        <time>2013-12-09T20:11:57Z</time>
      </trkpt>
      <trkpt lat="59.521246" lon="17.592717">
        <ele>38</ele>
        <time>2013-12-09T20:11:58Z</time>
      </trkpt>
      <trkpt lat="59.521203" lon="17.592738">
        <ele>37.8</ele>
        <time>2013-12-09T20:11:59Z</time>
      </trkpt>
      <trkpt lat="59.521158" lon="17.592745">
        <ele>37.7</ele>
        <time>2013-12-09T20:12:00Z</time>
      </trkpt>
      <trkpt lat="59.521115" lon="17.592752">
        <ele>37.7</ele>
        <time>2013-12-09T20:12:01Z</time>
      </trkpt>
      <trkpt lat="59.521072" lon="17.592756">
        <ele>37.6</ele>
        <time>2013-12-09T20:12:02Z</time>
      </trkpt>
      <trkpt lat="59.521031" lon="17.59276">
        <ele>37.5</ele>
        <time>2013-12-09T20:12:03Z</time>
      </trkpt>
      <trkpt lat="59.520989" lon="17.592765">
        <ele>37.5</ele>
        <time>2013-12-09T20:12:04Z</time>
      </trkpt>
      <trkpt lat="59.520949" lon="17.592769">
        <ele>37.4</ele>
        <time>2013-12-09T20:12:05Z</time>
      </trkpt>
      <trkpt lat="59.520909" lon="17.592773">
        <ele>37.4</ele>
        <time>2013-12-09T20:12:06Z</time>
      </trkpt>
      <trkpt lat="59.520869" lon="17.592774">
        <ele>37.3</ele>
        <time>2013-12-09T20:12:07Z</time>
      </trkpt>
      <trkpt lat="59.520831" lon="17.592773">
        <ele>37.3</ele>
        <time>2013-12-09T20:12:08Z</time>
      </trkpt>
      <trkpt lat="59.520793" lon="17.592771">
        <ele>37.2</ele>
        <time>2013-12-09T20:12:09Z</time>
      </trkpt>
      <trkpt lat="59.520756" lon="17.592771">
        <ele>37.2</ele>
        <time>2013-12-09T20:12:10Z</time>
      </trkpt>
      <trkpt lat="59.52072" lon="17.592772">
        <ele>37.2</ele>
        <time>2013-12-09T20:12:11Z</time>
      </trkpt>
      <trkpt lat="59.520684" lon="17.592774">
        <ele>37.1</ele>
        <time>2013-12-09T20:12:12Z</time>
      </trkpt>
      <trkpt lat="59.520648" lon="17.592778">
        <ele>37.1</ele>
        <time>2013-12-09T20:12:13Z</time>
      </trkpt>
      <trkpt lat="59.520611" lon="17.59278">
        <ele>37</ele>
        <time>2013-12-09T20:12:14Z</time>
      </trkpt>
      <trkpt lat="59.520575" lon="17.592784">
        <ele>37</ele>
        <time>2013-12-09T20:12:15Z</time>
      </trkpt>
      <trkpt lat="59.520537" lon="17.592784">
        <ele>36.9</ele>
        <time>2013-12-09T20:12:16Z</time>
      </trkpt>
      <trkpt lat="59.5205" lon="17.592788">
        <ele>36.9</ele>
        <time>2013-12-09T20:12:17Z</time>
      </trkpt>
      <trkpt lat="59.520462" lon="17.592796">
        <ele>36.8</ele>
        <time>2013-12-09T20:12:18Z</time>
      </trkpt>
      <trkpt lat="59.520425" lon="17.592812">
        <ele>36.6</ele>
        <time>2013-12-09T20:12:19Z</time>
      </trkpt>
      <trkpt lat="59.520388" lon="17.592834">
        <ele>36.5</ele>
        <time>2013-12-09T20:12:20Z</time>
      </trkpt>
      <trkpt lat="59.520352" lon="17.592858">
        <ele>36.3</ele>
        <time>2013-12-09T20:12:21Z</time>
      </trkpt>
      <trkpt lat="59.520317" lon="17.592877">
        <ele>36.2</ele>
        <time>2013-12-09T20:12:22Z</time>
      </trkpt>
      <trkpt lat="59.520264" lon="17.59288">
        <ele>36.2</ele>
        <time>2013-12-09T20:12:24Z</time>
      </trkpt>
      <trkpt lat="59.520236" lon="17.592869">
        <ele>36.2</ele>
        <time>2013-12-09T20:12:25Z</time>
      </trkpt>
      <trkpt lat="59.520208" lon="17.59285">
        <ele>36.3</ele>
        <time>2013-12-09T20:12:26Z</time>
      </trkpt>
      <trkpt lat="59.520181" lon="17.592826">
        <ele>36.4</ele>
        <time>2013-12-09T20:12:27Z</time>
      </trkpt>
      <trkpt lat="59.520156" lon="17.592802">
        <ele>36.5</ele>
        <time>2013-12-09T20:12:28Z</time>
      </trkpt>
      <trkpt lat="59.520108" lon="17.592763">
        <ele>36.6</ele>
        <time>2013-12-09T20:12:30Z</time>
      </trkpt>
      <trkpt lat="59.520075" lon="17.592743">
        <ele>36.6</ele>
        <time>2013-12-09T20:12:32Z</time>
      </trkpt>
      <trkpt lat="59.520041" lon="17.592739">
        <ele>36.6</ele>
        <time>2013-12-09T20:12:34Z</time>
      </trkpt>
      <trkpt lat="59.520009" lon="17.592736">
        <ele>36.6</ele>
        <time>2013-12-09T20:12:36Z</time>
      </trkpt>
      <trkpt lat="59.520051" lon="17.592764">
        <ele>36.5</ele>
        <time>2013-12-09T20:12:45Z</time>
      </trkpt>
      <trkpt lat="59.520079" lon="17.592762">
        <ele>36.6</ele>
        <time>2013-12-09T20:12:46Z</time>
      </trkpt>
      <trkpt lat="59.520114" lon="17.592764">
        <ele>36.6</ele>
        <time>2013-12-09T20:12:47Z</time>
      </trkpt>
      <trkpt lat="59.520154" lon="17.592777">
        <ele>36.6</ele>
        <time>2013-12-09T20:12:48Z</time>
      </trkpt>
      <trkpt lat="59.520207" lon="17.592806">
        <ele>36.5</ele>
        <time>2013-12-09T20:12:49Z</time>
      </trkpt>
      <trkpt lat="59.520261" lon="17.592865">
        <ele>36.3</ele>
        <time>2013-12-09T20:12:50Z</time>
      </trkpt>
      <trkpt lat="59.520306" lon="17.59288">
        <ele>36.2</ele>
        <time>2013-12-09T20:12:51Z</time>
      </trkpt>
      <trkpt lat="59.520357" lon="17.592868">
        <ele>36.3</ele>
        <time>2013-12-09T20:12:52Z</time>
      </trkpt>
      <trkpt lat="59.520401" lon="17.592842">
        <ele>36.4</ele>
        <time>2013-12-09T20:12:53Z</time>
      </trkpt>
      <trkpt lat="59.520446" lon="17.592814">
        <ele>36.6</ele>
        <time>2013-12-09T20:12:54Z</time>
      </trkpt>
      <trkpt lat="59.520493" lon="17.592793">
        <ele>36.8</ele>
        <time>2013-12-09T20:12:55Z</time>
      </trkpt>
      <trkpt lat="59.520543" lon="17.592792">
        <ele>36.9</ele>
        <time>2013-12-09T20:12:56Z</time>
      </trkpt>
      <trkpt lat="59.520584" lon="17.592792">
        <ele>36.9</ele>
        <time>2013-12-09T20:12:57Z</time>
      </trkpt>
      <trkpt lat="59.520628" lon="17.592793">
        <ele>37</ele>
        <time>2013-12-09T20:12:58Z</time>
      </trkpt>
      <trkpt lat="59.520673" lon="17.592783">
        <ele>37.1</ele>
        <time>2013-12-09T20:12:59Z</time>
      </trkpt>
      <trkpt lat="59.520714" lon="17.59277">
        <ele>37.2</ele>
        <time>2013-12-09T20:13:00Z</time>
      </trkpt>
      <trkpt lat="59.520774" lon="17.592764">
        <ele>37.3</ele>
        <time>2013-12-09T20:13:01Z</time>
      </trkpt>
      <trkpt lat="59.520819" lon="17.592761">
        <ele>37.3</ele>
        <time>2013-12-09T20:13:02Z</time>
      </trkpt>
      <trkpt lat="59.520856" lon="17.592757">
        <ele>37.4</ele>
        <time>2013-12-09T20:13:03Z</time>
      </trkpt>
      <trkpt lat="59.5209" lon="17.59275">
        <ele>37.5</ele>
        <time>2013-12-09T20:13:04Z</time>
      </trkpt>
      <trkpt lat="59.520943" lon="17.592748">
        <ele>37.5</ele>
        <time>2013-12-09T20:13:05Z</time>
      </trkpt>
      <trkpt lat="59.520971" lon="17.592746">
        <ele>37.6</ele>
        <time>2013-12-09T20:13:06Z</time>
      </trkpt>
      <trkpt lat="59.521006" lon="17.592745">
        <ele>37.6</ele>
        <time>2013-12-09T20:13:07Z</time>
      </trkpt>
      <trkpt lat="59.521054" lon="17.59273">
        <ele>37.7</ele>
        <time>2013-12-09T20:13:08Z</time>
      </trkpt>
      <trkpt lat="59.521092" lon="17.59272">
        <ele>37.8</ele>
        <time>2013-12-09T20:13:09Z</time>
      </trkpt>
      <trkpt lat="59.52113" lon="17.592721">
        <ele>37.8</ele>
        <time>2013-12-09T20:13:10Z</time>
      </trkpt>
      <trkpt lat="59.521169" lon="17.592711">
        <ele>37.9</ele>
        <time>2013-12-09T20:13:11Z</time>
      </trkpt>
      <trkpt lat="59.521209" lon="17.592703">
        <ele>38</ele>
        <time>2013-12-09T20:13:12Z</time>
      </trkpt>
      <trkpt lat="59.521248" lon="17.592695">
        <ele>38.1</ele>
        <time>2013-12-09T20:13:13Z</time>
      </trkpt>
      <trkpt lat="59.521289" lon="17.592682">
        <ele>38</ele>
        <time>2013-12-09T20:13:14Z</time>
      </trkpt>
      <trkpt lat="59.521327" lon="17.592663">
        <ele>38</ele>
        <time>2013-12-09T20:13:15Z</time>
      </trkpt>
      <trkpt lat="59.521361" lon="17.592631">
        <ele>38.1</ele>
        <time>2013-12-09T20:13:16Z</time>
      </trkpt>
      <trkpt lat="59.521388" lon="17.592591">
        <ele>38.2</ele>
        <time>2013-12-09T20:13:17Z</time>
      </trkpt>
      <trkpt lat="59.521409" lon="17.592544">
        <ele>38.4</ele>
        <time>2013-12-09T20:13:18Z</time>
      </trkpt>
      <trkpt lat="59.521428" lon="17.592501">
        <ele>38.6</ele>
        <time>2013-12-09T20:13:19Z</time>
      </trkpt>
      <trkpt lat="59.521461" lon="17.592421">
        <ele>38.9</ele>
        <time>2013-12-09T20:13:21Z</time>
      </trkpt>
      <trkpt lat="59.521502" lon="17.592357">
        <ele>39.1</ele>
        <time>2013-12-09T20:13:23Z</time>
      </trkpt>
      <trkpt lat="59.521527" lon="17.592332">
        <ele>39.1</ele>
        <time>2013-12-09T20:13:24Z</time>
      </trkpt>
      <trkpt lat="59.521554" lon="17.592312">
        <ele>39.2</ele>
        <time>2013-12-09T20:13:25Z</time>
      </trkpt>
      <trkpt lat="59.521583" lon="17.592301">
        <ele>39.2</ele>
        <time>2013-12-09T20:13:26Z</time>
      </trkpt>
      <trkpt lat="59.521614" lon="17.592295">
        <ele>39.1</ele>
        <time>2013-12-09T20:13:27Z</time>
      </trkpt>
      <trkpt lat="59.521645" lon="17.592296">
        <ele>39</ele>
        <time>2013-12-09T20:13:28Z</time>
      </trkpt>
      <trkpt lat="59.521676" lon="17.592298">
        <ele>38.9</ele>
        <time>2013-12-09T20:13:29Z</time>
      </trkpt>
      <trkpt lat="59.521706" lon="17.592302">
        <ele>38.9</ele>
        <time>2013-12-09T20:13:30Z</time>
      </trkpt>
      <trkpt lat="59.521737" lon="17.592306">
        <ele>38.8</ele>
        <time>2013-12-09T20:13:31Z</time>
      </trkpt>
      <trkpt lat="59.521768" lon="17.592311">
        <ele>38.7</ele>
        <time>2013-12-09T20:13:32Z</time>
      </trkpt>
      <trkpt lat="59.521797" lon="17.592321">
        <ele>38.5</ele>
        <time>2013-12-09T20:13:33Z</time>
      </trkpt>
      <trkpt lat="59.521823" lon="17.592337">
        <ele>38.4</ele>
        <time>2013-12-09T20:13:34Z</time>
      </trkpt>
      <trkpt lat="59.521851" lon="17.592341">
        <ele>38.3</ele>
        <time>2013-12-09T20:13:37Z</time>
      </trkpt>
      <trkpt lat="59.521817" lon="17.592305">
        <ele>38.6</ele>
        <time>2013-12-09T20:13:42Z</time>
      </trkpt>
      <trkpt lat="59.521786" lon="17.592299">
        <ele>38.7</ele>
        <time>2013-12-09T20:13:43Z</time>
      </trkpt>
      <trkpt lat="59.521749" lon="17.592292">
        <ele>38.8</ele>
        <time>2013-12-09T20:13:44Z</time>
      </trkpt>
      <trkpt lat="59.521709" lon="17.59229">
        <ele>38.9</ele>
        <time>2013-12-09T20:13:45Z</time>
      </trkpt>
      <trkpt lat="59.521669" lon="17.592291">
        <ele>39</ele>
        <time>2013-12-09T20:13:46Z</time>
      </trkpt>
      <trkpt lat="59.521634" lon="17.59229">
        <ele>39.1</ele>
        <time>2013-12-09T20:13:47Z</time>
      </trkpt>
      <trkpt lat="59.521599" lon="17.592291">
        <ele>39.2</ele>
        <time>2013-12-09T20:13:48Z</time>
      </trkpt>
      <trkpt lat="59.521564" lon="17.592297">
        <ele>39.2</ele>
        <time>2013-12-09T20:13:49Z</time>
      </trkpt>
      <trkpt lat="59.52153" lon="17.592312">
        <ele>39.2</ele>
        <time>2013-12-09T20:13:50Z</time>
      </trkpt>
      <trkpt lat="59.521498" lon="17.592336">
        <ele>39.2</ele>
        <time>2013-12-09T20:13:51Z</time>
      </trkpt>
      <trkpt lat="59.521468" lon="17.592369">
        <ele>39.1</ele>
        <time>2013-12-09T20:13:52Z</time>
      </trkpt>
      <trkpt lat="59.521441" lon="17.592409">
        <ele>39</ele>
        <time>2013-12-09T20:13:53Z</time>
      </trkpt>
      <trkpt lat="59.521416" lon="17.592453">
        <ele>38.8</ele>
        <time>2013-12-09T20:13:54Z</time>
      </trkpt>
      <trkpt lat="59.521391" lon="17.592501">
        <ele>38.7</ele>
        <time>2013-12-09T20:13:55Z</time>
      </trkpt>
      <trkpt lat="59.521365" lon="17.59255">
        <ele>38.5</ele>
        <time>2013-12-09T20:13:56Z</time>
      </trkpt>
      <trkpt lat="59.521331" lon="17.592603">
        <ele>38.3</ele>
        <time>2013-12-09T20:13:57Z</time>
      </trkpt>
      <trkpt lat="59.521297" lon="17.592644">
        <ele>38.2</ele>
        <time>2013-12-09T20:13:58Z</time>
      </trkpt>
      <trkpt lat="59.521258" lon="17.59267">
        <ele>38.2</ele>
        <time>2013-12-09T20:13:59Z</time>
      </trkpt>
      <trkpt lat="59.521217" lon="17.592682">
        <ele>38.1</ele>
        <time>2013-12-09T20:14:00Z</time>
      </trkpt>
      <trkpt lat="59.521176" lon="17.592686">
        <ele>38</ele>
        <time>2013-12-09T20:14:01Z</time>
      </trkpt>
      <trkpt lat="59.521137" lon="17.592688">
        <ele>38</ele>
        <time>2013-12-09T20:14:02Z</time>
      </trkpt>
      <trkpt lat="59.521098" lon="17.59269">
        <ele>38</ele>
        <time>2013-12-09T20:14:03Z</time>
      </trkpt>
      <trkpt lat="59.521059" lon="17.592694">
        <ele>37.9</ele>
        <time>2013-12-09T20:14:04Z</time>
      </trkpt>
      <trkpt lat="59.521022" lon="17.592697">
        <ele>37.9</ele>
        <time>2013-12-09T20:14:05Z</time>
      </trkpt>
      <trkpt lat="59.520985" lon="17.592701">
        <ele>37.8</ele>
        <time>2013-12-09T20:14:06Z</time>
      </trkpt>
      <trkpt lat="59.520949" lon="17.592704">
        <ele>37.8</ele>
        <time>2013-12-09T20:14:07Z</time>
      </trkpt>
      <trkpt lat="59.520913" lon="17.592707">
        <ele>37.7</ele>
        <time>2013-12-09T20:14:08Z</time>
      </trkpt>
      <trkpt lat="59.520877" lon="17.592712">
        <ele>37.6</ele>
        <time>2013-12-09T20:14:09Z</time>
      </trkpt>
      <trkpt lat="59.520842" lon="17.592716">
        <ele>37.6</ele>
        <time>2013-12-09T20:14:10Z</time>
      </trkpt>
      <trkpt lat="59.520808" lon="17.59272">
        <ele>37.5</ele>
        <time>2013-12-09T20:14:11Z</time>
      </trkpt>
      <trkpt lat="59.520779" lon="17.59272">
        <ele>37.5</ele>
        <time>2013-12-09T20:14:12Z</time>
      </trkpt>
      <trkpt lat="59.520748" lon="17.592722">
        <ele>37.5</ele>
        <time>2013-12-09T20:14:13Z</time>
      </trkpt>
      <trkpt lat="59.520715" lon="17.592722">
        <ele>37.4</ele>
        <time>2013-12-09T20:14:14Z</time>
      </trkpt>
      <trkpt lat="59.520682" lon="17.592726">
        <ele>37.4</ele>
        <time>2013-12-09T20:14:15Z</time>
      </trkpt>
      <trkpt lat="59.52065" lon="17.59273">
        <ele>37.3</ele>
        <time>2013-12-09T20:14:16Z</time>
      </trkpt>
      <trkpt lat="59.520618" lon="17.592736">
        <ele>37.3</ele>
        <time>2013-12-09T20:14:17Z</time>
      </trkpt>
      <trkpt lat="59.520586" lon="17.592741">
        <ele>37.2</ele>
        <time>2013-12-09T20:14:18Z</time>
      </trkpt>
      <trkpt lat="59.520554" lon="17.592743">
        <ele>37.2</ele>
        <time>2013-12-09T20:14:19Z</time>
      </trkpt>
      <trkpt lat="59.520521" lon="17.592744">
        <ele>37.1</ele>
        <time>2013-12-09T20:14:20Z</time>
      </trkpt>
      <trkpt lat="59.520489" lon="17.592749">
        <ele>37.1</ele>
        <time>2013-12-09T20:14:21Z</time>
      </trkpt>
      <trkpt lat="59.520457" lon="17.592764">
        <ele>37</ele>
        <time>2013-12-09T20:14:22Z</time>
      </trkpt>
      <trkpt lat="59.520424" lon="17.592786">
        <ele>36.8</ele>
        <time>2013-12-09T20:14:23Z</time>
      </trkpt>
      <trkpt lat="59.520391" lon="17.59281">
        <ele>36.6</ele>
        <time>2013-12-09T20:14:24Z</time>
      </trkpt>
      <trkpt lat="59.520356" lon="17.592828">
        <ele>36.5</ele>
        <time>2013-12-09T20:14:25Z</time>
      </trkpt>
      <trkpt lat="59.520321" lon="17.592837">
        <ele>36.4</ele>
        <time>2013-12-09T20:14:26Z</time>
      </trkpt>
      <trkpt lat="59.520286" lon="17.592838">
        <ele>36.4</ele>
        <time>2013-12-09T20:14:27Z</time>
      </trkpt>
      <trkpt lat="59.520252" lon="17.592829">
        <ele>36.4</ele>
        <time>2013-12-09T20:14:28Z</time>
      </trkpt>
      <trkpt lat="59.520218" lon="17.592814">
        <ele>36.5</ele>
        <time>2013-12-09T20:14:29Z</time>
      </trkpt>
      <trkpt lat="59.520186" lon="17.59279">
        <ele>36.5</ele>
        <time>2013-12-09T20:14:30Z</time>
      </trkpt>
      <trkpt lat="59.520156" lon="17.592765">
        <ele>36.6</ele>
        <time>2013-12-09T20:14:31Z</time>
      </trkpt>
      <trkpt lat="59.520114" lon="17.592736">
        <ele>36.7</ele>
        <time>2013-12-09T20:14:33Z</time>
      </trkpt>
      <trkpt lat="59.520071" lon="17.592723">
        <ele>36.7</ele>
        <time>2013-12-09T20:14:35Z</time>
      </trkpt>
      <trkpt lat="59.520028" lon="17.59272">
        <ele>36.6</ele>
        <time>2013-12-09T20:14:37Z</time>
      </trkpt>
      <trkpt lat="59.519994" lon="17.592728">
        <ele>36.6</ele>
        <time>2013-12-09T20:14:39Z</time>
      </trkpt>
      <trkpt lat="59.520021" lon="17.592756">
        <ele>36.5</ele>
        <time>2013-12-09T20:14:45Z</time>
      </trkpt>
      <trkpt lat="59.520067" lon="17.592753">
        <ele>36.6</ele>
        <time>2013-12-09T20:14:47Z</time>
      </trkpt>
      <trkpt lat="59.520102" lon="17.59276">
        <ele>36.6</ele>
        <time>2013-12-09T20:14:48Z</time>
      </trkpt>
      <trkpt lat="59.520143" lon="17.592779">
        <ele>36.6</ele>
        <time>2013-12-09T20:14:49Z</time>
      </trkpt>
      <trkpt lat="59.520192" lon="17.592813">
        <ele>36.5</ele>
        <time>2013-12-09T20:14:50Z</time>
      </trkpt>
      <trkpt lat="59.520263" lon="17.592864">
        <ele>36.3</ele>
        <time>2013-12-09T20:14:51Z</time>
      </trkpt>
      <trkpt lat="59.520314" lon="17.592864">
        <ele>36.3</ele>
        <time>2013-12-09T20:14:52Z</time>
      </trkpt>
      <trkpt lat="59.520363" lon="17.592848">
        <ele>36.4</ele>
        <time>2013-12-09T20:14:53Z</time>
      </trkpt>
      <trkpt lat="59.520417" lon="17.592809">
        <ele>36.6</ele>
        <time>2013-12-09T20:14:54Z</time>
      </trkpt>
      <trkpt lat="59.520468" lon="17.592784">
        <ele>36.8</ele>
        <time>2013-12-09T20:14:55Z</time>
      </trkpt>
      <trkpt lat="59.520516" lon="17.592778">
        <ele>36.9</ele>
        <time>2013-12-09T20:14:56Z</time>
      </trkpt>
      <trkpt lat="59.520567" lon="17.592784">
        <ele>36.9</ele>
        <time>2013-12-09T20:14:57Z</time>
      </trkpt>
      <trkpt lat="59.520609" lon="17.592778">
        <ele>37</ele>
        <time>2013-12-09T20:14:58Z</time>
      </trkpt>
      <trkpt lat="59.52066" lon="17.592772">
        <ele>37.1</ele>
        <time>2013-12-09T20:14:59Z</time>
      </trkpt>
      <trkpt lat="59.520705" lon="17.592777">
        <ele>37.1</ele>
        <time>2013-12-09T20:15:00Z</time>
      </trkpt>
      <trkpt lat="59.520747" lon="17.592773">
        <ele>37.2</ele>
        <time>2013-12-09T20:15:01Z</time>
      </trkpt>
      <trkpt lat="59.520801" lon="17.592754">
        <ele>37.3</ele>
        <time>2013-12-09T20:15:02Z</time>
      </trkpt>
      <trkpt lat="59.520843" lon="17.592741">
        <ele>37.5</ele>
        <time>2013-12-09T20:15:03Z</time>
      </trkpt>
      <trkpt lat="59.520908" lon="17.592738">
        <ele>37.5</ele>
        <time>2013-12-09T20:15:04Z</time>
      </trkpt>
      <trkpt lat="59.520949" lon="17.592729">
        <ele>37.6</ele>
        <time>2013-12-09T20:15:05Z</time>
      </trkpt>
      <trkpt lat="59.52099" lon="17.59272">
        <ele>37.7</ele>
        <time>2013-12-09T20:15:06Z</time>
      </trkpt>
      <trkpt lat="59.521033" lon="17.592716">
        <ele>37.8</ele>
        <time>2013-12-09T20:15:07Z</time>
      </trkpt>
      <trkpt lat="59.521084" lon="17.5927">
        <ele>37.9</ele>
        <time>2013-12-09T20:15:08Z</time>
      </trkpt>
      <trkpt lat="59.521124" lon="17.592692">
        <ele>38</ele>
        <time>2013-12-09T20:15:09Z</time>
      </trkpt>
      <trkpt lat="59.521163" lon="17.592692">
        <ele>38</ele>
        <time>2013-12-09T20:15:10Z</time>
      </trkpt>
      <trkpt lat="59.521209" lon="17.59269">
        <ele>38.1</ele>
        <time>2013-12-09T20:15:11Z</time>
      </trkpt>
      <trkpt lat="59.52124" lon="17.592682">
        <ele>38.1</ele>
        <time>2013-12-09T20:15:12Z</time>
      </trkpt>
      <trkpt lat="59.521274" lon="17.592671">
        <ele>38.1</ele>
        <time>2013-12-09T20:15:13Z</time>
      </trkpt>
      <trkpt lat="59.521306" lon="17.59264">
        <ele>38.2</ele>
        <time>2013-12-09T20:15:14Z</time>
      </trkpt>
      <trkpt lat="59.521338" lon="17.592601">
        <ele>38.3</ele>
        <time>2013-12-09T20:15:15Z</time>
      </trkpt>
      <trkpt lat="59.521365" lon="17.592555">
        <ele>38.5</ele>
        <time>2013-12-09T20:15:16Z</time>
      </trkpt>
      <trkpt lat="59.521385" lon="17.592513">
        <ele>38.6</ele>
        <time>2013-12-09T20:15:17Z</time>
      </trkpt>
      <trkpt lat="59.521408" lon="17.592463">
        <ele>38.8</ele>
        <time>2013-12-09T20:15:18Z</time>
      </trkpt>
      <trkpt lat="59.52143" lon="17.592422">
        <ele>38.9</ele>
        <time>2013-12-09T20:15:19Z</time>
      </trkpt>
      <trkpt lat="59.521452" lon="17.592389">
        <ele>39</ele>
        <time>2013-12-09T20:15:20Z</time>
      </trkpt>
      <trkpt lat="59.5215" lon="17.592331">
        <ele>39.2</ele>
        <time>2013-12-09T20:15:22Z</time>
      </trkpt>
      <trkpt lat="59.521528" lon="17.592312">
        <ele>39.2</ele>
        <time>2013-12-09T20:15:23Z</time>
      </trkpt>
      <trkpt lat="59.521557" lon="17.592297">
        <ele>39.2</ele>
        <time>2013-12-09T20:15:24Z</time>
      </trkpt>
      <trkpt lat="59.52159" lon="17.592288">
        <ele>39.2</ele>
        <time>2013-12-09T20:15:25Z</time>
      </trkpt>
      <trkpt lat="59.521621" lon="17.592283">
        <ele>39.2</ele>
        <time>2013-12-09T20:15:26Z</time>
      </trkpt>
      <trkpt lat="59.521652" lon="17.592283">
        <ele>39.1</ele>
        <time>2013-12-09T20:15:27Z</time>
      </trkpt>
      <trkpt lat="59.521683" lon="17.592286">
        <ele>39</ele>
        <time>2013-12-09T20:15:28Z</time>
      </trkpt>
      <trkpt lat="59.521714" lon="17.592289">
        <ele>38.9</ele>
        <time>2013-12-09T20:15:29Z</time>
      </trkpt>
      <trkpt lat="59.521744" lon="17.592291">
        <ele>38.8</ele>
        <time>2013-12-09T20:15:30Z</time>
      </trkpt>
      <trkpt lat="59.521772" lon="17.592296">
        <ele>38.7</ele>
        <time>2013-12-09T20:15:31Z</time>
      </trkpt>
      <trkpt lat="59.521799" lon="17.592309">
        <ele>38.6</ele>
        <time>2013-12-09T20:15:32Z</time>
      </trkpt>
      <trkpt lat="59.521826" lon="17.592341">
        <ele>38.4</ele>
        <time>2013-12-09T20:15:34Z</time>
      </trkpt>
      <trkpt lat="59.521786" lon="17.592299">
        <ele>38.7</ele>
        <time>2013-12-09T20:15:42Z</time>
      </trkpt>
      <trkpt lat="59.521759" lon="17.592289">
        <ele>38.8</ele>
        <time>2013-12-09T20:15:43Z</time>
      </trkpt>
      <trkpt lat="59.521729" lon="17.592282">
        <ele>38.9</ele>
        <time>2013-12-09T20:15:44Z</time>
      </trkpt>
      <trkpt lat="59.521697" lon="17.59228">
        <ele>39</ele>
        <time>2013-12-09T20:15:45Z</time>
      </trkpt>
      <trkpt lat="59.521664" lon="17.592281">
        <ele>39.1</ele>
        <time>2013-12-09T20:15:46Z</time>
      </trkpt>
      <trkpt lat="59.521634" lon="17.592285">
        <ele>39.1</ele>
        <time>2013-12-09T20:15:47Z</time>
      </trkpt>
      <trkpt lat="59.521605" lon="17.59229">
        <ele>39.2</ele>
        <time>2013-12-09T20:15:48Z</time>
      </trkpt>
      <trkpt lat="59.521566" lon="17.592303">
        <ele>39.2</ele>
        <time>2013-12-09T20:15:50Z</time>
      </trkpt>
      <trkpt lat="59.521608" lon="17.592291">
        <ele>39.1</ele>
        <time>2013-12-09T20:15:58Z</time>
      </trkpt>
      <trkpt lat="59.521643" lon="17.592287">
        <ele>39.1</ele>
        <time>2013-12-09T20:16:00Z</time>
      </trkpt>
      <trkpt lat="59.521678" lon="17.592286">
        <ele>39</ele>
        <time>2013-12-09T20:16:02Z</time>
      </trkpt>
      <trkpt lat="59.521706" lon="17.59229">
        <ele>38.9</ele>
        <time>2013-12-09T20:16:04Z</time>
      </trkpt>
      <trkpt lat="59.521665" lon="17.592287">
        <ele>39</ele>
        <time>2013-12-09T20:16:12Z</time>
      </trkpt>
      <trkpt lat="59.521613" lon="17.592284">
        <ele>39.2</ele>
        <time>2013-12-09T20:16:14Z</time>
      </trkpt>
      <trkpt lat="59.521585" lon="17.592289">
        <ele>39.2</ele>
        <time>2013-12-09T20:16:15Z</time>
      </trkpt>
      <trkpt lat="59.521548" lon="17.592305">
        <ele>39.2</ele>
        <time>2013-12-09T20:16:16Z</time>
      </trkpt>
      <trkpt lat="59.521515" lon="17.592327">
        <ele>39.2</ele>
        <time>2013-12-09T20:16:17Z</time>
      </trkpt>
      <trkpt lat="59.521482" lon="17.592358">
        <ele>39.1</ele>
        <time>2013-12-09T20:16:18Z</time>
      </trkpt>
      <trkpt lat="59.521451" lon="17.592398">
        <ele>39</ele>
        <time>2013-12-09T20:16:19Z</time>
      </trkpt>
      <trkpt lat="59.521422" lon="17.592442">
        <ele>38.9</ele>
        <time>2013-12-09T20:16:20Z</time>
      </trkpt>
      <trkpt lat="59.521395" lon="17.592493">
        <ele>38.7</ele>
        <time>2013-12-09T20:16:21Z</time>
      </trkpt>
      <trkpt lat="59.521367" lon="17.592545">
        <ele>38.5</ele>
        <time>2013-12-09T20:16:22Z</time>
      </trkpt>
      <trkpt lat="59.521334" lon="17.592596">
        <ele>38.3</ele>
        <time>2013-12-09T20:16:23Z</time>
      </trkpt>
      <trkpt lat="59.521297" lon="17.592638">
        <ele>38.2</ele>
        <time>2013-12-09T20:16:24Z</time>
      </trkpt>
      <trkpt lat="59.521257" lon="17.592664">
        <ele>38.2</ele>
        <time>2013-12-09T20:16:25Z</time>
      </trkpt>
      <trkpt lat="59.521216" lon="17.592678">
        <ele>38.1</ele>
        <time>2013-12-09T20:16:26Z</time>
      </trkpt>
      <trkpt lat="59.521173" lon="17.592683">
        <ele>38.1</ele>
        <time>2013-12-09T20:16:27Z</time>
      </trkpt>
      <trkpt lat="59.521132" lon="17.592685">
        <ele>38</ele>
        <time>2013-12-09T20:16:28Z</time>
      </trkpt>
      <trkpt lat="59.521091" lon="17.592686">
        <ele>38</ele>
        <time>2013-12-09T20:16:29Z</time>
      </trkpt>
      <trkpt lat="59.52105" lon="17.592687">
        <ele>37.9</ele>
        <time>2013-12-09T20:16:30Z</time>
      </trkpt>
      <trkpt lat="59.52101" lon="17.592685">
        <ele>37.9</ele>
        <time>2013-12-09T20:16:31Z</time>
      </trkpt>
      <trkpt lat="59.520971" lon="17.592682">
        <ele>37.9</ele>
        <time>2013-12-09T20:16:32Z</time>
      </trkpt>
      <trkpt lat="59.520933" lon="17.592678">
        <ele>37.9</ele>
        <time>2013-12-09T20:16:33Z</time>
      </trkpt>
      <trkpt lat="59.520898" lon="17.592676">
        <ele>37.9</ele>
        <time>2013-12-09T20:16:34Z</time>
      </trkpt>
      <trkpt lat="59.520862" lon="17.592678">
        <ele>37.8</ele>
        <time>2013-12-09T20:16:35Z</time>
      </trkpt>
      <trkpt lat="59.520829" lon="17.592683">
        <ele>37.8</ele>
        <time>2013-12-09T20:16:36Z</time>
      </trkpt>
      <trkpt lat="59.520796" lon="17.592689">
        <ele>37.7</ele>
        <time>2013-12-09T20:16:37Z</time>
      </trkpt>
      <trkpt lat="59.520763" lon="17.592696">
        <ele>37.6</ele>
        <time>2013-12-09T20:16:38Z</time>
      </trkpt>
      <trkpt lat="59.520731" lon="17.592705">
        <ele>37.6</ele>
        <time>2013-12-09T20:16:39Z</time>
      </trkpt>
      <trkpt lat="59.5207" lon="17.592712">
        <ele>37.5</ele>
        <time>2013-12-09T20:16:40Z</time>
      </trkpt>
      <trkpt lat="59.520668" lon="17.59272">
        <ele>37.4</ele>
        <time>2013-12-09T20:16:41Z</time>
      </trkpt>
      <trkpt lat="59.520636" lon="17.592726">
        <ele>37.3</ele>
        <time>2013-12-09T20:16:42Z</time>
      </trkpt>
      <trkpt lat="59.520604" lon="17.592727">
        <ele>37.3</ele>
        <time>2013-12-09T20:16:43Z</time>
      </trkpt>
      <trkpt lat="59.520571" lon="17.592725">
        <ele>37.3</ele>
        <time>2013-12-09T20:16:44Z</time>
      </trkpt>
      <trkpt lat="59.520537" lon="17.592723">
        <ele>37.3</ele>
        <time>2013-12-09T20:16:45Z</time>
      </trkpt>
      <trkpt lat="59.520504" lon="17.592726">
        <ele>37.2</ele>
        <time>2013-12-09T20:16:46Z</time>
      </trkpt>
      <trkpt lat="59.52047" lon="17.592736">
        <ele>37.1</ele>
        <time>2013-12-09T20:16:47Z</time>
      </trkpt>
      <trkpt lat="59.520435" lon="17.592757">
        <ele>37</ele>
        <time>2013-12-09T20:16:48Z</time>
      </trkpt>
      <trkpt lat="59.520397" lon="17.592785">
        <ele>36.8</ele>
        <time>2013-12-09T20:16:49Z</time>
      </trkpt>
      <trkpt lat="59.520358" lon="17.592811">
        <ele>36.6</ele>
        <time>2013-12-09T20:16:50Z</time>
      </trkpt>
      <trkpt lat="59.520318" lon="17.592832">
        <ele>36.4</ele>
        <time>2013-12-09T20:16:51Z</time>
      </trkpt>
      <trkpt lat="59.520278" lon="17.592841">
        <ele>36.4</ele>
        <time>2013-12-09T20:16:52Z</time>
      </trkpt>
      <trkpt lat="59.520236" lon="17.592837">
        <ele>36.4</ele>
        <time>2013-12-09T20:16:53Z</time>
      </trkpt>
      <trkpt lat="59.520196" lon="17.592819">
        <ele>36.4</ele>
        <time>2013-12-09T20:16:54Z</time>
      </trkpt>
      <trkpt lat="59.52016" lon="17.592794">
        <ele>36.5</ele>
        <time>2013-12-09T20:16:55Z</time>
      </trkpt>
      <trkpt lat="59.520127" lon="17.592768">
        <ele>36.6</ele>
        <time>2013-12-09T20:16:56Z</time>
      </trkpt>
      <trkpt lat="59.520093" lon="17.592744">
        <ele>36.6</ele>
        <time>2013-12-09T20:16:58Z</time>
      </trkpt>
      <trkpt lat="59.520055" lon="17.592735">
        <ele>36.6</ele>
        <time>2013-12-09T20:17:00Z</time>
      </trkpt>
      <trkpt lat="59.520019" lon="17.592727">
        <ele>36.6</ele>
        <time>2013-12-09T20:17:02Z</time>
      </trkpt>
      <trkpt lat="59.520053" lon="17.592753">
        <ele>36.6</ele>
        <time>2013-12-09T20:17:12Z</time>
      </trkpt>
      <trkpt lat="59.520084" lon="17.592753">
        <ele>36.6</ele>
        <time>2013-12-09T20:17:13Z</time>
      </trkpt>
      <trkpt lat="59.52012" lon="17.592758">
        <ele>36.6</ele>
        <time>2013-12-09T20:17:14Z</time>
      </trkpt>
      <trkpt lat="59.520163" lon="17.592775">
        <ele>36.6</ele>
        <time>2013-12-09T20:17:15Z</time>
      </trkpt>
      <trkpt lat="59.520217" lon="17.592803">
        <ele>36.5</ele>
        <time>2013-12-09T20:17:16Z</time>
      </trkpt>
      <trkpt lat="59.520282" lon="17.592841">
        <ele>36.4</ele>
        <time>2013-12-09T20:17:17Z</time>
      </trkpt>
      <trkpt lat="59.520337" lon="17.592842">
        <ele>36.4</ele>
        <time>2013-12-09T20:17:18Z</time>
      </trkpt>
      <trkpt lat="59.520384" lon="17.59283">
        <ele>36.5</ele>
        <time>2013-12-09T20:17:19Z</time>
      </trkpt>
      <trkpt lat="59.520433" lon="17.592816">
        <ele>36.6</ele>
        <time>2013-12-09T20:17:20Z</time>
      </trkpt>
      <trkpt lat="59.520475" lon="17.592774">
        <ele>36.9</ele>
        <time>2013-12-09T20:17:21Z</time>
      </trkpt>
      <trkpt lat="59.520509" lon="17.59277">
        <ele>37</ele>
        <time>2013-12-09T20:17:22Z</time>
      </trkpt>
      <trkpt lat="59.520554" lon="17.592773">
        <ele>37</ele>
        <time>2013-12-09T20:17:23Z</time>
      </trkpt>
      <trkpt lat="59.520594" lon="17.592784">
        <ele>37</ele>
        <time>2013-12-09T20:17:24Z</time>
      </trkpt>
      <trkpt lat="59.52065" lon="17.592765">
        <ele>37.1</ele>
        <time>2013-12-09T20:17:25Z</time>
      </trkpt>
      <trkpt lat="59.520689" lon="17.592761">
        <ele>37.2</ele>
        <time>2013-12-09T20:17:26Z</time>
      </trkpt>
      <trkpt lat="59.520734" lon="17.592744">
        <ele>37.3</ele>
        <time>2013-12-09T20:17:27Z</time>
      </trkpt>
      <trkpt lat="59.52078" lon="17.592744">
        <ele>37.4</ele>
        <time>2013-12-09T20:17:28Z</time>
      </trkpt>
      <trkpt lat="59.520818" lon="17.59274">
        <ele>37.4</ele>
        <time>2013-12-09T20:17:29Z</time>
      </trkpt>
      <trkpt lat="59.520858" lon="17.592746">
        <ele>37.4</ele>
        <time>2013-12-09T20:17:30Z</time>
      </trkpt>
      <trkpt lat="59.520904" lon="17.592741">
        <ele>37.5</ele>
        <time>2013-12-09T20:17:31Z</time>
      </trkpt>
      <trkpt lat="59.520944" lon="17.592733">
        <ele>37.6</ele>
        <time>2013-12-09T20:17:32Z</time>
      </trkpt>
      <trkpt lat="59.520984" lon="17.592727">
        <ele>37.7</ele>
        <time>2013-12-09T20:17:33Z</time>
      </trkpt>
      <trkpt lat="59.521029" lon="17.592718">
        <ele>37.8</ele>
        <time>2013-12-09T20:17:34Z</time>
      </trkpt>
      <trkpt lat="59.521074" lon="17.592711">
        <ele>37.8</ele>
        <time>2013-12-09T20:17:35Z</time>
      </trkpt>
      <trkpt lat="59.521117" lon="17.592703">
        <ele>37.9</ele>
        <time>2013-12-09T20:17:36Z</time>
      </trkpt>
      <trkpt lat="59.521159" lon="17.592695">
        <ele>38</ele>
        <time>2013-12-09T20:17:37Z</time>
      </trkpt>
      <trkpt lat="59.521198" lon="17.592692">
        <ele>38</ele>
        <time>2013-12-09T20:17:38Z</time>
      </trkpt>
      <trkpt lat="59.521229" lon="17.592689">
        <ele>38.1</ele>
        <time>2013-12-09T20:17:39Z</time>
      </trkpt>
      <trkpt lat="59.521263" lon="17.592684">
        <ele>38.1</ele>
        <time>2013-12-09T20:17:40Z</time>
      </trkpt>
      <trkpt lat="59.521295" lon="17.592669">
        <ele>38.1</ele>
        <time>2013-12-09T20:17:41Z</time>
      </trkpt>
      <trkpt lat="59.521328" lon="17.592646">
        <ele>38.1</ele>
        <time>2013-12-09T20:17:42Z</time>
      </trkpt>
      <trkpt lat="59.521357" lon="17.592611">
        <ele>38.2</ele>
        <time>2013-12-09T20:17:43Z</time>
      </trkpt>
      <trkpt lat="59.521384" lon="17.592569">
        <ele>38.3</ele>
        <time>2013-12-09T20:17:44Z</time>
      </trkpt>
      <trkpt lat="59.521407" lon="17.59252">
        <ele>38.5</ele>
        <time>2013-12-09T20:17:45Z</time>
      </trkpt>
      <trkpt lat="59.521428" lon="17.592469">
        <ele>38.7</ele>
        <time>2013-12-09T20:17:46Z</time>
      </trkpt>
      <trkpt lat="59.52145" lon="17.592423">
        <ele>38.9</ele>
        <time>2013-12-09T20:17:47Z</time>
      </trkpt>
      <trkpt lat="59.521474" lon="17.592381">
        <ele>39</ele>
        <time>2013-12-09T20:17:48Z</time>
      </trkpt>
      <trkpt lat="59.521502" lon="17.592345">
        <ele>39.1</ele>
        <time>2013-12-09T20:17:49Z</time>
      </trkpt>
      <trkpt lat="59.521533" lon="17.592315">
        <ele>39.2</ele>
        <time>2013-12-09T20:17:50Z</time>
      </trkpt>
      <trkpt lat="59.521568" lon="17.592292">
        <ele>39.2</ele>
        <time>2013-12-09T20:17:51Z</time>
      </trkpt>
      <trkpt lat="59.52161" lon="17.59228">
        <ele>39.2</ele>
        <time>2013-12-09T20:17:52Z</time>
      </trkpt>
      <trkpt lat="59.52165" lon="17.592278">
        <ele>39.1</ele>
        <time>2013-12-09T20:17:53Z</time>
      </trkpt>
      <trkpt lat="59.521688" lon="17.59228">
        <ele>39</ele>
        <time>2013-12-09T20:17:54Z</time>
      </trkpt>
      <trkpt lat="59.521724" lon="17.592283">
        <ele>38.9</ele>
        <time>2013-12-09T20:17:55Z</time>
      </trkpt>
      <trkpt lat="59.521772" lon="17.592291">
        <ele>38.8</ele>
        <time>2013-12-09T20:17:57Z</time>
      </trkpt>
      <trkpt lat="59.52181" lon="17.59232">
        <ele>38.5</ele>
        <time>2013-12-09T20:17:59Z</time>
      </trkpt>
      <trkpt lat="59.52176" lon="17.592273">
        <ele>38.9</ele>
        <time>2013-12-09T20:18:06Z</time>
      </trkpt>
      <trkpt lat="59.521738" lon="17.592267">
        <ele>38.9</ele>
        <time>2013-12-09T20:18:07Z</time>
      </trkpt>
      <trkpt lat="59.521691" lon="17.592261">
        <ele>39.1</ele>
        <time>2013-12-09T20:18:08Z</time>
      </trkpt>
      <trkpt lat="59.521649" lon="17.592259">
        <ele>39.2</ele>
        <time>2013-12-09T20:18:09Z</time>
      </trkpt>
      <trkpt lat="59.521608" lon="17.592261">
        <ele>39.3</ele>
        <time>2013-12-09T20:18:10Z</time>
      </trkpt>
      <trkpt lat="59.521566" lon="17.59227">
        <ele>39.3</ele>
        <time>2013-12-09T20:18:11Z</time>
      </trkpt>
      <trkpt lat="59.521527" lon="17.592285">
        <ele>39.4</ele>
        <time>2013-12-09T20:18:12Z</time>
      </trkpt>
      <trkpt lat="59.52149" lon="17.592308">
        <ele>39.3</ele>
        <time>2013-12-09T20:18:13Z</time>
      </trkpt>
      <trkpt lat="59.521457" lon="17.592344">
        <ele>39.3</ele>
        <time>2013-12-09T20:18:14Z</time>
      </trkpt>
      <trkpt lat="59.521428" lon="17.592388">
        <ele>39.1</ele>
        <time>2013-12-09T20:18:15Z</time>
      </trkpt>
      <trkpt lat="59.521401" lon="17.59244">
        <ele>38.9</ele>
        <time>2013-12-09T20:18:16Z</time>
      </trkpt>
      <trkpt lat="59.521375" lon="17.592496">
        <ele>38.7</ele>
        <time>2013-12-09T20:18:17Z</time>
      </trkpt>
      <trkpt lat="59.521347" lon="17.592553">
        <ele>38.5</ele>
        <time>2013-12-09T20:18:18Z</time>
      </trkpt>
      <trkpt lat="59.521316" lon="17.592602">
        <ele>38.4</ele>
        <time>2013-12-09T20:18:19Z</time>
      </trkpt>
      <trkpt lat="59.52128" lon="17.592637">
        <ele>38.3</ele>
        <time>2013-12-09T20:18:20Z</time>
      </trkpt>
      <trkpt lat="59.521241" lon="17.592656">
        <ele>38.2</ele>
        <time>2013-12-09T20:18:21Z</time>
      </trkpt>
      <trkpt lat="59.521192" lon="17.59265">
        <ele>38.2</ele>
        <time>2013-12-09T20:18:22Z</time>
      </trkpt>
      <trkpt lat="59.521152" lon="17.592652">
        <ele>38.2</ele>
        <time>2013-12-09T20:18:23Z</time>
      </trkpt>
      <trkpt lat="59.521111" lon="17.592655">
        <ele>38.1</ele>
        <time>2013-12-09T20:18:24Z</time>
      </trkpt>
      <trkpt lat="59.521067" lon="17.592661">
        <ele>38.1</ele>
        <time>2013-12-09T20:18:25Z</time>
      </trkpt>
      <trkpt lat="59.521026" lon="17.592657">
        <ele>38.1</ele>
        <time>2013-12-09T20:18:26Z</time>
      </trkpt>
      <trkpt lat="59.520984" lon="17.592647">
        <ele>38.1</ele>
        <time>2013-12-09T20:18:27Z</time>
      </trkpt>
      <trkpt lat="59.520948" lon="17.592633">
        <ele>38.1</ele>
        <time>2013-12-09T20:18:28Z</time>
      </trkpt>
      <trkpt lat="59.520913" lon="17.592637">
        <ele>38.1</ele>
        <time>2013-12-09T20:18:29Z</time>
      </trkpt>
      <trkpt lat="59.520877" lon="17.592637">
        <ele>38</ele>
        <time>2013-12-09T20:18:30Z</time>
      </trkpt>
      <trkpt lat="59.520842" lon="17.592641">
        <ele>38</ele>
        <time>2013-12-09T20:18:31Z</time>
      </trkpt>
      <trkpt lat="59.520805" lon="17.59265">
        <ele>37.9</ele>
        <time>2013-12-09T20:18:32Z</time>
      </trkpt>
      <trkpt lat="59.520768" lon="17.592659">
        <ele>37.8</ele>
        <time>2013-12-09T20:18:33Z</time>
      </trkpt>
      <trkpt lat="59.520733" lon="17.592666">
        <ele>37.8</ele>
        <time>2013-12-09T20:18:34Z</time>
      </trkpt>
      <trkpt lat="59.520698" lon="17.592673">
        <ele>37.7</ele>
        <time>2013-12-09T20:18:35Z</time>
      </trkpt>
      <trkpt lat="59.520663" lon="17.592678">
        <ele>37.6</ele>
        <time>2013-12-09T20:18:36Z</time>
      </trkpt>
      <trkpt lat="59.520627" lon="17.592683">
        <ele>37.6</ele>
        <time>2013-12-09T20:18:37Z</time>
      </trkpt>
      <trkpt lat="59.520592" lon="17.592686">
        <ele>37.5</ele>
        <time>2013-12-09T20:18:38Z</time>
      </trkpt>
      <trkpt lat="59.520555" lon="17.592691">
        <ele>37.5</ele>
        <time>2013-12-09T20:18:39Z</time>
      </trkpt>
      <trkpt lat="59.520521" lon="17.592695">
        <ele>37.4</ele>
        <time>2013-12-09T20:18:40Z</time>
      </trkpt>
      <trkpt lat="59.520487" lon="17.592705">
        <ele>37.3</ele>
        <time>2013-12-09T20:18:41Z</time>
      </trkpt>
      <trkpt lat="59.520453" lon="17.592722">
        <ele>37.2</ele>
        <time>2013-12-09T20:18:42Z</time>
      </trkpt>
      <trkpt lat="59.520419" lon="17.592745">
        <ele>37</ele>
        <time>2013-12-09T20:18:43Z</time>
      </trkpt>
      <trkpt lat="59.520385" lon="17.592766">
        <ele>36.9</ele>
        <time>2013-12-09T20:18:44Z</time>
      </trkpt>
      <trkpt lat="59.52035" lon="17.592784">
        <ele>36.7</ele>
        <time>2013-12-09T20:18:45Z</time>
      </trkpt>
      <trkpt lat="59.520315" lon="17.592796">
        <ele>36.6</ele>
        <time>2013-12-09T20:18:46Z</time>
      </trkpt>
      <trkpt lat="59.520279" lon="17.592797">
        <ele>36.6</ele>
        <time>2013-12-09T20:18:47Z</time>
      </trkpt>
      <trkpt lat="59.520244" lon="17.592789">
        <ele>36.6</ele>
        <time>2013-12-09T20:18:48Z</time>
      </trkpt>
      <trkpt lat="59.520209" lon="17.592769">
        <ele>36.7</ele>
        <time>2013-12-09T20:18:49Z</time>
      </trkpt>
      <trkpt lat="59.520177" lon="17.592747">
        <ele>36.7</ele>
        <time>2013-12-09T20:18:50Z</time>
      </trkpt>
      <trkpt lat="59.520146" lon="17.592724">
        <ele>36.8</ele>
        <time>2013-12-09T20:18:51Z</time>
      </trkpt>
      <trkpt lat="59.520108" lon="17.592706">
        <ele>36.8</ele>
        <time>2013-12-09T20:18:53Z</time>
      </trkpt>
      <trkpt lat="59.52007" lon="17.592703">
        <ele>36.7</ele>
        <time>2013-12-09T20:18:55Z</time>
      </trkpt>
      <trkpt lat="59.520033" lon="17.592705">
        <ele>36.7</ele>
        <time>2013-12-09T20:18:57Z</time>
      </trkpt>
      <trkpt lat="59.520083" lon="17.59273">
        <ele>36.7</ele>
        <time>2013-12-09T20:19:07Z</time>
      </trkpt>
      <trkpt lat="59.520136" lon="17.592739">
        <ele>36.7</ele>
        <time>2013-12-09T20:19:09Z</time>
      </trkpt>
      <trkpt lat="59.520165" lon="17.592755">
        <ele>36.7</ele>
        <time>2013-12-09T20:19:10Z</time>
      </trkpt>
      <trkpt lat="59.520218" lon="17.592787">
        <ele>36.6</ele>
        <time>2013-12-09T20:19:11Z</time>
      </trkpt>
      <trkpt lat="59.520286" lon="17.592842">
        <ele>36.4</ele>
        <time>2013-12-09T20:19:12Z</time>
      </trkpt>
      <trkpt lat="59.52034" lon="17.592843">
        <ele>36.4</ele>
        <time>2013-12-09T20:19:13Z</time>
      </trkpt>
      <trkpt lat="59.520385" lon="17.592834">
        <ele>36.5</ele>
        <time>2013-12-09T20:19:14Z</time>
      </trkpt>
      <trkpt lat="59.520435" lon="17.592807">
        <ele>36.7</ele>
        <time>2013-12-09T20:19:15Z</time>
      </trkpt>
      <trkpt lat="59.520477" lon="17.592784">
        <ele>36.9</ele>
        <time>2013-12-09T20:19:16Z</time>
      </trkpt>
      <trkpt lat="59.520522" lon="17.592772">
        <ele>37</ele>
        <time>2013-12-09T20:19:17Z</time>
      </trkpt>
      <trkpt lat="59.520558" lon="17.592776">
        <ele>37</ele>
        <time>2013-12-09T20:19:18Z</time>
      </trkpt>
      <trkpt lat="59.5206" lon="17.592777">
        <ele>37</ele>
        <time>2013-12-09T20:19:19Z</time>
      </trkpt>
      <trkpt lat="59.520632" lon="17.592782">
        <ele>37</ele>
        <time>2013-12-09T20:19:20Z</time>
      </trkpt>
      <trkpt lat="59.520679" lon="17.592777">
        <ele>37.1</ele>
        <time>2013-12-09T20:19:21Z</time>
      </trkpt>
      <trkpt lat="59.520723" lon="17.592769">
        <ele>37.2</ele>
        <time>2013-12-09T20:19:22Z</time>
      </trkpt>
      <trkpt lat="59.520769" lon="17.592765">
        <ele>37.3</ele>
        <time>2013-12-09T20:19:23Z</time>
      </trkpt>
      <trkpt lat="59.520809" lon="17.592766">
        <ele>37.3</ele>
        <time>2013-12-09T20:19:24Z</time>
      </trkpt>
      <trkpt lat="59.520846" lon="17.59277">
        <ele>37.3</ele>
        <time>2013-12-09T20:19:25Z</time>
      </trkpt>
      <trkpt lat="59.520887" lon="17.592765">
        <ele>37.4</ele>
        <time>2013-12-09T20:19:26Z</time>
      </trkpt>
      <trkpt lat="59.520933" lon="17.592758">
        <ele>37.5</ele>
        <time>2013-12-09T20:19:27Z</time>
      </trkpt>
      <trkpt lat="59.520976" lon="17.592753">
        <ele>37.5</ele>
        <time>2013-12-09T20:19:28Z</time>
      </trkpt>
      <trkpt lat="59.521015" lon="17.592752">
        <ele>37.6</ele>
        <time>2013-12-09T20:19:29Z</time>
      </trkpt>
      <trkpt lat="59.521063" lon="17.592746">
        <ele>37.6</ele>
        <time>2013-12-09T20:19:30Z</time>
      </trkpt>
      <trkpt lat="59.521099" lon="17.592752">
        <ele>37.6</ele>
        <time>2013-12-09T20:19:31Z</time>
      </trkpt>
      <trkpt lat="59.521145" lon="17.59275">
        <ele>37.7</ele>
        <time>2013-12-09T20:19:32Z</time>
      </trkpt>
      <trkpt lat="59.521192" lon="17.592734">
        <ele>37.8</ele>
        <time>2013-12-09T20:19:33Z</time>
      </trkpt>
      <trkpt lat="59.521233" lon="17.592729">
        <ele>37.9</ele>
        <time>2013-12-09T20:19:34Z</time>
      </trkpt>
      <trkpt lat="59.521273" lon="17.592713">
        <ele>37.9</ele>
        <time>2013-12-09T20:19:35Z</time>
      </trkpt>
      <trkpt lat="59.521312" lon="17.592696">
        <ele>37.9</ele>
        <time>2013-12-09T20:19:36Z</time>
      </trkpt>
      <trkpt lat="59.521349" lon="17.592665">
        <ele>38</ele>
        <time>2013-12-09T20:19:37Z</time>
      </trkpt>
      <trkpt lat="59.521382" lon="17.592629">
        <ele>38.1</ele>
        <time>2013-12-09T20:19:38Z</time>
      </trkpt>
      <trkpt lat="59.521411" lon="17.592586">
        <ele>38.2</ele>
        <time>2013-12-09T20:19:39Z</time>
      </trkpt>
      <trkpt lat="59.521431" lon="17.592542">
        <ele>38.4</ele>
        <time>2013-12-09T20:19:40Z</time>
      </trkpt>
      <trkpt lat="59.521448" lon="17.592497">
        <ele>38.5</ele>
        <time>2013-12-09T20:19:41Z</time>
      </trkpt>
      <trkpt lat="59.521468" lon="17.592453">
        <ele>38.7</ele>
        <time>2013-12-09T20:19:42Z</time>
      </trkpt>
      <trkpt lat="59.52149" lon="17.592413">
        <ele>38.8</ele>
        <time>2013-12-09T20:19:43Z</time>
      </trkpt>
      <trkpt lat="59.521513" lon="17.592377">
        <ele>39</ele>
        <time>2013-12-09T20:19:44Z</time>
      </trkpt>
      <trkpt lat="59.521539" lon="17.592348">
        <ele>39</ele>
        <time>2013-12-09T20:19:45Z</time>
      </trkpt>
      <trkpt lat="59.521569" lon="17.592325">
        <ele>39.1</ele>
        <time>2013-12-09T20:19:46Z</time>
      </trkpt>
      <trkpt lat="59.521601" lon="17.592309">
        <ele>39.1</ele>
        <time>2013-12-09T20:19:47Z</time>
      </trkpt>
      <trkpt lat="59.521633" lon="17.592298">
        <ele>39.1</ele>
        <time>2013-12-09T20:19:48Z</time>
      </trkpt>
      <trkpt lat="59.521665" lon="17.592291">
        <ele>39</ele>
        <time>2013-12-09T20:19:49Z</time>
      </trkpt>
      <trkpt lat="59.521695" lon="17.592288">
        <ele>38.9</ele>
        <time>2013-12-09T20:19:50Z</time>
      </trkpt>
      <trkpt lat="59.521724" lon="17.592288">
        <ele>38.9</ele>
        <time>2013-12-09T20:19:51Z</time>
      </trkpt>
      <trkpt lat="59.521754" lon="17.59229">
        <ele>38.8</ele>
        <time>2013-12-09T20:19:52Z</time>
      </trkpt>
      <trkpt lat="59.521782" lon="17.592293">
        <ele>38.7</ele>
        <time>2013-12-09T20:19:53Z</time>
      </trkpt>
      <trkpt lat="59.521825" lon="17.592318">
        <ele>38.5</ele>
        <time>2013-12-09T20:19:55Z</time>
      </trkpt>
      <trkpt lat="59.521855" lon="17.59233">
        <ele>38.4</ele>
        <time>2013-12-09T20:19:59Z</time>
      </trkpt>
      <trkpt lat="59.521828" lon="17.592302">
        <ele>38.6</ele>
        <time>2013-12-09T20:20:02Z</time>
      </trkpt>
      <trkpt lat="59.521786" lon="17.592299">
        <ele>38.7</ele>
        <time>2013-12-09T20:20:04Z</time>
      </trkpt>
      <trkpt lat="59.521736" lon="17.592279">
        <ele>38.9</ele>
        <time>2013-12-09T20:20:06Z</time>
      </trkpt>
      <trkpt lat="59.521704" lon="17.592273">
        <ele>39</ele>
        <time>2013-12-09T20:20:07Z</time>
      </trkpt>
      <trkpt lat="59.521668" lon="17.592268">
        <ele>39.1</ele>
        <time>2013-12-09T20:20:08Z</time>
      </trkpt>
      <trkpt lat="59.521636" lon="17.592268">
        <ele>39.2</ele>
        <time>2013-12-09T20:20:09Z</time>
      </trkpt>
      <trkpt lat="59.521605" lon="17.592271">
        <ele>39.2</ele>
        <time>2013-12-09T20:20:10Z</time>
      </trkpt>
      <trkpt lat="59.521574" lon="17.592279">
        <ele>39.3</ele>
        <time>2013-12-09T20:20:11Z</time>
      </trkpt>
      <trkpt lat="59.521545" lon="17.592293">
        <ele>39.3</ele>
        <time>2013-12-09T20:20:12Z</time>
      </trkpt>
      <trkpt lat="59.521516" lon="17.592313">
        <ele>39.3</ele>
        <time>2013-12-09T20:20:13Z</time>
      </trkpt>
      <trkpt lat="59.521488" lon="17.59234">
        <ele>39.2</ele>
        <time>2013-12-09T20:20:14Z</time>
      </trkpt>
      <trkpt lat="59.521462" lon="17.592373">
        <ele>39.1</ele>
        <time>2013-12-09T20:20:15Z</time>
      </trkpt>
      <trkpt lat="59.521437" lon="17.592411">
        <ele>39</ele>
        <time>2013-12-09T20:20:16Z</time>
      </trkpt>
      <trkpt lat="59.521413" lon="17.592456">
        <ele>38.8</ele>
        <time>2013-12-09T20:20:17Z</time>
      </trkpt>
      <trkpt lat="59.521389" lon="17.592504">
        <ele>38.6</ele>
        <time>2013-12-09T20:20:18Z</time>
      </trkpt>
      <trkpt lat="59.521357" lon="17.592563">
        <ele>38.4</ele>
        <time>2013-12-09T20:20:19Z</time>
      </trkpt>
      <trkpt lat="59.521322" lon="17.592612">
        <ele>38.3</ele>
        <time>2013-12-09T20:20:20Z</time>
      </trkpt>
      <trkpt lat="59.521286" lon="17.592647">
        <ele>38.2</ele>
        <time>2013-12-09T20:20:21Z</time>
      </trkpt>
      <trkpt lat="59.521246" lon="17.592666">
        <ele>38.2</ele>
        <time>2013-12-09T20:20:22Z</time>
      </trkpt>
      <trkpt lat="59.521205" lon="17.592671">
        <ele>38.1</ele>
        <time>2013-12-09T20:20:23Z</time>
      </trkpt>
      <trkpt lat="59.521166" lon="17.592671">
        <ele>38.1</ele>
        <time>2013-12-09T20:20:24Z</time>
      </trkpt>
      <trkpt lat="59.521127" lon="17.59267">
        <ele>38.1</ele>
        <time>2013-12-09T20:20:25Z</time>
      </trkpt>
      <trkpt lat="59.521088" lon="17.592669">
        <ele>38.1</ele>
        <time>2013-12-09T20:20:26Z</time>
      </trkpt>
      <trkpt lat="59.521049" lon="17.59267">
        <ele>38</ele>
        <time>2013-12-09T20:20:27Z</time>
      </trkpt>
      <trkpt lat="59.521011" lon="17.592674">
        <ele>38</ele>
        <time>2013-12-09T20:20:28Z</time>
      </trkpt>
      <trkpt lat="59.520973" lon="17.592678">
        <ele>37.9</ele>
        <time>2013-12-09T20:20:29Z</time>
      </trkpt>
      <trkpt lat="59.520935" lon="17.592683">
        <ele>37.8</ele>
        <time>2013-12-09T20:20:30Z</time>
      </trkpt>
      <trkpt lat="59.520898" lon="17.592683">
        <ele>37.8</ele>
        <time>2013-12-09T20:20:31Z</time>
      </trkpt>
      <trkpt lat="59.520862" lon="17.592682">
        <ele>37.8</ele>
        <time>2013-12-09T20:20:32Z</time>
      </trkpt>
      <trkpt lat="59.520826" lon="17.592678">
        <ele>37.8</ele>
        <time>2013-12-09T20:20:33Z</time>
      </trkpt>
      <trkpt lat="59.52079" lon="17.592678">
        <ele>37.8</ele>
        <time>2013-12-09T20:20:34Z</time>
      </trkpt>
      <trkpt lat="59.520753" lon="17.592684">
        <ele>37.7</ele>
        <time>2013-12-09T20:20:35Z</time>
      </trkpt>
      <trkpt lat="59.520716" lon="17.592693">
        <ele>37.6</ele>
        <time>2013-12-09T20:20:36Z</time>
      </trkpt>
      <trkpt lat="59.520678" lon="17.592698">
        <ele>37.5</ele>
        <time>2013-12-09T20:20:37Z</time>
      </trkpt>
      <trkpt lat="59.52064" lon="17.592702">
        <ele>37.5</ele>
        <time>2013-12-09T20:20:38Z</time>
      </trkpt>
      <trkpt lat="59.520602" lon="17.592704">
        <ele>37.4</ele>
        <time>2013-12-09T20:20:39Z</time>
      </trkpt>
      <trkpt lat="59.520563" lon="17.59271">
        <ele>37.4</ele>
        <time>2013-12-09T20:20:40Z</time>
      </trkpt>
      <trkpt lat="59.520524" lon="17.592716">
        <ele>37.3</ele>
        <time>2013-12-09T20:20:41Z</time>
      </trkpt>
      <trkpt lat="59.520486" lon="17.592726">
        <ele>37.2</ele>
        <time>2013-12-09T20:20:42Z</time>
      </trkpt>
      <trkpt lat="59.520449" lon="17.592742">
        <ele>37.1</ele>
        <time>2013-12-09T20:20:43Z</time>
      </trkpt>
      <trkpt lat="59.520411" lon="17.592764">
        <ele>36.9</ele>
        <time>2013-12-09T20:20:44Z</time>
      </trkpt>
      <trkpt lat="59.520373" lon="17.592785">
        <ele>36.7</ele>
        <time>2013-12-09T20:20:45Z</time>
      </trkpt>
      <trkpt lat="59.520334" lon="17.592802">
        <ele>36.6</ele>
        <time>2013-12-09T20:20:46Z</time>
      </trkpt>
      <trkpt lat="59.520295" lon="17.592807">
        <ele>36.6</ele>
        <time>2013-12-09T20:20:47Z</time>
      </trkpt>
      <trkpt lat="59.520257" lon="17.5928">
        <ele>36.6</ele>
        <time>2013-12-09T20:20:48Z</time>
      </trkpt>
      <trkpt lat="59.52022" lon="17.592785">
        <ele>36.6</ele>
        <time>2013-12-09T20:20:49Z</time>
      </trkpt>
      <trkpt lat="59.520185" lon="17.592766">
        <ele>36.7</ele>
        <time>2013-12-09T20:20:50Z</time>
      </trkpt>
      <trkpt lat="59.520144" lon="17.592738">
        <ele>36.7</ele>
        <time>2013-12-09T20:20:52Z</time>
      </trkpt>
      <trkpt lat="59.520103" lon="17.592718">
        <ele>36.7</ele>
        <time>2013-12-09T20:20:54Z</time>
      </trkpt>
      <trkpt lat="59.520062" lon="17.592713">
        <ele>36.7</ele>
        <time>2013-12-09T20:20:56Z</time>
      </trkpt>
      <trkpt lat="59.520032" lon="17.592708">
        <ele>36.7</ele>
        <time>2013-12-09T20:20:58Z</time>
      </trkpt>
      <trkpt lat="59.520061" lon="17.592745">
        <ele>36.6</ele>
        <time>2013-12-09T20:21:07Z</time>
      </trkpt>
      <trkpt lat="59.520098" lon="17.592751">
        <ele>36.6</ele>
        <time>2013-12-09T20:21:08Z</time>
      </trkpt>
      <trkpt lat="59.520147" lon="17.59277">
        <ele>36.6</ele>
        <time>2013-12-09T20:21:09Z</time>
      </trkpt>
      <trkpt lat="59.520198" lon="17.592803">
        <ele>36.5</ele>
        <time>2013-12-09T20:21:10Z</time>
      </trkpt>
      <trkpt lat="59.52027" lon="17.592841">
        <ele>36.4</ele>
        <time>2013-12-09T20:21:11Z</time>
      </trkpt>
      <trkpt lat="59.520324" lon="17.592838">
        <ele>36.4</ele>
        <time>2013-12-09T20:21:12Z</time>
      </trkpt>
      <trkpt lat="59.520371" lon="17.592827">
        <ele>36.5</ele>
        <time>2013-12-09T20:21:13Z</time>
      </trkpt>
      <trkpt lat="59.520419" lon="17.592794">
        <ele>36.7</ele>
        <time>2013-12-09T20:21:14Z</time>
      </trkpt>
      <trkpt lat="59.520474" lon="17.59277">
        <ele>36.9</ele>
        <time>2013-12-09T20:21:15Z</time>
      </trkpt>
      <trkpt lat="59.520524" lon="17.592767">
        <ele>37</ele>
        <time>2013-12-09T20:21:16Z</time>
      </trkpt>
      <trkpt lat="59.520569" lon="17.592761">
        <ele>37.1</ele>
        <time>2013-12-09T20:21:17Z</time>
      </trkpt>
      <trkpt lat="59.520618" lon="17.592762">
        <ele>37.1</ele>
        <time>2013-12-09T20:21:18Z</time>
      </trkpt>
      <trkpt lat="59.52067" lon="17.59276">
        <ele>37.2</ele>
        <time>2013-12-09T20:21:19Z</time>
      </trkpt>
      <trkpt lat="59.52072" lon="17.59275">
        <ele>37.3</ele>
        <time>2013-12-09T20:21:20Z</time>
      </trkpt>
      <trkpt lat="59.520765" lon="17.592744">
        <ele>37.4</ele>
        <time>2013-12-09T20:21:21Z</time>
      </trkpt>
      <trkpt lat="59.520802" lon="17.592745">
        <ele>37.4</ele>
        <time>2013-12-09T20:21:22Z</time>
      </trkpt>
      <trkpt lat="59.520848" lon="17.592741">
        <ele>37.5</ele>
        <time>2013-12-09T20:21:23Z</time>
      </trkpt>
      <trkpt lat="59.520899" lon="17.592727">
        <ele>37.6</ele>
        <time>2013-12-09T20:21:24Z</time>
      </trkpt>
      <trkpt lat="59.520951" lon="17.59272">
        <ele>37.7</ele>
        <time>2013-12-09T20:21:25Z</time>
      </trkpt>
      <trkpt lat="59.520994" lon="17.592712">
        <ele>37.8</ele>
        <time>2013-12-09T20:21:26Z</time>
      </trkpt>
      <trkpt lat="59.52104" lon="17.592713">
        <ele>37.8</ele>
        <time>2013-12-09T20:21:27Z</time>
      </trkpt>
      <trkpt lat="59.521082" lon="17.592704">
        <ele>37.9</ele>
        <time>2013-12-09T20:21:28Z</time>
      </trkpt>
      <trkpt lat="59.521118" lon="17.592703">
        <ele>37.9</ele>
        <time>2013-12-09T20:21:29Z</time>
      </trkpt>
      <trkpt lat="59.521156" lon="17.592695">
        <ele>38</ele>
        <time>2013-12-09T20:21:30Z</time>
      </trkpt>
      <trkpt lat="59.521201" lon="17.592687">
        <ele>38.1</ele>
        <time>2013-12-09T20:21:31Z</time>
      </trkpt>
      <trkpt lat="59.521242" lon="17.592688">
        <ele>38.1</ele>
        <time>2013-12-09T20:21:32Z</time>
      </trkpt>
      <trkpt lat="59.521282" lon="17.59268">
        <ele>38.1</ele>
        <time>2013-12-09T20:21:33Z</time>
      </trkpt>
      <trkpt lat="59.521317" lon="17.592656">
        <ele>38.1</ele>
        <time>2013-12-09T20:21:34Z</time>
      </trkpt>
      <trkpt lat="59.521347" lon="17.592626">
        <ele>38.2</ele>
        <time>2013-12-09T20:21:35Z</time>
      </trkpt>
      <trkpt lat="59.521374" lon="17.592584">
        <ele>38.3</ele>
        <time>2013-12-09T20:21:36Z</time>
      </trkpt>
      <trkpt lat="59.521403" lon="17.592544">
        <ele>38.4</ele>
        <time>2013-12-09T20:21:37Z</time>
      </trkpt>
      <trkpt lat="59.521427" lon="17.592499">
        <ele>38.6</ele>
        <time>2013-12-09T20:21:38Z</time>
      </trkpt>
      <trkpt lat="59.52145" lon="17.592454">
        <ele>38.7</ele>
        <time>2013-12-09T20:21:39Z</time>
      </trkpt>
      <trkpt lat="59.521487" lon="17.592386">
        <ele>39</ele>
        <time>2013-12-09T20:21:41Z</time>
      </trkpt>
      <trkpt lat="59.521511" lon="17.592355">
        <ele>39.1</ele>
        <time>2013-12-09T20:21:42Z</time>
      </trkpt>
      <trkpt lat="59.521538" lon="17.592328">
        <ele>39.1</ele>
        <time>2013-12-09T20:21:43Z</time>
      </trkpt>
      <trkpt lat="59.52157" lon="17.592303">
        <ele>39.2</ele>
        <time>2013-12-09T20:21:44Z</time>
      </trkpt>
      <trkpt lat="59.521604" lon="17.592289">
        <ele>39.2</ele>
        <time>2013-12-09T20:21:45Z</time>
      </trkpt>
      <trkpt lat="59.521638" lon="17.592279">
        <ele>39.1</ele>
        <time>2013-12-09T20:21:46Z</time>
      </trkpt>
      <trkpt lat="59.521671" lon="17.592275">
        <ele>39.1</ele>
        <time>2013-12-09T20:21:47Z</time>
      </trkpt>
      <trkpt lat="59.521702" lon="17.592274">
        <ele>39</ele>
        <time>2013-12-09T20:21:48Z</time>
      </trkpt>
      <trkpt lat="59.521731" lon="17.592281">
        <ele>38.9</ele>
        <time>2013-12-09T20:21:49Z</time>
      </trkpt>
      <trkpt lat="59.521758" lon="17.59229">
        <ele>38.8</ele>
        <time>2013-12-09T20:21:50Z</time>
      </trkpt>
      <trkpt lat="59.521787" lon="17.5923">
        <ele>38.7</ele>
        <time>2013-12-09T20:21:52Z</time>
      </trkpt>
      <trkpt lat="59.521816" lon="17.592311">
        <ele>38.5</ele>
        <time>2013-12-09T20:21:54Z</time>
      </trkpt>
    </trkseg>
  </trk>
</gpx>